Provisional Data: East Fork First Fork Sinnemahoning Creek near Logue, PA


Please select a monitoring station.
Please select start date.
Please select start date.

Toggle Unit: C/F Toggle Unit: C/F
Sample Time Temperature (C) Temperature (F) Specific Conductivity (mS/cm) pH   Turbidity (NTU+) DO (mg/L)
8/9/2021 12:00:00 AM 17.02 62.636 0.054 6.93 4.63 8.78
8/9/2021 12:15:00 AM 16.96 62.528 0.054 6.96 4.59 8.81
8/9/2021 12:30:00 AM 16.9 62.42 0.054 6.97 4.7 8.8
8/9/2021 12:45:00 AM 16.83 62.294 0.054 6.95 4.81 8.84
8/9/2021 1:00:00 AM 16.77 62.186 0.054 6.97 5.15 8.83
8/9/2021 1:15:00 AM 16.71 62.078 0.054 6.98 5.02 8.86
8/9/2021 1:30:00 AM 16.67 62.006 0.054 6.86 4.97 8.83
8/9/2021 1:45:00 AM 16.61 61.898 0.054 6.98 4.81 8.86
8/9/2021 2:00:00 AM 16.55 61.79 0.054 6.93 4.8 8.88
8/9/2021 2:15:00 AM 16.5 61.7 0.054 6.98 5.05 8.9
8/9/2021 2:30:00 AM 16.46 61.628 0.054 6.85 4.76 8.9
8/9/2021 2:45:00 AM 16.4 61.52 0.054 6.97 5.06 8.9
8/9/2021 3:00:00 AM 16.35 61.43 0.054 6.97 4.64 8.94
8/9/2021 3:15:00 AM 16.32 61.376 0.054 6.96 4.83 8.91
8/9/2021 3:30:00 AM 16.28 61.304 0.054 6.97 4.98 8.93
8/9/2021 3:45:00 AM 16.24 61.232 0.054 6.87 4.88 8.96
8/9/2021 4:00:00 AM 16.19 61.142 0.054 6.98 5.09 8.96
8/9/2021 4:15:00 AM 16.15 61.07 0.054 6.97 4.8 8.96
8/9/2021 4:30:00 AM 16.12 61.016 0.054 6.97 4.87 8.96
8/9/2021 4:45:00 AM 16.09 60.962 0.054 6.97 5.01 8.97
8/9/2021 5:00:00 AM 16.06 60.908 0.054 6.98 4.74 8.99
8/9/2021 5:15:00 AM 16.02 60.836 0.054 6.86 4.62 8.99
8/9/2021 5:30:00 AM 15.99 60.782 0.054 6.98 5.01 8.99
8/9/2021 5:45:00 AM 15.95 60.71 0.054 6.97 4.65 9
8/9/2021 6:00:00 AM 15.92 60.656 0.054 6.97 4.98 8.99
8/9/2021 6:15:00 AM 15.88 60.584 0.054 6.97 5.55 9.01
8/9/2021 6:30:00 AM 15.85 60.53 0.054 6.84 5.37 9.03
8/9/2021 6:45:00 AM 15.81 60.458 0.054 6.97 4.73 9.06
8/9/2021 7:00:00 AM 15.78 60.404 0.054 6.98 4.61 9.12
8/9/2021 7:15:00 AM 15.75 60.35 0.054 6.9 5.06 9.16
8/9/2021 7:30:00 AM 15.73 60.314 0.054 6.99 4.41 9.2
8/9/2021 7:45:00 AM 15.71 60.278 0.054 7 4.68 9.25
8/9/2021 8:00:00 AM 15.7 60.26 0.054 7.01 4.43 9.31
8/9/2021 8:15:00 AM 15.71 60.278 0.054 7.03 4.41 9.37
8/9/2021 8:30:00 AM 15.73 60.314 0.054 7.04 4.59 9.41
8/9/2021 8:45:00 AM 15.75 60.35 0.054 7.06 4.61 9.46
8/9/2021 9:00:00 AM 15.79 60.422 0.053 7.07 4.83 9.48
8/9/2021 9:15:00 AM 15.83 60.494 0.053 7.08 4.48 9.52
8/9/2021 9:30:00 AM 15.93 60.674 0.053 7.09 4.32 9.59
8/9/2021 9:45:00 AM 16.03 60.854 0.053 7.12 4.28 9.61
8/9/2021 10:00:00 AM 16.1 60.98 0.053 7.13 4.22 9.62
8/9/2021 10:15:00 AM 16.19 61.142 0.053 7.15 4.4 9.64
8/9/2021 10:30:00 AM 16.3 61.34 0.053 7.09 4.26 9.64
8/9/2021 10:45:00 AM 16.43 61.574 0.053 7.19 4.22 9.61
8/9/2021 11:00:00 AM 16.6 61.88 0.053 7.21 4.29 9.57
8/9/2021 11:15:00 AM 16.77 62.186 0.053 7.22 4.39 9.58
8/9/2021 11:30:00 AM 16.97 62.546 0.053 7.23 4.39 9.54
8/9/2021 11:45:00 AM 17.19 62.942 0.052 7.25 4.39 9.52
8/9/2021 12:00:00 PM 17.32 63.176 0.052 7.26 4.24 9.48
8/9/2021 12:15:00 PM 17.51 63.518 0.052 7.15 4.21 9.47
8/9/2021 12:30:00 PM 17.8 64.04 0.052 7.28 4.31 9.46
8/9/2021 12:45:00 PM 18.01 64.418 0.052 7.3 4.34 9.41
8/9/2021 1:00:00 PM 18.38 65.084 0.052 7.32 4.26 9.43
8/9/2021 1:15:00 PM 18.62 65.516 0.052 7.33 4.38 9.38
8/9/2021 1:30:00 PM 18.66 65.588 0.052 7.33 4.44 9.35
8/9/2021 1:45:00 PM 18.86 65.948 0.052 7.35 5.89 9.35
8/9/2021 2:00:00 PM 18.95 66.11 0.052 7.34 4.38 9.29
8/9/2021 2:15:00 PM 19.27 66.686 0.052 7.25 4.46 9.29
8/9/2021 2:30:00 PM 19.48 67.064 0.052 7.37 4.32 9.25
8/9/2021 2:45:00 PM 19.55 67.19 0.052 7.38 4.36 9.25
8/9/2021 3:00:00 PM 19.69 67.442 0.052 7.37 4.21 9.2
8/9/2021 3:15:00 PM 19.58 67.244 0.052 7.36 4.61 9.09
8/9/2021 3:30:00 PM 19.62 67.316 0.052 7.34 4.28 9.04
8/9/2021 3:45:00 PM 19.95 67.91 0.052 7.36 4.28 9.08
8/9/2021 4:00:00 PM 19.97 67.946 0.052 7.36 4.3 9.05
8/9/2021 4:15:00 PM 20.03 68.054 0.052 7.36 4.23 9.03
8/9/2021 4:30:00 PM 20.18 68.324 0.052 7.33 4.29 9.01
8/9/2021 4:45:00 PM 20.18 68.324 0.052 7.37 4.14 9.01
8/9/2021 5:00:00 PM 20.22 68.396 0.052 7.34 4.34 8.97
8/9/2021 5:15:00 PM 20.19 68.342 0.052 7.27 5.37 8.91
8/9/2021 5:30:00 PM 20.17 68.306 0.052 7.34 4.21 8.89
8/9/2021 5:45:00 PM 20.1 68.18 0.052 7.32 4.36 8.81
8/9/2021 6:00:00 PM 20.06 68.108 0.052 7.3 4.17 8.77
8/9/2021 6:15:00 PM 20 68 0.052 7.27 4.26 8.72
8/9/2021 6:30:00 PM 19.93 67.874 0.052 7.25 4.33 8.69
8/9/2021 6:45:00 PM 19.85 67.73 0.053 7.22 7.3 8.6
8/9/2021 7:00:00 PM 19.74 67.532 0.053 7.15 4.88 8.64
8/9/2021 7:15:00 PM 19.66 67.388 0.053 7.17 4.23 8.61
8/9/2021 7:30:00 PM 19.58 67.244 0.053 7.15 4.35 8.57
8/9/2021 7:45:00 PM 19.48 67.064 0.053 7.11 4.3 8.54
8/9/2021 8:00:00 PM 19.39 66.902 0.053 7.09 4.55 8.5
8/9/2021 8:15:00 PM 19.29 66.722 0.054 7.08 4.83 8.44
8/9/2021 8:30:00 PM 19.19 66.542 0.054 7.05 4.57 8.42
8/9/2021 8:45:00 PM 19.07 66.326 0.054 6.95 4.67 8.44
8/9/2021 9:00:00 PM 18.98 66.164 0.054 7.03 10.39 8.37
8/9/2021 9:15:00 PM 18.9 66.02 0.054 7.02 4.82 8.41
8/9/2021 9:30:00 PM 18.79 65.82201 0.054 7.02 4.83 8.41
8/9/2021 9:45:00 PM 18.7 65.66 0.054 7.01 4.68 8.44
8/9/2021 10:00:00 PM 18.62 65.516 0.054 7 4.87 8.45
8/9/2021 10:15:00 PM 18.53 65.354 0.055 6.99 4.75 8.46
8/9/2021 10:30:00 PM 18.45 65.21 0.055 6.94 5.59 8.46
8/9/2021 10:45:00 PM 18.37 65.066 0.055 6.99 4.9 8.52
8/9/2021 11:00:00 PM 18.3 64.94 0.055 6.99 5 8.53
8/9/2021 11:15:00 PM 18.23 64.814 0.055 6.98 5.21 8.51
8/9/2021 11:30:00 PM 18.16 64.688 0.055 6.97 5.15 8.52
8/9/2021 11:45:00 PM 18.09 64.562 0.055 6.97 5.13 8.53
8/10/2021 12:00:00 AM 18.03 64.454 0.055 6.97 5.03 8.53
8/10/2021 12:15:00 AM 17.96 64.328 0.055 6.98 5.45 8.57
8/10/2021 12:30:00 AM 17.9 64.22 0.055 6.98 5.39 8.56
8/10/2021 12:45:00 AM 17.85 64.13 0.055 6.96 4.88 8.6
8/10/2021 1:00:00 AM 17.79 64.022 0.055 6.98 4.73 8.59
8/10/2021 1:15:00 AM 17.74 63.932 0.055 6.97 5.08 8.6
8/10/2021 1:30:00 AM 17.67 63.806 0.055 6.98 4.99 8.65
8/10/2021 1:45:00 AM 17.63 63.734 0.055 6.86 5.06 8.62
8/10/2021 2:00:00 AM 17.57 63.626 0.055 6.91 5.2 8.64
8/10/2021 2:15:00 AM 17.51 63.518 0.055 6.98 5.37 8.68
8/10/2021 2:30:00 AM 17.46 63.428 0.055 6.98 5.04 8.65
8/10/2021 2:45:00 AM 17.41 63.338 0.055 6.98 5.57 8.69
8/10/2021 3:00:00 AM 17.37 63.266 0.055 6.98 4.71 8.69
8/10/2021 3:15:00 AM 17.33 63.194 0.055 6.98 6.14 8.71
8/10/2021 3:30:00 AM 17.29 63.122 0.055 6.97 5.14 8.7
8/10/2021 3:45:00 AM 17.24 63.032 0.055 6.97 5.47 8.68
8/10/2021 4:00:00 AM 17.2 62.96 0.055 6.84 5.78 8.71
8/10/2021 4:15:00 AM 17.18 62.924 0.055 6.96 6.36 8.72
8/10/2021 4:30:00 AM 17.13 62.834 0.055 6.95 7.19 8.75
8/10/2021 4:45:00 AM 17.11 62.798 0.056 6.94 5.32 8.68
8/10/2021 5:00:00 AM 17.07 62.726 0.055 6.96 5.15 8.76
8/10/2021 5:15:00 AM 17.04 62.672 0.055 6.96 5.51 8.76
8/10/2021 5:30:00 AM 17.01 62.618 0.055 6.96 5.15 8.78
8/10/2021 5:45:00 AM 16.99 62.582 0.055 6.94 5.85 8.76
8/10/2021 6:00:00 AM 16.97 62.546 0.055 6.94 5.18 8.72
8/10/2021 6:15:00 AM 16.93 62.474 0.055 6.84 7.02 8.77
8/10/2021 6:30:00 AM 16.89 62.402 0.055 6.95 4.86 8.79
8/10/2021 6:45:00 AM 16.85 62.33 0.055 6.84 5.79 8.78
8/10/2021 7:00:00 AM 16.83 62.294 0.055 6.97 6.16 8.87
8/10/2021 7:15:00 AM 16.83 62.294 0.055 6.98 5.77 8.93
8/10/2021 7:30:00 AM 16.83 62.294 0.055 6.98 6.41 8.96
8/10/2021 7:45:00 AM 16.83 62.294 0.055 6.99 4.48 8.98
8/10/2021 8:00:00 AM 16.82 62.276 0.055 7.01 5.07 9.07
8/10/2021 8:15:00 AM 16.81 62.258 0.055 6.92 4.68 9.11
8/10/2021 8:30:00 AM 16.82 62.276 0.055 7.03 4.78 9.15
8/10/2021 8:45:00 AM 16.85 62.33 0.055 7.04 5.14 9.19
8/10/2021 9:00:00 AM 16.88 62.384 0.055 7.05 5.3 9.25
8/10/2021 9:15:00 AM 16.93 62.474 0.054 6.97 4.74 9.29
8/10/2021 9:30:00 AM 17.02 62.636 0.054 7.1 4.73 9.34
8/10/2021 9:45:00 AM 17.08 62.744 0.054 7.13 4.93 9.38
8/10/2021 10:00:00 AM 17.16 62.888 0.054 7.16 5.39 9.39
8/10/2021 10:15:00 AM 17.23 63.014 0.054 7.17 4.9 9.39
8/10/2021 10:30:00 AM 17.3 63.14 0.054 7.2 4.44 9.38
8/10/2021 10:45:00 AM 17.36 63.248 0.054 7.21 4.73 9.35
8/10/2021 11:00:00 AM 17.53 63.554 0.054 7.23 4.55 9.36
8/10/2021 11:15:00 AM 17.66 63.788 0.054 7.16 5.8 9.34
8/10/2021 11:30:00 AM 17.78 64.004 0.054 7.27 4.47 9.36
8/10/2021 11:45:00 AM 17.9 64.22 0.053 7.27 4.4 9.35
8/10/2021 12:00:00 PM 18.13 64.634 0.053 7.24 4.38 9.39
8/10/2021 12:15:00 PM 18.18 64.724 0.053 7.32 4.41 9.4
8/10/2021 12:30:00 PM 18.25 64.85 0.053 7.3 4.87 9.31
8/10/2021 12:45:00 PM 18.47 65.246 0.053 7.32 4.16 9.32
8/10/2021 1:00:00 PM 18.44 65.192 0.053 7.22 5.25 9.24
8/10/2021 1:15:00 PM 18.49 65.282 0.053 7.3 4.58 9.15
8/10/2021 1:30:00 PM 18.58 65.444 0.053 7.29 4.28 9.11
8/10/2021 1:45:00 PM 18.65 65.57 0.053 7.26 4.97 9.07
8/10/2021 2:00:00 PM 18.73 65.714 0.053 7.27 5.96 9.04
8/10/2021 2:15:00 PM 18.78 65.804 0.053 7.27 6.3 9.04
8/10/2021 2:30:00 PM 19.01 66.218 0.053 7.28 5.48 9.12
8/10/2021 2:45:00 PM 18.9 66.02 0.053 7.29 5.25 9.11
8/10/2021 3:00:00 PM 18.89 66.002 0.053 7.29 4.65 9.14
8/10/2021 3:15:00 PM 18.99 66.182 0.053 7.21 5.01 9.15
8/10/2021 3:30:00 PM 19.09 66.362 0.052 7.32 5.24 9.19
8/10/2021 3:45:00 PM 19.11 66.398 0.053 7.33 5.05 9.17
8/10/2021 4:00:00 PM 19.19 66.542 0.053 7.33 4.95 9.17
8/10/2021 4:15:00 PM 19.4 66.92 0.053 7.35 4.77 9.19
8/10/2021 4:30:00 PM 19.44 66.992 0.053 7.36 5.06 9.16
8/10/2021 4:45:00 PM 19.45 67.01 0.053 7.34 4.77 9.07
8/10/2021 5:00:00 PM 19.39 66.902 0.053 7.22 4.71 8.98
8/10/2021 5:15:00 PM 19.44 66.992 0.053 7.29 5.48 8.94
8/10/2021 5:30:00 PM 19.45 67.01 0.053 7.29 4.68 8.96
8/10/2021 5:45:00 PM 19.42 66.956 0.053 7.26 6.29 8.86
8/10/2021 6:00:00 PM 19.41 66.938 0.053 7.22 4.93 8.87
8/10/2021 6:15:00 PM 19.37 66.866 0.053 7.23 4.95 8.84
8/10/2021 6:30:00 PM 19.29 66.722 0.053 7.2 5.81 8.75
8/10/2021 6:45:00 PM 19.23 66.614 0.054 7.16 5.15 8.66
8/10/2021 7:00:00 PM 19.16 66.488 0.054 7.13 4.82 8.65
8/10/2021 7:15:00 PM 19.12 66.416 0.054 7.13 4.59 8.66
8/10/2021 7:30:00 PM 19.08 66.344 0.054 7.06 4.38 8.62
8/10/2021 7:45:00 PM 19.02 66.236 0.054 7.05 4.58 8.56
8/10/2021 8:00:00 PM 18.95 66.11 0.054 7.11 4.61 8.55
8/10/2021 8:15:00 PM 18.88 65.984 0.054 7.09 4.72 8.52
8/10/2021 8:30:00 PM 18.82 65.876 0.054 7.06 5.11 8.49
8/10/2021 8:45:00 PM 18.76 65.768 0.055 7 4.56 8.48
8/10/2021 9:00:00 PM 18.71 65.67799 0.055 7.04 4.34 8.47
8/10/2021 9:15:00 PM 18.66 65.588 0.055 7.02 4.51 8.44
8/10/2021 9:30:00 PM 18.66 65.588 0.054 7 4.68 8.45
8/10/2021 9:45:00 PM 18.59 65.462 0.055 7 4.95 8.43
8/10/2021 10:00:00 PM 18.52 65.336 0.055 7.01 4.46 8.45
8/10/2021 10:15:00 PM 18.48 65.264 0.055 7.01 4.52 8.46
8/10/2021 10:30:00 PM 18.47 65.246 0.055 7 4.52 8.44
8/10/2021 10:45:00 PM 18.44 65.192 0.055 6.99 4.76 8.46
8/10/2021 11:00:00 PM 18.38 65.084 0.055 7 4.53 8.44
8/10/2021 11:15:00 PM 18.34 65.012 0.055 6.89 4.55 8.39
8/10/2021 11:30:00 PM 18.31 64.958 0.055 6.99 4.55 8.43
8/10/2021 11:45:00 PM 18.26 64.868 0.055 6.99 4.53 8.44
8/11/2021 12:00:00 AM 18.21 64.778 0.055 6.98 4.41 8.49
8/11/2021 12:15:00 AM 18.17 64.706 0.055 6.85 4.27 8.48
8/11/2021 12:30:00 AM 18.13 64.634 0.055 6.97 4.36 8.5
8/11/2021 12:45:00 AM 18.08 64.544 0.055 6.97 4.36 8.51
8/11/2021 1:00:00 AM 18.04 64.472 0.056 6.98 4.47 8.49
8/11/2021 1:15:00 AM 17.99 64.382 0.056 6.98 4.76 8.53
8/11/2021 1:30:00 AM 17.96 64.328 0.056 6.98 4.6 8.53
8/11/2021 1:45:00 AM 17.91 64.238 0.056 6.87 4.82 8.56
8/11/2021 2:00:00 AM 17.87 64.166 0.056 6.99 4.54 8.54
8/11/2021 2:15:00 AM 17.84 64.112 0.056 6.99 4.31 8.55
8/11/2021 2:30:00 AM 17.81 64.058 0.056 6.99 4.27 8.58
8/11/2021 2:45:00 AM 17.76 63.968 0.056 6.99 4.37 8.6
8/11/2021 3:00:00 AM 17.74 63.932 0.056 6.98 4.29 8.59
8/11/2021 3:15:00 AM 17.7 63.86 0.056 6.98 4.49 8.62
8/11/2021 3:30:00 AM 17.67 63.806 0.056 6.98 4.91 8.59
8/11/2021 3:45:00 AM 17.63 63.734 0.056 6.97 4.74 8.59
8/11/2021 4:00:00 AM 17.61 63.698 0.056 6.96 5.71 8.6
8/11/2021 4:15:00 AM 17.58 63.644 0.056 6.95 4.6 8.61
8/11/2021 4:30:00 AM 17.55 63.59 0.056 6.96 4.48 8.65
8/11/2021 4:45:00 AM 17.53 63.554 0.056 6.96 4.6 8.62
8/11/2021 5:00:00 AM 17.5 63.5 0.056 6.96 4.61 8.64
8/11/2021 5:15:00 AM 17.48 63.464 0.056 6.95 4.62 8.62
8/11/2021 5:30:00 AM 17.45 63.41 0.056 6.82 4.54 8.65
8/11/2021 5:45:00 AM 17.42 63.356 0.056 6.93 4.73 8.61
8/11/2021 6:00:00 AM 17.4 63.32 0.056 6.9 4.58 8.66
8/11/2021 6:15:00 AM 17.37 63.266 0.056 6.89 6.6 8.67
8/11/2021 6:30:00 AM 17.35 63.23 0.056 6.92 4.95 8.68
8/11/2021 6:45:00 AM 17.32 63.176 0.056 6.92 5.06 8.7
8/11/2021 7:00:00 AM 17.31 63.158 0.056 6.92 5.16 8.7
8/11/2021 7:15:00 AM 17.29 63.122 0.056 6.92 4.99 8.73
8/11/2021 7:30:00 AM 17.28 63.104 0.056 6.93 5.03 8.74
8/11/2021 7:45:00 AM 17.27 63.086 0.056 6.91 4.83 8.81
8/11/2021 8:00:00 AM 17.27 63.086 0.056 6.94 5.33 8.83
8/11/2021 8:15:00 AM 17.27 63.086 0.056 6.95 4.85 8.86
8/11/2021 8:30:00 AM 17.26 63.068 0.056 6.95 4.79 8.89
8/11/2021 8:45:00 AM 17.26 63.068 0.056 6.96 5.01 8.9
8/11/2021 9:00:00 AM 17.27 63.086 0.056 6.98 5.18 8.96
8/11/2021 9:15:00 AM 17.28 63.104 0.056 7 4.97 8.99
8/11/2021 9:30:00 AM 17.32 63.176 0.056 7.01 5.14 8.98
8/11/2021 9:45:00 AM 17.34 63.212 0.056 7.03 4.92 9.05
8/11/2021 10:00:00 AM 17.37 63.266 0.056 7.04 4.96 9.07
8/11/2021 10:15:00 AM 17.39 63.302 0.055 7.06 4.96 9.11
8/11/2021 10:30:00 AM 17.41 63.338 0.055 6.97 5.07 9.13
8/11/2021 10:45:00 AM 17.44 63.392 0.055 7.08 5.07 9.14
8/11/2021 11:00:00 AM 17.51 63.518 0.055 7.11 5.9 9.18
8/11/2021 11:15:00 AM 17.57 63.626 0.055 7.14 5.41 9.19
8/11/2021 11:30:00 AM 17.63 63.734 0.055 7.15 5.06 9.2
8/11/2021 11:45:00 AM 17.69 63.842 0.055 7.15 4.79 9.19
8/11/2021 12:00:00 PM 17.73 63.914 0.055 7.16 5.04 9.16
8/11/2021 12:15:00 PM 17.81 64.058 0.055 7.18 5.28 9.2
8/11/2021 12:30:00 PM 17.9 64.22 0.055 7.09 4.49 9.19
8/11/2021 12:45:00 PM 18.17 64.706 0.054 7.23 4.65 9.27
8/11/2021 1:00:00 PM 18.38 65.084 0.054 7.2 4.52 9.32
8/11/2021 1:15:00 PM 18.65 65.57 0.054 7.28 4.63 9.3
8/11/2021 1:30:00 PM 18.97 66.146 0.054 7.31 4.65 9.32
8/11/2021 1:45:00 PM 19.28 66.704 0.054 7.34 4.58 9.35
8/11/2021 2:00:00 PM 19.58 67.244 0.054 7.26 4.48 9.27
8/11/2021 2:15:00 PM 19.89 67.802 0.054 7.37 4.87 9.24
8/11/2021 2:30:00 PM 20.15 68.27 0.054 7.38 4.63 9.15
8/11/2021 2:45:00 PM 20.5 68.9 0.054 7.37 4.56 9.13
8/11/2021 3:00:00 PM 20.76 69.368 0.054 7.38 4.54 9.08
8/11/2021 3:15:00 PM 20.98 69.764 0.054 7.4 5.75 8.95
8/11/2021 3:30:00 PM 21.05 69.89 0.054 7.39 5.4 8.87
8/11/2021 3:45:00 PM 21.18 70.124 0.054 7.4 6.97 8.85
8/11/2021 4:00:00 PM 21.38 70.484 0.054 7.38 5.05 8.78
8/11/2021 4:15:00 PM 21.31 70.358 0.054 7.36 5.12 8.69
8/11/2021 4:30:00 PM 21.4 70.52 0.054 7.36 5.19 8.69
8/11/2021 4:45:00 PM 21.38 70.484 0.054 7.37 5.06 8.68
8/11/2021 5:00:00 PM 21.3 70.34 0.054 7.36 5.19 8.65
8/11/2021 5:15:00 PM 21.22 70.196 0.054 7.34 5.49 8.64
8/11/2021 5:30:00 PM 21.08 69.944 0.054 7.34 5.17 8.64
8/11/2021 5:45:00 PM 21.01 69.818 0.054 7.32 8.02 8.61
8/11/2021 6:00:00 PM 20.88 69.584 0.054 7.32 6.69 8.61
8/11/2021 6:15:00 PM 20.77 69.386 0.054 7.3 6.89 8.61
8/11/2021 6:30:00 PM 20.64 69.152 0.054 7.23 6.66 8.53
8/11/2021 6:45:00 PM 20.51 68.918 0.055 7.24 6.93 8.46
8/11/2021 7:00:00 PM 20.36 68.648 0.055 7.08 6.84 8.38
8/11/2021 7:15:00 PM 20.24 68.432 0.055 7.17 6.63 8.37
8/11/2021 7:30:00 PM 20.12 68.216 0.055 7.15 7.16 8.32
8/11/2021 7:45:00 PM 20.03 68.054 0.055 7.02 6.95 8.24
8/11/2021 8:00:00 PM 19.9 67.82 0.055 7.11 6.96 8.27
8/11/2021 8:15:00 PM 19.78 67.604 0.055 7.09 6.98 8.28
8/11/2021 8:30:00 PM 19.71 67.478 0.056 7.07 7.33 8.24
8/11/2021 8:45:00 PM 19.6 67.28 0.056 7.06 8.07 8.23
8/11/2021 9:00:00 PM 19.51 67.118 0.056 7 7.46 8.22
8/11/2021 9:15:00 PM 19.41 66.938 0.056 7.05 8.79 8.3
8/11/2021 9:30:00 PM 19.33 66.794 0.056 7.04 7.67 8.26
8/11/2021 9:45:00 PM 19.25 66.65 0.056 7.03 7.7 8.29
8/11/2021 10:00:00 PM 19.16 66.488 0.056 7.03 7.49 8.29
8/11/2021 10:15:00 PM 19.06 66.308 0.056 7.03 7.32 8.33
8/11/2021 10:30:00 PM 18.97 66.146 0.056 7.03 7.47 8.36
8/11/2021 10:45:00 PM 18.91 66.038 0.056 7.01 7.4 8.3
8/11/2021 11:00:00 PM 18.83 65.894 0.057 7.02 7.72 8.33
8/11/2021 11:15:00 PM 18.76 65.768 0.056 7 7.97 8.33
8/11/2021 11:30:00 PM 18.67 65.606 0.056 7.01 7.53 8.38
8/11/2021 11:45:00 PM 18.61 65.498 0.057 7 7.36 8.35
8/12/2021 12:00:00 AM 18.53 65.354 0.057 7.01 7.34 8.42
8/12/2021 12:15:00 AM 18.48 65.264 0.057 7 7.7 8.46
8/12/2021 12:30:00 AM 18.43 65.174 0.057 7.01 7.43 8.42
8/12/2021 12:45:00 AM 18.35 65.03 0.057 7.01 7.23 8.47
8/12/2021 1:00:00 AM 18.3 64.94 0.057 6.89 7.42 8.46
8/12/2021 1:15:00 AM 18.24 64.832 0.057 7 7.15 8.46
8/12/2021 1:30:00 AM 18.17 64.706 0.057 7 7.58 8.5
8/12/2021 1:45:00 AM 18.11 64.598 0.057 6.98 8.07 8.53
8/12/2021 2:00:00 AM 18.07 64.526 0.057 6.92 7.85 8.53
8/12/2021 2:15:00 AM 18.02 64.436 0.057 7 7.6 8.54
8/12/2021 2:30:00 AM 17.99 64.382 0.057 6.89 6.86 8.49
8/12/2021 2:45:00 AM 17.94 64.292 0.057 6.98 7.01 8.48
8/12/2021 3:00:00 AM 17.9 64.22 0.057 6.99 8.62 8.55
8/12/2021 3:15:00 AM 17.87 64.166 0.057 6.97 7.11 8.51
8/12/2021 3:30:00 AM 17.81 64.058 0.057 6.98 7.25 8.53
8/12/2021 3:45:00 AM 17.77 63.986 0.057 6.99 7.28 8.6
8/12/2021 4:00:00 AM 17.73 63.914 0.057 6.98 7.6 8.55
8/12/2021 4:15:00 AM 17.69 63.842 0.057 6.99 7.29 8.58
8/12/2021 4:30:00 AM 17.65 63.77 0.057 6.98 7.64 8.6
8/12/2021 4:45:00 AM 17.61 63.698 0.057 6.98 6.94 8.61
8/12/2021 5:00:00 AM 17.57 63.626 0.057 6.98 4.97 8.63
8/12/2021 5:15:00 AM 17.53 63.554 0.057 6.97 4.76 8.59
8/12/2021 5:30:00 AM 17.49 63.482 0.057 6.96 4.99 8.57
8/12/2021 5:45:00 AM 17.44 63.392 0.057 6.98 5.18 8.64
8/12/2021 6:00:00 AM 17.4 63.32 0.057 6.98 5.09 8.65
8/12/2021 6:15:00 AM 17.36 63.248 0.057 6.98 4.7 8.64
8/12/2021 6:30:00 AM 17.33 63.194 0.057 6.97 4.91 8.64
8/12/2021 6:45:00 AM 17.29 63.122 0.057 6.98 4.88 8.7
8/12/2021 7:00:00 AM 17.26 63.068 0.057 6.97 5.15 8.65
8/12/2021 7:15:00 AM 17.23 63.014 0.057 6.87 4.97 8.72
8/12/2021 7:30:00 AM 17.2 62.96 0.057 6.99 4.88 8.79
8/12/2021 7:45:00 AM 17.18 62.924 0.057 7 5 8.82
8/12/2021 8:00:00 AM 17.16 62.888 0.057 7.01 5.05 8.93
8/12/2021 8:15:00 AM 17.18 62.924 0.056 7.02 5.06 8.96
8/12/2021 8:30:00 AM 17.2 62.96 0.056 7.03 4.81 9.06
8/12/2021 8:45:00 AM 17.24 63.032 0.056 7.05 5.57 9.04
8/12/2021 9:00:00 AM 17.29 63.122 0.056 7.06 5.1 9.14
8/12/2021 9:15:00 AM 17.32 63.176 0.056 7.07 4.7 9.17
8/12/2021 9:30:00 AM 17.39 63.302 0.056 7.1 7.92 9.22
8/12/2021 9:45:00 AM 17.48 63.464 0.056 7.12 10.26 9.24
8/12/2021 10:00:00 AM 17.6 63.68 0.055 7.15 8.23 9.2
8/12/2021 10:15:00 AM 17.7 63.86 0.055 7.17 5.82 9.27
8/12/2021 10:30:00 AM 17.79 64.022 0.055 7.13 5.31 9.27
8/12/2021 10:45:00 AM 18 64.4 0.055 7.2 4.49 9.21
8/12/2021 11:00:00 AM 18.15 64.67 0.055 7.23 4.23 9.29
8/12/2021 11:15:00 AM 18.3 64.94 0.055 7.14 4.16 9.25
8/12/2021 11:30:00 AM 18.42 65.156 0.055 7.25 4.36 9.27
8/12/2021 11:45:00 AM 18.58 65.444 0.055 7.24 4.16 9.27
8/12/2021 12:00:00 PM 18.74 65.732 0.055 7.29 4.13 9.23
8/12/2021 12:15:00 PM 18.76 65.768 0.055 7.29 4.11 9.12
8/12/2021 12:30:00 PM 18.79 65.82201 0.055 7.24 4.26 8.94
8/12/2021 12:45:00 PM 19.11 66.398 0.052 7.15 5.91 8.75
8/12/2021 1:00:00 PM 19.05 66.29 0.053 7.13 6.54 8.66
8/12/2021 1:15:00 PM 19.03 66.254 0.053 7.12 6.08 8.59
8/12/2021 1:30:00 PM 19.07 66.326 0.052 7.1 5.88 8.57
8/12/2021 1:45:00 PM 19.05 66.29 0.052 7.1 5.81 8.61
8/12/2021 2:00:00 PM 19.03 66.254 0.052 7.13 5.5 8.75
8/12/2021 2:15:00 PM 19.06 66.308 0.053 7.18 5.6 8.9
8/12/2021 2:30:00 PM 19.21 66.578 0.053 7.21 5.47 9
8/12/2021 2:45:00 PM 19.38 66.884 0.053 7.25 5.92 9.06
8/12/2021 3:00:00 PM 19.38 66.884 0.054 7.25 6.36 9.05
8/12/2021 3:15:00 PM 19.63 67.334 0.053 7.21 11.15 9.05
8/12/2021 3:30:00 PM 19.87 67.766 0.053 7.25 35.79 8.91
8/12/2021 3:45:00 PM 20.15 68.27 0.052 7.23 14.8 8.85
8/12/2021 4:00:00 PM 20.16 68.288 0.052 7.22 16.11 8.79
8/12/2021 4:15:00 PM 20.17 68.306 0.053 7.23 19.03 8.76
8/12/2021 4:30:00 PM 20.1 68.18 0.055 7.22 20.76 8.68
8/12/2021 4:45:00 PM 20.01 68.018 0.056 7.21 22.45 8.64
8/12/2021 5:00:00 PM 19.93 67.874 0.055 7.21 16.87 8.67
8/12/2021 5:15:00 PM 19.85 67.73 0.055 7.2 16.46 8.68
8/12/2021 5:30:00 PM 19.74 67.532 0.053 7.18 14.61 8.68
8/12/2021 5:45:00 PM 19.7 67.46 0.052 7.15 13.15 8.67
8/12/2021 6:00:00 PM 19.65 67.37 0.052 7.16 12.78 8.66
8/12/2021 6:15:00 PM 19.57 67.226 0.051 7.14 12.67 8.61
8/12/2021 6:30:00 PM 19.52 67.136 0.051 7.09 11.6 8.58
8/12/2021 6:45:00 PM 19.44 66.992 0.051 7.09 10.77 8.54
8/12/2021 7:00:00 PM 19.34 66.812 0.051 7.07 10.81 8.5
8/12/2021 7:15:00 PM 19.25 66.65 0.051 7.05 10.58 8.48
8/12/2021 7:30:00 PM 19.18 66.524 0.051 7.02 9.9 8.45
8/12/2021 7:45:00 PM 19.09 66.362 0.052 7 9.87 8.46
8/12/2021 8:00:00 PM 19 66.2 0.052 6.99 9.05 8.46
8/12/2021 8:15:00 PM 18.92 66.056 0.052 6.98 8.35 8.46
8/12/2021 8:30:00 PM 18.85 65.93 0.052 6.98 9.55 8.45
8/12/2021 8:45:00 PM 18.81 65.858 0.053 6.97 8.43 8.44
8/12/2021 9:00:00 PM 18.75 65.75 0.053 6.97 8.9 8.47
8/12/2021 9:15:00 PM 18.7 65.66 0.053 6.99 9.5 8.48
8/12/2021 9:30:00 PM 18.68 65.624 0.053 6.97 8.02 8.46
8/12/2021 9:45:00 PM 18.61 65.498 0.053 7 8.67 8.45
8/12/2021 10:00:00 PM 18.57 65.426 0.053 6.97 8.02 8.48
8/12/2021 10:15:00 PM 18.52 65.336 0.053 7 8.02 8.5
8/12/2021 10:30:00 PM 18.49 65.282 0.053 7 8.25 8.47
8/12/2021 10:45:00 PM 18.45 65.21 0.053 7 7.95 8.47
8/12/2021 11:00:00 PM 18.41 65.138 0.053 7.01 7.73 8.49
8/12/2021 11:15:00 PM 18.35 65.03 0.053 7.01 8.37 8.52
8/12/2021 11:30:00 PM 18.31 64.958 0.053 7.02 8.09 8.53
8/12/2021 11:45:00 PM 18.26 64.868 0.053 7.02 7.52 8.53
8/13/2021 12:00:00 AM 18.2 64.76 0.053 6.93 7.51 8.56
8/13/2021 12:15:00 AM 18.15 64.67 0.053 7.02 7.73 8.55
8/13/2021 12:30:00 AM 18.1 64.58 0.053 6.98 7.47 8.56
8/13/2021 12:45:00 AM 18.04 64.472 0.053 7.01 7.52 8.58
8/13/2021 1:00:00 AM 17.99 64.382 0.053 7.02 7.13 8.59
8/13/2021 1:15:00 AM 17.94 64.292 0.053 7.02 8.71 8.6
8/13/2021 1:30:00 AM 17.89 64.202 0.053 6.89 7.03 8.6
8/13/2021 1:45:00 AM 17.84 64.112 0.053 7.01 7.29 8.61
8/13/2021 2:00:00 AM 17.79 64.022 0.053 7.01 8.15 8.64
8/13/2021 2:15:00 AM 17.74 63.932 0.053 6.98 6.99 8.65
8/13/2021 2:30:00 AM 17.7 63.86 0.053 7.01 7.02 8.66
8/13/2021 2:45:00 AM 17.67 63.806 0.053 7.01 7.52 8.67
8/13/2021 3:00:00 AM 17.64 63.752 0.053 6.87 6.87 8.66
8/13/2021 3:15:00 AM 17.61 63.698 0.053 6.93 6.98 8.67
8/13/2021 3:30:00 AM 17.58 63.644 0.054 7.02 7.32 8.69
8/13/2021 3:45:00 AM 17.55 63.59 0.054 7.01 7.31 8.68
8/13/2021 4:00:00 AM 17.51 63.518 0.054 7.02 6.98 8.71
8/13/2021 4:15:00 AM 17.48 63.464 0.054 7.02 7.09 8.71
8/13/2021 4:30:00 AM 17.44 63.392 0.054 7.03 6.95 8.73
8/13/2021 4:45:00 AM 17.4 63.32 0.054 7.03 7.65 8.72
8/13/2021 5:00:00 AM 17.37 63.266 0.054 6.9 6.98 8.72
8/13/2021 5:15:00 AM 17.34 63.212 0.054 7.03 6.8 8.75
8/13/2021 5:30:00 AM 17.3 63.14 0.054 7.03 6.99 8.73
8/13/2021 5:45:00 AM 17.27 63.086 0.054 7.03 6.84 8.74
8/13/2021 6:00:00 AM 17.24 63.032 0.054 7.03 7.6 8.74
8/13/2021 6:15:00 AM 17.2 62.96 0.054 7.03 6.62 8.76
8/13/2021 6:30:00 AM 17.16 62.888 0.054 7.02 7.03 8.78
8/13/2021 6:45:00 AM 17.14 62.852 0.054 7.03 6.82 8.79
8/13/2021 7:00:00 AM 17.11 62.798 0.055 7.03 7.49 8.82
8/13/2021 7:15:00 AM 17.08 62.744 0.055 7.05 6.87 8.86
8/13/2021 7:30:00 AM 17.07 62.726 0.055 7.05 6.6 8.9
8/13/2021 7:45:00 AM 17.05 62.69 0.055 7.05 6.52 8.93
8/13/2021 8:00:00 AM 17.02 62.636 0.055 7.07 6.51 8.97
8/13/2021 8:15:00 AM 17.04 62.672 0.054 7.08 5.77 9.04
8/13/2021 8:30:00 AM 17.07 62.726 0.054 7.1 5.55 9.13
8/13/2021 8:45:00 AM 17.08 62.744 0.054 7 5.56 9.19
8/13/2021 9:00:00 AM 17.08 62.744 0.054 7.13 5.5 9.18
8/13/2021 9:15:00 AM 17.13 62.834 0.054 7.14 5.56 9.19
8/13/2021 9:30:00 AM 0 32 0 0 0 0
8/13/2021 9:45:00 AM 17.27 63.086 0.054 7.15 5.47 9.2
8/13/2021 10:00:00 AM 17.33 63.194 0.054 7.16 5.92 9.19
8/13/2021 10:15:00 AM 17.42 63.356 0.054 7.16 5.79 9.2
8/13/2021 10:30:00 AM 17.55 63.59 0.054 7.17 5.75 9.19
8/13/2021 10:45:00 AM 17.68 63.824 0.054 7.18 5.82 9.18
8/13/2021 11:00:00 AM 17.83 64.094 0.054 7.19 5.8 9.15
8/13/2021 11:15:00 AM 18.04 64.472 0.054 7.19 6.12 9.14
8/13/2021 11:30:00 AM 18.23 64.814 0.054 7.22 5.8 9.14
8/13/2021 11:45:00 AM 18.44 65.192 0.054 7.13 5.8 9.11
8/13/2021 12:00:00 PM 18.67 65.606 0.054 7.23 6.3 9.11
8/13/2021 12:15:00 PM 18.94 66.092 0.054 7.26 6.59 9.14
8/13/2021 12:30:00 PM 19.22 66.596 0.054 7.29 6.48 9.15
8/13/2021 12:45:00 PM 19.27 66.686 0.054 7.3 6.23 9.09
8/13/2021 1:00:00 PM 19.33 66.794 0.054 7.29 6.22 9.01
8/13/2021 1:15:00 PM 19.41 66.938 0.054 7.29 6.65 9.03
8/13/2021 1:30:00 PM 19.5 67.1 0.054 7.29 7.02 9.02
8/13/2021 1:45:00 PM 19.59 67.262 0.054 7.3 5.78 9.07
8/13/2021 2:00:00 PM 19.66 67.388 0.054 7.32 5.73 9.06
8/13/2021 2:15:00 PM 19.84 67.712 0.054 7.35 5.72 9.13
8/13/2021 2:30:00 PM 19.78 67.604 0.054 7.28 5.56 9.09
8/13/2021 2:45:00 PM 19.55 67.19 0.054 7.33 5.67 9.01
8/13/2021 3:00:00 PM 19.52 67.136 0.054 7.3 5.54 8.95
8/13/2021 3:15:00 PM 19.51 67.118 0.054 7.27 5.82 8.88
8/13/2021 3:30:00 PM 19.46 67.028 0.051 7.21 7.89 8.72
8/13/2021 3:45:00 PM 19.51 67.118 0.051 7.16 9.4 8.7
8/13/2021 4:00:00 PM 19.78 67.604 0.051 7.17 8.61 8.8
8/13/2021 4:15:00 PM 19.74 67.532 0.051 7.05 8.53 8.81
8/13/2021 4:30:00 PM 19.63 67.334 0.051 7.18 7.82 8.85
8/13/2021 4:45:00 PM 19.49 67.082 0.052 7.18 7.53 8.84
8/13/2021 5:00:00 PM 19.45 67.01 0.053 7.13 6.81 8.86
8/13/2021 5:15:00 PM 19.41 66.938 0.054 7.2 6.72 8.83
8/13/2021 5:30:00 PM 19.43 66.974 0.054 7.2 7.31 8.84
8/13/2021 5:45:00 PM 19.29 66.722 0.054 7.08 8.15 8.79
8/13/2021 6:00:00 PM 19.22 66.596 0.054 7.17 8.49 8.78
8/13/2021 6:15:00 PM 19.16 66.488 0.054 7.14 7.35 8.71
8/13/2021 6:30:00 PM 19.13 66.434 0.054 7.02 7.52 8.69
8/13/2021 6:45:00 PM 19.1 66.38 0.054 7.11 6.67 8.66
8/13/2021 7:00:00 PM 19 66.2 0.054 6.99 6.88 8.63
8/13/2021 7:15:00 PM 18.9 66.02 0.054 7.08 7.02 8.64
8/13/2021 7:30:00 PM 18.8 65.84 0.055 7.06 6.76 8.61
8/13/2021 7:45:00 PM 18.72 65.696 0.055 7.04 6.77 8.58
8/13/2021 8:00:00 PM 18.65 65.57 0.055 6.91 7.77 8.55
8/13/2021 8:15:00 PM 18.57 65.426 0.055 7.01 6.47 8.54
8/13/2021 8:30:00 PM 18.5 65.3 0.055 6.99 6.81 8.52
8/13/2021 8:45:00 PM 18.43 65.174 0.056 6.97 6.98 8.51
8/13/2021 9:00:00 PM 18.35 65.03 0.056 6.96 7.06 8.54
8/13/2021 9:15:00 PM 18.29 64.922 0.056 6.95 7.12 8.53
8/13/2021 9:30:00 PM 18.23 64.814 0.057 6.94 7.08 8.54
8/13/2021 9:45:00 PM 18.17 64.706 0.057 6.91 7.47 8.55
8/13/2021 10:00:00 PM 18.11 64.598 0.057 6.93 7.28 8.57
8/13/2021 10:15:00 PM 18.05 64.49 0.057 6.92 7.09 8.56
8/13/2021 10:30:00 PM 17.99 64.382 0.057 6.81 6.84 8.58
8/13/2021 10:45:00 PM 17.93 64.274 0.057 6.92 6.62 8.58
8/13/2021 11:00:00 PM 17.88 64.184 0.057 6.92 6.63 8.6
8/13/2021 11:15:00 PM 17.87 64.166 0.057 6.92 6.99 8.59
8/13/2021 11:30:00 PM 17.9 64.22 0.056 6.94 7.11 8.61
8/13/2021 11:45:00 PM 17.85 64.13 0.056 6.96 7.47 8.62
8/14/2021 12:00:00 AM 17.8 64.04 0.055 6.98 7.15 8.63
8/14/2021 12:15:00 AM 17.74 63.932 0.055 6.98 7.99 8.62
8/14/2021 12:30:00 AM 17.68 63.824 0.056 6.99 6.74 8.64
8/14/2021 12:45:00 AM 17.62 63.716 0.056 6.99 7.13 8.66
8/14/2021 1:00:00 AM 17.55 63.59 0.056 7 7.36 8.68
8/14/2021 1:15:00 AM 17.49 63.482 0.056 7 7.4 8.68
8/14/2021 1:30:00 AM 17.43 63.374 0.056 6.99 7.3 8.68
8/14/2021 1:45:00 AM 17.36 63.248 0.056 7 6.88 8.71
8/14/2021 2:00:00 AM 17.31 63.158 0.056 7 7 8.71
8/14/2021 2:15:00 AM 17.28 63.104 0.056 6.99 6.66 8.69
8/14/2021 2:30:00 AM 17.24 63.032 0.056 6.99 8.45 8.71
8/14/2021 2:45:00 AM 17.21 62.978 0.056 6.89 7.86 8.73
8/14/2021 3:00:00 AM 17.18 62.924 0.056 6.99 7.13 8.73
8/14/2021 3:15:00 AM 17.15 62.87 0.056 6.91 6.98 8.76
8/14/2021 3:30:00 AM 17.12 62.816 0.056 6.99 7.49 8.76
8/14/2021 3:45:00 AM 17.09 62.762 0.056 6.88 7.83 8.78
8/14/2021 4:00:00 AM 17.06 62.708 0.057 6.99 7.15 8.79
8/14/2021 4:15:00 AM 17.03 62.654 0.057 6.88 6.95 8.8
8/14/2021 4:30:00 AM 17 62.6 0.057 6.98 6.95 8.81
8/14/2021 4:45:00 AM 16.96 62.528 0.057 6.98 7.53 8.83
8/14/2021 5:00:00 AM 16.94 62.492 0.057 6.98 7.8 8.83
8/14/2021 5:15:00 AM 16.91 62.438 0.057 6.99 8.09 8.84
8/14/2021 5:30:00 AM 16.89 62.402 0.057 6.87 7.18 8.84
8/14/2021 5:45:00 AM 16.86 62.348 0.057 6.98 7.71 8.84
8/14/2021 6:00:00 AM 16.82 62.276 0.057 6.91 8.07 8.86
8/14/2021 6:15:00 AM 16.78 62.204 0.057 6.98 7.79 8.86
8/14/2021 6:30:00 AM 16.75 62.15 0.057 6.87 8.09 8.87
8/14/2021 6:45:00 AM 16.72 62.096 0.057 6.97 10.43 8.87
8/14/2021 7:00:00 AM 16.69 62.042 0.057 6.96 7.08 8.93
8/14/2021 7:15:00 AM 16.67 62.006 0.057 6.98 6.33 8.95
8/14/2021 7:30:00 AM 16.64 61.952 0.057 6.97 6.55 8.97
8/14/2021 7:45:00 AM 16.62 61.916 0.056 6.98 6.2 8.97
8/14/2021 8:00:00 AM 16.6 61.88 0.056 6.97 5.86 8.99
8/14/2021 8:15:00 AM 16.57 61.826 0.056 6.98 6.15 9
8/14/2021 8:30:00 AM 16.54 61.772 0.056 6.98 5.67 9.02
8/14/2021 8:45:00 AM 16.53 61.754 0.056 6.98 6.13 9.04
8/14/2021 9:00:00 AM 16.52 61.736 0.056 6.99 5.86 9.04
8/14/2021 9:15:00 AM 16.49 61.682 0.056 6.91 5.92 9.11
8/14/2021 9:30:00 AM 16.46 61.628 0.056 7.05 5.51 9.15
8/14/2021 9:45:00 AM 16.44 61.592 0.056 7.08 5.92 9.19
8/14/2021 10:00:00 AM 16.46 61.628 0.055 7.11 6.26 9.31
8/14/2021 10:15:00 AM 16.47 61.646 0.055 7.13 7.62 9.37
8/14/2021 10:30:00 AM 16.47 61.646 0.055 7.04 7.03 9.4
8/14/2021 10:45:00 AM 16.52 61.736 0.055 7.15 13.94 9.42
8/14/2021 11:00:00 AM 16.57 61.826 0.055 7.18 8.24 9.46
8/14/2021 11:15:00 AM 16.64 61.952 0.055 7.2 6.22 9.49
8/14/2021 11:30:00 AM 16.67 62.006 0.055 7.22 5.64 9.5
8/14/2021 11:45:00 AM 16.73 62.114 0.055 7.24 6.54 9.52
8/14/2021 12:00:00 PM 16.77 62.186 0.055 7.24 8.74 9.52
8/14/2021 12:15:00 PM 16.95 62.51 0.054 7.24 7.19 9.54
8/14/2021 12:30:00 PM 17.1 62.78 0.054 7.26 8.53 9.54
8/14/2021 12:45:00 PM 17.23 63.014 0.054 7.27 7.64 9.52
8/14/2021 1:00:00 PM 17.42 63.356 0.054 7.29 4.72 9.52
8/14/2021 1:15:00 PM 17.67 63.806 0.054 7.29 8.7 9.47
8/14/2021 1:30:00 PM 17.99 64.382 0.054 7.29 6.87 9.42
8/14/2021 1:45:00 PM 18.19 64.742 0.054 7.29 6.78 9.39
8/14/2021 2:00:00 PM 18.44 65.192 0.054 7.3 6.86 9.36
8/14/2021 2:15:00 PM 18.61 65.498 0.054 7.3 6.85 9.29
8/14/2021 2:30:00 PM 18.65 65.57 0.054 7.3 6.69 9.25
8/14/2021 2:45:00 PM 18.71 65.67799 0.054 7.28 7.77 9.22
8/14/2021 3:00:00 PM 18.9 66.02 0.054 7.25 7.69 9.2
8/14/2021 3:15:00 PM 18.96 66.128 0.054 7.23 5.77 9.18
8/14/2021 3:30:00 PM 19.08 66.344 0.054 7.29 4.93 9.16
8/14/2021 3:45:00 PM 19.17 66.506 0.054 7.29 8.81 9.14
8/14/2021 4:00:00 PM 19.21 66.578 0.054 7.28 7.86 9.11
8/14/2021 4:15:00 PM 19.21 66.578 0.054 7.29 4.45 9.06
8/14/2021 4:30:00 PM 19.19 66.542 0.054 7.28 4.82 9.04
8/14/2021 4:45:00 PM 19.19 66.542 0.054 7.27 6.78 9.01
8/14/2021 5:00:00 PM 19.15 66.47 0.054 7.26 4.72 8.98
8/14/2021 5:15:00 PM 19.09 66.362 0.054 7.15 4.16 8.98
8/14/2021 5:30:00 PM 18.97 66.146 0.054 7.24 4.23 8.94
8/14/2021 5:45:00 PM 18.77 65.786 0.054 7.22 4.22 8.91
8/14/2021 6:00:00 PM 18.59 65.462 0.054 7.2 4.22 8.86
8/14/2021 6:15:00 PM 18.43 65.174 0.054 7.19 4.24 8.88
8/14/2021 6:30:00 PM 18.29 64.922 0.054 7.06 4.42 8.88
8/14/2021 6:45:00 PM 18.15 64.67 0.054 7.16 4.35 8.88
8/14/2021 7:00:00 PM 18.02 64.436 0.054 7.14 4.54 8.85
8/14/2021 7:15:00 PM 17.87 64.166 0.054 7.13 9.4 8.84
8/14/2021 7:30:00 PM 17.75 63.95 0.054 7.07 4.34 8.87
8/14/2021 7:45:00 PM 17.6 63.68 0.054 7.12 4.49 8.87
8/14/2021 8:00:00 PM 17.47 63.446 0.054 7.05 4.33 8.86
8/14/2021 8:15:00 PM 17.32 63.176 0.054 7.05 4.04 8.86
8/14/2021 8:30:00 PM 17.19 62.942 0.054 7.09 4.39 8.86
8/14/2021 8:45:00 PM 17.07 62.726 0.054 7.08 4.6 8.88
8/14/2021 9:00:00 PM 16.97 62.546 0.054 7.07 4.43 8.86
8/14/2021 9:15:00 PM 16.85 62.33 0.054 7.06 4.75 8.89
8/14/2021 9:30:00 PM 16.73 62.114 0.055 7.06 4.72 8.91
8/14/2021 9:45:00 PM 16.63 61.934 0.055 7.05 4.38 8.92
8/14/2021 10:00:00 PM 16.51 61.718 0.055 7.05 4.57 8.95
8/14/2021 10:15:00 PM 16.43 61.574 0.055 6.99 4.43 8.92
8/14/2021 10:30:00 PM 16.31 61.358 0.055 7.05 4.47 9
8/14/2021 10:45:00 PM 16.22 61.196 0.055 7.04 4.6 9.02
8/14/2021 11:00:00 PM 16.13 61.034 0.055 7.03 4.89 9.03
8/14/2021 11:15:00 PM 16.05 60.89 0.055 7.04 5.09 9.04
8/14/2021 11:30:00 PM 15.97 60.746 0.055 7.03 4.65 9.06
8/14/2021 11:45:00 PM 15.9 60.62 0.055 6.92 4.82 9.07
8/15/2021 12:00:00 AM 15.82 60.476 0.055 7.03 4.45 9.11
8/15/2021 12:15:00 AM 15.76 60.368 0.055 7.03 4.42 9.1
8/15/2021 12:30:00 AM 15.69 60.242 0.055 7.03 4.32 9.12
8/15/2021 12:45:00 AM 15.62 60.116 0.054 7.03 4.56 9.14
8/15/2021 1:00:00 AM 15.56 60.008 0.055 7.03 4.5 9.14
8/15/2021 1:15:00 AM 15.49 59.882 0.055 7.02 4.53 9.15
8/15/2021 1:30:00 AM 15.42 59.756 0.055 7.02 4.33 9.19
8/15/2021 1:45:00 AM 15.35 59.63 0.054 7.02 4.34 9.2
8/15/2021 2:00:00 AM 15.29 59.522 0.054 7.01 4.32 9.21
8/15/2021 2:15:00 AM 15.22 59.396 0.054 7.02 4.21 9.23
8/15/2021 2:30:00 AM 15.15 59.27 0.054 6.91 4.28 9.24
8/15/2021 2:45:00 AM 15.08 59.144 0.054 7.02 4.37 9.26
8/15/2021 3:00:00 AM 15.01 59.018 0.054 7.02 4.59 9.27
8/15/2021 3:15:00 AM 14.95 58.91 0.054 7.03 4.26 9.29
8/15/2021 3:30:00 AM 14.88 58.784 0.054 7.02 4.28 9.29
8/15/2021 3:45:00 AM 14.81 58.658 0.054 7.02 4.29 9.31
8/15/2021 4:00:00 AM 14.75 58.55 0.054 7.02 4.15 9.32
8/15/2021 4:15:00 AM 14.68 58.424 0.054 7.02 4.39 9.33
8/15/2021 4:30:00 AM 14.62 58.316 0.054 7.01 4.47 9.34
8/15/2021 4:45:00 AM 14.57 58.226 0.054 6.89 4.29 9.35
8/15/2021 5:00:00 AM 14.52 58.136 0.054 6.91 4.4 9.38
8/15/2021 5:15:00 AM 14.45 58.01 0.054 7 4.24 9.41
8/15/2021 5:30:00 AM 14.39 57.902 0.054 6.99 4.44 9.4
8/15/2021 5:45:00 AM 14.32 57.776 0.054 6.88 4.33 9.43
8/15/2021 6:00:00 AM 14.26 57.668 0.054 6.99 4.84 9.44
8/15/2021 6:15:00 AM 14.22 57.596 0.054 6.93 4.29 9.44
8/15/2021 6:30:00 AM 14.09 57.362 0.054 7.01 4.24 9.49
8/15/2021 6:45:00 AM 14.03 57.254 0.054 6.98 4.17 9.51
8/15/2021 7:00:00 AM 13.98 57.164 0.054 7.01 4.43 9.56
8/15/2021 7:15:00 AM 13.95 57.11 0.054 7.02 4.32 9.61
8/15/2021 7:30:00 AM 13.9 57.02 0.054 7.03 4.39 9.63
8/15/2021 7:45:00 AM 13.86 56.948 0.054 7.04 4.07 9.67
8/15/2021 8:00:00 AM 13.84 56.912 0.054 7.05 3.91 9.72
8/15/2021 8:15:00 AM 13.81 56.858 0.054 7.06 4 9.75
8/15/2021 8:30:00 AM 13.8 56.84 0.054 7.07 4.01 9.78
8/15/2021 8:45:00 AM 13.82 56.876 0.054 7.06 5.96 9.8
8/15/2021 9:00:00 AM 13.85 56.93 0.054 7.09 6.31 9.83
8/15/2021 9:15:00 AM 13.88 56.984 0.054 7.11 5.45 9.88
8/15/2021 9:30:00 AM 13.94 57.092 0.054 7.12 4.65 9.89
8/15/2021 9:45:00 AM 14.03 57.254 0.054 7.14 3.91 9.92
8/15/2021 10:00:00 AM 14.13 57.434 0.053 7.15 5.12 9.96
8/15/2021 10:15:00 AM 14.23 57.614 0.053 7.16 5.68 9.96
8/15/2021 10:30:00 AM 14.35 57.83 0.053 7.18 5.73 9.96
8/15/2021 10:45:00 AM 14.47 58.046 0.053 7.18 3.95 9.94
8/15/2021 11:00:00 AM 14.61 58.298 0.053 7.2 3.87 9.94
8/15/2021 11:15:00 AM 14.77 58.586 0.053 7.22 4.89 9.96
8/15/2021 11:30:00 AM 14.91 58.838 0.053 7.23 9.14 9.92
8/15/2021 11:45:00 AM 15.08 59.144 0.053 7.13 8.48 9.92
8/15/2021 12:00:00 PM 15.25 59.45 0.053 7.26 8.25 9.89
8/15/2021 12:15:00 PM 15.39 59.702 0.053 7.17 6.79 9.88
8/15/2021 12:30:00 PM 15.51 59.918 0.053 7.27 4.04 9.88
8/15/2021 12:45:00 PM 15.71 60.278 0.053 7.28 3.94 9.86
8/15/2021 1:00:00 PM 15.88 60.584 0.053 7.29 4.07 9.83
8/15/2021 1:15:00 PM 16.07 60.926 0.053 7.27 4.14 9.82
8/15/2021 1:30:00 PM 16.34 61.412 0.053 7.3 4.03 9.81
8/15/2021 1:45:00 PM 16.47 61.646 0.053 7.31 3.75 9.76
8/15/2021 2:00:00 PM 16.69 62.042 0.053 7.31 3.46 9.72
8/15/2021 2:15:00 PM 16.78 62.204 0.053 7.27 3.84 9.68
8/15/2021 2:30:00 PM 16.78 62.204 0.053 7.32 4.7 9.66
8/15/2021 2:45:00 PM 16.87 62.366 0.053 7.24 3.86 9.67
8/15/2021 3:00:00 PM 16.98 62.564 0.053 7.34 5.97 9.65
8/15/2021 3:15:00 PM 17.15 62.87 0.053 7.34 4.94 9.62
8/15/2021 3:30:00 PM 17.24 63.032 0.053 7.35 3.47 9.58
8/15/2021 3:45:00 PM 17.25 63.05 0.053 7.35 3.51 9.57
8/15/2021 4:00:00 PM 17.25 63.05 0.053 7.34 3.61 9.54
8/15/2021 4:15:00 PM 17.24 63.032 0.053 7.34 3.59 9.52
8/15/2021 4:30:00 PM 17.21 62.978 0.053 7.33 3.39 9.48
8/15/2021 4:45:00 PM 17.22 62.996 0.053 7.32 3.58 9.48
8/15/2021 5:00:00 PM 17.23 63.014 0.053 7.31 3.56 9.44
8/15/2021 5:15:00 PM 17.22 62.996 0.053 7.3 3.55 9.43
8/15/2021 5:30:00 PM 17.17 62.906 0.053 7.29 3.67 9.39
8/15/2021 5:45:00 PM 17.09 62.762 0.053 7.27 3.55 9.34
8/15/2021 6:00:00 PM 17 62.6 0.053 7.25 3.61 9.3
8/15/2021 6:15:00 PM 16.91 62.438 0.053 7.23 4.72 9.27
8/15/2021 6:30:00 PM 16.81 62.258 0.053 7.1 5.48 9.26
8/15/2021 6:45:00 PM 16.71 62.078 0.053 7.21 5.54 9.26
8/15/2021 7:00:00 PM 16.61 61.898 0.053 7.19 5.48 9.25
8/15/2021 7:15:00 PM 16.52 61.736 0.053 7.18 3.66 9.24
8/15/2021 7:30:00 PM 16.43 61.574 0.053 7.07 3.73 9.22
8/15/2021 7:45:00 PM 16.34 61.412 0.054 7.07 3.62 9.18
8/15/2021 8:00:00 PM 16.24 61.232 0.054 7.14 3.8 9.17
8/15/2021 8:15:00 PM 16.16 61.088 0.054 7.13 3.7 9.15
8/15/2021 8:30:00 PM 16.06 60.908 0.054 7.12 3.84 9.12
8/15/2021 8:45:00 PM 15.98 60.764 0.054 7 3.88 9.1
8/15/2021 9:00:00 PM 15.89 60.602 0.054 7.09 3.68 9.12
8/15/2021 9:15:00 PM 15.81 60.458 0.054 7.08 4.25 9.13
8/15/2021 9:30:00 PM 15.71 60.278 0.054 7.07 3.92 9.14
8/15/2021 9:45:00 PM 15.63 60.134 0.054 7.01 4.23 9.15
8/15/2021 10:00:00 PM 15.55 59.99 0.054 7.06 4.33 9.16
8/15/2021 10:15:00 PM 15.47 59.846 0.054 7.06 4.12 9.18
8/15/2021 10:30:00 PM 15.41 59.738 0.054 7.05 4.35 9.16
8/15/2021 10:45:00 PM 15.32 59.576 0.054 7.03 4.16 9.21
8/15/2021 11:00:00 PM 15.26 59.468 0.054 7.05 4.31 9.23
8/15/2021 11:15:00 PM 15.21 59.378 0.054 7.05 4.01 9.24
8/15/2021 11:30:00 PM 15.15 59.27 0.054 7.05 4.25 9.24
8/15/2021 11:45:00 PM 15.12 59.216 0.054 7.05 4.06 9.26
8/16/2021 12:00:00 AM 15.07 59.126 0.054 7.04 4.24 9.28
8/16/2021 12:15:00 AM 15.04 59.072 0.054 7.05 3.93 9.28
8/16/2021 12:30:00 AM 15 59 0.054 7.05 3.84 9.29
8/16/2021 12:45:00 AM 14.97 58.946 0.054 7.05 4.41 9.29
8/16/2021 1:00:00 AM 14.94 58.892 0.054 7.05 4.01 9.31
8/16/2021 1:15:00 AM 14.91 58.838 0.054 7.05 3.98 9.3
8/16/2021 1:30:00 AM 14.87 58.766 0.054 7.05 4.08 9.33
8/16/2021 1:45:00 AM 14.84 58.712 0.054 7.05 3.88 9.33
8/16/2021 2:00:00 AM 14.8 58.64 0.055 7.04 4.02 9.33
8/16/2021 2:15:00 AM 14.78 58.604 0.055 7.04 3.93 9.32
8/16/2021 2:30:00 AM 14.75 58.55 0.055 7.04 4.49 9.34
8/16/2021 2:45:00 AM 14.72 58.496 0.055 7.04 4.09 9.32
8/16/2021 3:00:00 AM 14.69 58.442 0.055 7.01 3.85 9.33
8/16/2021 3:15:00 AM 14.67 58.406 0.055 7.04 4.12 9.35
8/16/2021 3:30:00 AM 14.66 58.388 0.054 7.03 3.94 9.33
8/16/2021 3:45:00 AM 14.63 58.334 0.055 6.92 4.07 9.35
8/16/2021 4:00:00 AM 14.61 58.298 0.055 7.04 4.09 9.36
8/16/2021 4:15:00 AM 14.6 58.28 0.055 7.03 4.53 9.33
8/16/2021 4:30:00 AM 14.58 58.244 0.055 6.92 4.34 9.36
8/16/2021 4:45:00 AM 14.56 58.208 0.055 7.04 4.17 9.38
8/16/2021 5:00:00 AM 14.55 58.19 0.055 7.03 3.91 9.39
8/16/2021 5:15:00 AM 14.54 58.172 0.055 7.03 4.11 9.37
8/16/2021 5:30:00 AM 14.51 58.118 0.054 7.03 4.02 9.4
8/16/2021 5:45:00 AM 14.5 58.1 0.054 7.03 4.11 9.4
8/16/2021 6:00:00 AM 14.49 58.082 0.054 7.03 4.09 9.39
8/16/2021 6:15:00 AM 14.48 58.064 0.055 7.03 4.12 9.4
8/16/2021 6:30:00 AM 14.46 58.028 0.055 7.03 4.31 9.4
8/16/2021 6:45:00 AM 14.45 58.01 0.054 7.02 4.2 9.41
8/16/2021 7:00:00 AM 14.44 57.992 0.054 7.03 4.3 9.44
8/16/2021 7:15:00 AM 14.44 57.992 0.054 7.02 4.24 9.46
8/16/2021 7:30:00 AM 14.44 57.992 0.054 7.04 4.25 9.49
8/16/2021 7:45:00 AM 14.44 57.992 0.054 7.05 4.88 9.53
8/16/2021 8:00:00 AM 14.46 58.028 0.054 7.05 4.08 9.55
8/16/2021 8:15:00 AM 14.47 58.046 0.054 7.07 4.16 9.61
8/16/2021 8:30:00 AM 14.49 58.082 0.054 7.09 3.99 9.64
8/16/2021 8:45:00 AM 14.53 58.154 0.054 7.1 3.94 9.69
8/16/2021 9:00:00 AM 14.57 58.226 0.054 7.11 3.73 9.72
8/16/2021 9:15:00 AM 14.62 58.316 0.054 7.13 3.98 9.76
8/16/2021 9:30:00 AM 14.67 58.406 0.054 7.14 3.64 9.75
8/16/2021 9:45:00 AM 14.73 58.514 0.054 7.16 3.62 9.79
8/16/2021 10:00:00 AM 14.83 58.694 0.054 7.17 3.72 9.84
8/16/2021 10:15:00 AM 14.89 58.802 0.054 7.19 5.8 9.84
8/16/2021 10:30:00 AM 14.93 58.874 0.053 7.2 3.5 9.85
8/16/2021 10:45:00 AM 14.99 58.982 0.053 7.16 3.41 9.84
8/16/2021 11:00:00 AM 15.05 59.09 0.053 7.23 3.48 9.83
8/16/2021 11:15:00 AM 15.09 59.162 0.053 7.15 3.57 9.8
8/16/2021 11:30:00 AM 15.14 59.252 0.053 7.22 3.63 9.79
8/16/2021 11:45:00 AM 15.18 59.324 0.053 7.22 3.5 9.77
8/16/2021 12:00:00 PM 15.25 59.45 0.053 7.2 3.39 9.77
8/16/2021 12:15:00 PM 15.33 59.594 0.053 7.23 3.32 9.78
8/16/2021 12:30:00 PM 15.38 59.684 0.053 7.23 3.5 9.77
8/16/2021 12:45:00 PM 15.43 59.774 0.053 7.25 3.56 9.8
8/16/2021 1:00:00 PM 15.46 59.828 0.053 7.22 3.65 9.79
8/16/2021 1:15:00 PM 15.52 59.936 0.053 7.25 5.9 9.78
8/16/2021 1:30:00 PM 15.55 59.99 0.053 7.25 3.62 9.74
8/16/2021 1:45:00 PM 15.61 60.098 0.053 7.24 3.58 9.73
8/16/2021 2:00:00 PM 15.63 60.134 0.053 7.24 3.74 9.7
8/16/2021 2:15:00 PM 15.65 60.17 0.053 7.24 3.69 9.69
8/16/2021 2:30:00 PM 15.64 60.152 0.053 7.12 3.82 9.63
8/16/2021 2:45:00 PM 15.66 60.188 0.053 7.23 3.71 9.62
8/16/2021 3:00:00 PM 15.67 60.206 0.053 7.22 3.65 9.64
8/16/2021 3:15:00 PM 15.68 60.224 0.053 7.22 3.87 9.64
8/16/2021 3:30:00 PM 15.69 60.242 0.053 7.22 4.74 9.63
8/16/2021 3:45:00 PM 15.7 60.26 0.053 7.22 5.08 9.64
8/16/2021 4:00:00 PM 15.7 60.26 0.053 7.19 3.78 9.64
8/16/2021 4:15:00 PM 15.69 60.242 0.053 7.21 3.76 9.63
8/16/2021 4:30:00 PM 15.68 60.224 0.053 7.14 3.74 9.59
8/16/2021 4:45:00 PM 15.68 60.224 0.053 7.18 3.7 9.55
8/16/2021 5:00:00 PM 15.7 60.26 0.053 7.11 3.79 9.55
8/16/2021 5:15:00 PM 15.7 60.26 0.053 7.17 4 9.53
8/16/2021 5:30:00 PM 15.7 60.26 0.054 7.17 3.88 9.51
8/16/2021 5:45:00 PM 15.69 60.242 0.054 7.16 3.77 9.5
8/16/2021 6:00:00 PM 15.68 60.224 0.054 7.15 3.76 9.48
8/16/2021 6:15:00 PM 15.66 60.188 0.054 7.14 3.96 9.45
8/16/2021 6:30:00 PM 15.64 60.152 0.054 7.13 3.73 9.42
8/16/2021 6:45:00 PM 15.62 60.116 0.054 7.12 3.92 9.36
8/16/2021 7:00:00 PM 15.59 60.062 0.054 7.1 4.2 9.34
8/16/2021 7:15:00 PM 15.56 60.008 0.054 7.09 4.15 9.31
8/16/2021 7:30:00 PM 15.54 59.972 0.054 7.08 3.96 9.29
8/16/2021 7:45:00 PM 15.5 59.9 0.054 7.07 4.1 9.25
8/16/2021 8:00:00 PM 15.46 59.828 0.054 7.05 4.15 9.25
8/16/2021 8:15:00 PM 15.43 59.774 0.054 7.04 4.01 9.23
8/16/2021 8:30:00 PM 15.39 59.702 0.055 7.03 4.07 9.22
8/16/2021 8:45:00 PM 15.36 59.648 0.055 7.03 3.99 9.21
8/16/2021 9:00:00 PM 15.33 59.594 0.055 6.89 4.34 9.21
8/16/2021 9:15:00 PM 15.31 59.558 0.055 6.97 4.2 9.2
8/16/2021 9:30:00 PM 15.29 59.522 0.055 7.01 4.05 9.2
8/16/2021 9:45:00 PM 15.28 59.504 0.055 7 4.1 9.19
8/16/2021 10:00:00 PM 15.25 59.45 0.055 7 4.28 9.22
8/16/2021 10:15:00 PM 15.23 59.414 0.055 6.99 4.13 9.23
8/16/2021 10:30:00 PM 15.2 59.36 0.055 6.99 4.3 9.24
8/16/2021 10:45:00 PM 15.19 59.342 0.055 6.91 4.26 9.21
8/16/2021 11:00:00 PM 15.17 59.306 0.055 6.94 4.24 9.24
8/16/2021 11:15:00 PM 15.15 59.27 0.055 6.94 4.29 9.24
8/16/2021 11:30:00 PM 15.14 59.252 0.055 6.98 4.13 9.24
8/16/2021 11:45:00 PM 15.13 59.234 0.055 6.98 4.16 9.25
8/17/2021 12:00:00 AM 15.13 59.234 0.055 6.96 3.91 9.24
8/17/2021 12:15:00 AM 15.12 59.216 0.055 6.98 4.43 9.24
8/17/2021 12:30:00 AM 15.12 59.216 0.055 6.98 4.2 9.21
8/17/2021 12:45:00 AM 15.13 59.234 0.055 6.95 4.53 9.25
8/17/2021 1:00:00 AM 15.15 59.27 0.055 6.93 4.4 9.23
8/17/2021 1:15:00 AM 15.14 59.252 0.055 6.97 4.44 9.23
8/17/2021 1:30:00 AM 15.15 59.27 0.055 6.96 4.52 9.21
8/17/2021 1:45:00 AM 15.16 59.288 0.055 6.86 4.49 9.21
8/17/2021 2:00:00 AM 15.16 59.288 0.055 6.97 4.32 9.21
8/17/2021 2:15:00 AM 15.15 59.27 0.055 6.97 4.73 9.21
8/17/2021 2:30:00 AM 15.15 59.27 0.055 6.97 4.38 9.22
8/17/2021 2:45:00 AM 15.15 59.27 0.055 6.97 4.82 9.22
8/17/2021 3:00:00 AM 15.15 59.27 0.055 6.96 4.42 9.19
8/17/2021 3:15:00 AM 15.14 59.252 0.055 6.93 4.34 9.21
8/17/2021 3:30:00 AM 15.14 59.252 0.055 6.97 4.65 9.21
8/17/2021 3:45:00 AM 15.13 59.234 0.055 6.97 5.24 9.22
8/17/2021 4:00:00 AM 15.13 59.234 0.055 6.95 4.9 9.22
8/17/2021 4:15:00 AM 15.13 59.234 0.055 6.95 5.11 9.22
8/17/2021 4:30:00 AM 15.13 59.234 0.055 6.95 4.43 9.22
8/17/2021 4:45:00 AM 15.13 59.234 0.055 6.95 4.69 9.22
8/17/2021 5:00:00 AM 15.14 59.252 0.055 6.82 4.73 9.23
8/17/2021 5:15:00 AM 15.13 59.234 0.055 6.94 4.86 9.23
8/17/2021 5:30:00 AM 15.13 59.234 0.055 6.87 4.69 9.2
8/17/2021 5:45:00 AM 15.13 59.234 0.055 6.94 4.85 9.23
8/17/2021 6:00:00 AM 15.13 59.234 0.055 6.9 4.68 9.23
8/17/2021 6:15:00 AM 15.13 59.234 0.055 6.93 4.7 9.23
8/17/2021 6:30:00 AM 15.14 59.252 0.055 6.82 4.93 9.22
8/17/2021 6:45:00 AM 15.14 59.252 0.055 6.94 5.03 9.23
8/17/2021 7:00:00 AM 15.14 59.252 0.055 6.94 4.73 9.25
8/17/2021 7:15:00 AM 15.15 59.27 0.055 6.94 4.9 9.26
8/17/2021 7:30:00 AM 15.15 59.27 0.055 6.95 4.94 9.28
8/17/2021 7:45:00 AM 15.16 59.288 0.055 6.95 4.85 9.28
8/17/2021 8:00:00 AM 15.17 59.306 0.055 6.97 4.71 9.32
8/17/2021 8:15:00 AM 15.19 59.342 0.055 6.97 4.69 9.3
8/17/2021 8:30:00 AM 15.2 59.36 0.055 6.98 4.58 9.37
8/17/2021 8:45:00 AM 15.22 59.396 0.055 6.95 4.58 9.38
8/17/2021 9:00:00 AM 15.24 59.432 0.055 7.01 4.55 9.42
8/17/2021 9:15:00 AM 15.27 59.486 0.055 6.93 4.48 9.46
8/17/2021 9:30:00 AM 15.3 59.54 0.055 7.04 4.52 9.51
8/17/2021 9:45:00 AM 15.34 59.612 0.055 7.05 4.36 9.54
8/17/2021 10:00:00 AM 15.37 59.666 0.055 7.06 4.43 9.56
8/17/2021 10:15:00 AM 15.4 59.72 0.055 7.07 4.51 9.59
8/17/2021 10:30:00 AM 15.44 59.792 0.055 7.08 4.5 9.61
8/17/2021 10:45:00 AM 15.5 59.9 0.055 7.09 4.44 9.63
8/17/2021 11:00:00 AM 15.58 60.044 0.054 7.11 4.52 9.68
8/17/2021 11:15:00 AM 15.65 60.17 0.054 7.12 4.47 9.67
8/17/2021 11:30:00 AM 15.74 60.332 0.054 7.16 4.28 9.69
8/17/2021 11:45:00 AM 15.8 60.44 0.054 7.06 4.65 9.68
8/17/2021 12:00:00 PM 15.92 60.656 0.054 7.19 3.63 9.69
8/17/2021 12:15:00 PM 16.02 60.836 0.054 7.21 3.56 9.69
8/17/2021 12:30:00 PM 16.14 61.052 0.054 7.21 3.59 9.71
8/17/2021 12:45:00 PM 16.31 61.358 0.054 7.24 4.19 9.72
8/17/2021 1:00:00 PM 16.44 61.592 0.054 7.25 4.31 9.7
8/17/2021 1:15:00 PM 16.61 61.898 0.054 7.27 4.65 9.7
8/17/2021 1:30:00 PM 16.76 62.168 0.054 7.29 3.9 9.66
8/17/2021 1:45:00 PM 16.98 62.564 0.054 7.31 4.04 9.67
8/17/2021 2:00:00 PM 17.19 62.942 0.054 7.32 4.07 9.66
8/17/2021 2:15:00 PM 17.31 63.158 0.054 7.33 3.13 9.59
8/17/2021 2:30:00 PM 17.31 63.158 0.054 7.25 3.62 9.5
8/17/2021 2:45:00 PM 17.35 63.23 0.054 7.3 3.85 9.4
8/17/2021 3:00:00 PM 17.37 63.266 0.054 7.28 3.83 9.35
8/17/2021 3:15:00 PM 17.36 63.248 0.054 7.25 3.76 9.27
8/17/2021 3:30:00 PM 17.33 63.194 0.054 7.21 3.76 9.17
8/17/2021 3:45:00 PM 17.26 63.068 0.054 7.08 3.89 9.14
8/17/2021 4:00:00 PM 17.18 62.924 0.054 7.09 3.93 9.13
8/17/2021 4:15:00 PM 17.12 62.816 0.054 7.08 4 9.14
8/17/2021 4:30:00 PM 17.05 62.69 0.054 7.13 4.13 9.15
8/17/2021 4:45:00 PM 16.95 62.51 0.054 7.01 4.12 9.13
8/17/2021 5:00:00 PM 16.89 62.402 0.054 7.1 4.08 9.1
8/17/2021 5:15:00 PM 16.83 62.294 0.054 7.08 4.14 9.11
8/17/2021 5:30:00 PM 16.8 62.24 0.054 7.08 5.65 9.13
8/17/2021 5:45:00 PM 16.8 62.24 0.054 7.08 3.38 9.19
8/17/2021 6:00:00 PM 16.8 62.24 0.054 7.01 6.6 9.27
8/17/2021 6:15:00 PM 16.77 62.186 0.054 7.1 5.23 9.26
8/17/2021 6:30:00 PM 16.74 62.132 0.054 6.98 4.69 9.25
8/17/2021 6:45:00 PM 16.7 62.06 0.054 7.08 4.74 9.2
8/17/2021 7:00:00 PM 16.68 62.024 0.054 7.08 4.71 9.17
8/17/2021 7:15:00 PM 16.67 62.006 0.054 7.07 4.67 9.14
8/17/2021 7:30:00 PM 16.64 61.952 0.054 7.06 4.9 9.11
8/17/2021 7:45:00 PM 16.61 61.898 0.054 7.04 4.83 9.07
8/17/2021 8:00:00 PM 16.56 61.808 0.054 7.03 4.86 9.06
8/17/2021 8:15:00 PM 16.53 61.754 0.055 6.98 5.03 9.01
8/17/2021 8:30:00 PM 16.48 61.664 0.055 6.89 5.41 9
8/17/2021 8:45:00 PM 16.45 61.61 0.055 6.97 5.22 8.99
8/17/2021 9:00:00 PM 16.4 61.52 0.055 6.96 5.2 8.99
8/17/2021 9:15:00 PM 16.36 61.448 0.055 6.95 5.26 9.01
8/17/2021 9:30:00 PM 16.33 61.394 0.055 6.94 5.4 8.99
8/17/2021 9:45:00 PM 16.29 61.322 0.055 6.94 5.39 8.99
8/17/2021 10:00:00 PM 16.26 61.268 0.055 6.94 5.25 9
8/17/2021 10:15:00 PM 16.24 61.232 0.055 6.93 5.18 9.02
8/17/2021 10:30:00 PM 16.21 61.178 0.056 6.93 5.48 9.02
8/17/2021 10:45:00 PM 16.19 61.142 0.056 6.92 5.58 9.02
8/17/2021 11:00:00 PM 16.17 61.106 0.056 6.87 6.91 9.01
8/17/2021 11:15:00 PM 16.14 61.052 0.056 6.92 5.43 9.04
8/17/2021 11:30:00 PM 16.12 61.016 0.056 6.9 5.51 9.04
8/17/2021 11:45:00 PM 16.11 60.998 0.056 6.9 5.78 9.02
8/18/2021 12:00:00 AM 16.08 60.944 0.056 6.85 5.52 9.04
8/18/2021 12:15:00 AM 16.08 60.944 0.056 6.89 5.71 9.04
8/18/2021 12:30:00 AM 16.08 60.944 0.056 6.78 5.68 9.02
8/18/2021 12:45:00 AM 16.06 60.908 0.056 6.88 5.63 9.04
8/18/2021 1:00:00 AM 16.04 60.872 0.056 6.88 5.7 9.03
8/18/2021 1:15:00 AM 16.03 60.854 0.056 6.88 6.31 9.01
8/18/2021 1:30:00 AM 16.01 60.818 0.056 6.88 5.67 9.05
8/18/2021 1:45:00 AM 15.99 60.782 0.056 6.85 5.8 9.04
8/18/2021 2:00:00 AM 15.96 60.728 0.056 6.81 5.95 9.05
8/18/2021 2:15:00 AM 15.94 60.692 0.056 6.9 5.91 9.05
8/18/2021 2:30:00 AM 15.92 60.656 0.056 6.89 5.69 9.06
8/18/2021 2:45:00 AM 15.9 60.62 0.056 6.88 6.16 9.07
8/18/2021 3:00:00 AM 15.88 60.584 0.056 6.88 5.79 9.07
8/18/2021 3:15:00 AM 15.86 60.548 0.056 6.74 6.55 9.07
8/18/2021 3:30:00 AM 15.85 60.53 0.056 6.8 5.55 9.08
8/18/2021 3:45:00 AM 15.85 60.53 0.056 6.87 5.35 9.07
8/18/2021 4:00:00 AM 15.84 60.512 0.056 6.84 5.68 9.07
8/18/2021 4:15:00 AM 15.83 60.494 0.056 6.86 5.56 9.09
8/18/2021 4:30:00 AM 15.83 60.494 0.056 6.86 5.52 9.1
8/18/2021 4:45:00 AM 15.84 60.512 0.055 6.87 5.67 9.09
8/18/2021 5:00:00 AM 15.84 60.512 0.055 6.86 5.65 9.09
8/18/2021 5:15:00 AM 15.86 60.548 0.055 6.87 5.71 9.09
8/18/2021 5:30:00 AM 15.92 60.656 0.055 6.88 6.06 9.09
8/18/2021 5:45:00 AM 15.93 60.674 0.055 6.88 7.01 9.08
8/18/2021 6:00:00 AM 15.94 60.692 0.054 6.88 7.32 9.07
8/18/2021 6:15:00 AM 15.94 60.692 0.054 6.89 7.75 9.07
8/18/2021 6:30:00 AM 15.93 60.674 0.055 6.89 6.44 9.07
8/18/2021 6:45:00 AM 15.9 60.62 0.055 6.89 7.23 9.07
8/18/2021 7:00:00 AM 15.88 60.584 0.055 6.89 6.22 9.09
8/18/2021 7:15:00 AM 15.85 60.53 0.055 6.87 6.48 9.11
8/18/2021 7:30:00 AM 15.83 60.494 0.055 6.92 6.86 9.14
8/18/2021 7:45:00 AM 15.83 60.494 0.055 6.92 7.32 9.16
8/18/2021 8:00:00 AM 15.85 60.53 0.055 6.97 6.68 9.18
8/18/2021 8:15:00 AM 15.87 60.566 0.055 6.89 7.51 9.21
8/18/2021 8:30:00 AM 15.88 60.584 0.055 7 7.63 9.2
8/18/2021 8:45:00 AM 15.91 60.638 0.055 7 7.13 9.22
8/18/2021 9:00:00 AM 15.95 60.71 0.054 7 8.98 9.22
8/18/2021 9:15:00 AM 15.97 60.746 0.054 7 8.09 9.22
8/18/2021 9:30:00 AM 16 60.8 0.054 7 8.98 9.26
8/18/2021 9:45:00 AM 16.01 60.818 0.055 7.04 10.56 9.3
8/18/2021 10:00:00 AM 16.01 60.818 0.055 6.92 16.46 9.3
8/18/2021 10:15:00 AM 16.03 60.854 0.055 7.04 8.7 9.31
8/18/2021 10:30:00 AM 16.06 60.908 0.055 7.05 13.24 9.31
8/18/2021 10:45:00 AM 16.09 60.962 0.055 7.06 9.9 9.33
8/18/2021 11:00:00 AM 16.1 60.98 0.055 7.07 11.17 9.31
8/18/2021 11:15:00 AM 16.12 61.016 0.054 7.05 9.83 9.3
8/18/2021 11:30:00 AM 16.13 61.034 0.054 7.06 10.77 9.3
8/18/2021 11:45:00 AM 16.12 61.016 0.054 6.99 11.12 9.28
8/18/2021 12:00:00 PM 16.13 61.034 0.053 7.05 10.45 9.27
8/18/2021 12:15:00 PM 16.11 60.998 0.053 7.05 11.66 9.26
8/18/2021 12:30:00 PM 16.11 60.998 0.053 7.04 10.57 9.26
8/18/2021 12:45:00 PM 16.09 60.962 0.053 7.04 11.33 9.25
8/18/2021 1:00:00 PM 16.08 60.944 0.053 7.04 10.67 9.25
8/18/2021 1:15:00 PM 16.08 60.944 0.052 7.04 11.58 9.23
8/18/2021 1:30:00 PM 16.07 60.926 0.052 7.03 11.6 9.22
8/18/2021 1:45:00 PM 16.08 60.944 0.052 7.02 16.46 9.2
8/18/2021 2:00:00 PM 16.1 60.98 0.052 6.98 15.84 9.18
8/18/2021 2:15:00 PM 16.11 60.998 0.052 7 17.22 9.18
8/18/2021 2:30:00 PM 16.13 61.034 0.051 6.96 19.21 9.16
8/18/2021 2:45:00 PM 16.14 61.052 0.051 6.98 36.3 9.15
8/18/2021 3:00:00 PM 16.15 61.07 0.051 6.97 25.69 9.12
8/18/2021 3:15:00 PM 16.2 61.16 0.05 6.88 36.74 9.11
8/18/2021 3:30:00 PM 16.27 61.286 0.049 6.93 38.86 9.09
8/18/2021 3:45:00 PM 16.33 61.394 0.049 6.86 58.38 9.06
8/18/2021 4:00:00 PM 16.36 61.448 0.048 6.85 182.79 9.03
8/18/2021 4:15:00 PM 16.45 61.61 0.046 6.69 95.48 9.02
8/18/2021 4:30:00 PM 16.59 61.862 0.044 6.72 149.42 8.99
8/18/2021 4:45:00 PM 16.75 62.15 0.041 6.67 227.43 8.93
8/18/2021 5:00:00 PM 16.88 62.384 0.034 6.36 688.5 8.83
8/18/2021 5:15:00 PM 16.84 62.312 0.036 6.24 146.52 8.79
8/18/2021 5:30:00 PM 17.01 62.618 0.033 6.16 799.37 8.76
8/18/2021 5:45:00 PM 16.89 62.402 0.033 6.19 159.12 8.72
8/18/2021 6:00:00 PM 16.71 62.078 0.034 6.3 588.74 8.81
8/18/2021 6:15:00 PM 16.5 61.7 0.033 6.28 146.3 8.74
8/18/2021 6:30:00 PM 16.32 61.376 0.031 6.1 1818.17 8.9
8/18/2021 6:45:00 PM 16.14 61.052 0.031 6.04 561.61 8.99
8/18/2021 7:00:00 PM 15.93 60.674 0.023 6.11 496.09 9.04
8/18/2021 7:15:00 PM 15.71 60.278 0.031 6.19 110.02 9.11
8/18/2021 7:30:00 PM 15.54 59.972 0.031 6.06 362.45 9.19
8/18/2021 7:45:00 PM 15.37 59.666 0.031 6.01 319.32 9.22
8/18/2021 8:00:00 PM 15.23 59.414 0.031 6.1 319.42 9.26
8/18/2021 8:15:00 PM 15.1 59.18 0.031 6.06 316.59 9.29
8/18/2021 8:30:00 PM 14.97 58.946 0.031 6.14 373.58 9.33
8/18/2021 8:45:00 PM 14.86 58.748 0.031 6.19 728.54 9.36
8/18/2021 9:00:00 PM 14.74 58.532 0.031 6.11 283.6 9.38
8/18/2021 9:15:00 PM 14.63 58.334 0.031 6.02 271.24 9.4
8/18/2021 9:30:00 PM 14.53 58.154 0.031 6.2 256.49 9.44
8/18/2021 9:45:00 PM 14.43 57.974 0.031 6.23 253.52 9.47
8/18/2021 10:00:00 PM 14.32 57.776 0.031 6.24 227.88 9.5
8/18/2021 10:15:00 PM 14.23 57.614 0.03 6.26 213.39 9.52
8/18/2021 10:30:00 PM 14.14 57.452 0.031 6.22 215.3 9.54
8/18/2021 10:45:00 PM 14.05 57.29 0.031 6.2 194.53 9.56
8/18/2021 11:00:00 PM 13.97 57.146 0.031 6.24 178.36 9.58
8/18/2021 11:15:00 PM 13.9 57.02 0.031 6.25 172.05 9.59
8/18/2021 11:30:00 PM 13.83 56.894 0.031 6.29 165.2 9.62
8/18/2021 11:45:00 PM 13.76 56.768 0.031 6.26 159.02 9.64
8/19/2021 12:00:00 AM 13.69 56.642 0.031 6.27 150.16 9.65
8/19/2021 12:15:00 AM 13.63 56.534 0.031 6.27 151.17 9.66
8/19/2021 12:30:00 AM 13.57 56.426 0.031 6.28 133.35 9.69
8/19/2021 12:45:00 AM 13.52 56.336 0.031 6.27 143.51 9.69
8/19/2021 1:00:00 AM 13.47 56.246 0.031 6.27 126.57 9.71
8/19/2021 1:15:00 AM 13.42 56.156 0.031 6.28 125.18 9.71
8/19/2021 1:30:00 AM 13.38 56.084 0.031 6.33 109.25 9.72
8/19/2021 1:45:00 AM 13.33 55.994 0.032 6.26 101.17 9.73
8/19/2021 2:00:00 AM 13.29 55.922 0.032 6.36 106.24 9.74
8/19/2021 2:15:00 AM 13.25 55.85 0.032 6.31 102.98 9.76
8/19/2021 2:30:00 AM 13.21 55.778 0.032 6.36 103.36 9.77
8/19/2021 2:45:00 AM 13.18 55.724 0.032 6.27 98.01 9.78
8/19/2021 3:00:00 AM 13.14 55.652 0.032 6.38 95.11 9.79
8/19/2021 3:15:00 AM 13.11 55.598 0.032 6.39 90.78 9.8
8/19/2021 3:30:00 AM 13.09 55.562 0.032 6.39 84.01 9.81
8/19/2021 3:45:00 AM 13.06 55.508 0.032 6.33 86.34 9.82
8/19/2021 4:00:00 AM 13.03 55.454 0.031 6.38 74.43 9.82
8/19/2021 4:15:00 AM 13 55.4 0.032 6.43 84.43 9.83
8/19/2021 4:30:00 AM 12.98 55.364 0.032 6.42 79.96 9.84
8/19/2021 4:45:00 AM 12.95 55.31 0.032 6.46 109.95 9.85
8/19/2021 5:00:00 AM 12.91 55.238 0.032 6.44 74.97 9.85
8/19/2021 5:15:00 AM 12.88 55.184 0.032 6.42 76.24 9.86
8/19/2021 5:30:00 AM 12.85 55.13 0.032 6.39 71.48 9.87
8/19/2021 5:45:00 AM 12.83 55.094 0.032 6.45 69.81 9.87
8/19/2021 6:00:00 AM 12.8 55.04 0.032 6.45 61.6 9.87
8/19/2021 6:15:00 AM 12.77 54.986 0.032 6.42 59.39 9.88
8/19/2021 6:30:00 AM 12.75 54.95 0.032 6.4 54.28 9.88
8/19/2021 6:45:00 AM 12.72 54.896 0.032 6.45 60.4 9.89
8/19/2021 7:00:00 AM 12.7 54.86 0.032 6.46 59.38 9.9
8/19/2021 7:15:00 AM 12.69 54.842 0.032 6.46 56.33 9.91
8/19/2021 7:30:00 AM 12.67 54.806 0.033 6.48 52.49 9.92
8/19/2021 7:45:00 AM 12.65 54.77 0.033 6.49 54.32 9.92
8/19/2021 8:00:00 AM 12.64 54.752 0.033 6.47 48.76 9.93
8/19/2021 8:15:00 AM 12.63 54.734 0.033 6.46 52.76 9.93
8/19/2021 8:30:00 AM 12.62 54.716 0.033 6.51 53.52 9.94
8/19/2021 8:45:00 AM 12.62 54.716 0.033 6.45 60.25 9.94
8/19/2021 9:00:00 AM 12.61 54.698 0.033 6.51 43.43 9.95
8/19/2021 9:15:00 AM 12.6 54.68 0.033 6.52 51.49 9.95
8/19/2021 9:30:00 AM 12.61 54.698 0.033 6.48 44.75 9.96
8/19/2021 9:45:00 AM 12.61 54.698 0.033 6.55 48.73 9.96
8/19/2021 10:00:00 AM 12.61 54.698 0.033 6.58 35.78 9.96
8/19/2021 10:15:00 AM 12.62 54.716 0.033 6.54 39.5 9.97
8/19/2021 10:30:00 AM 12.63 54.734 0.033 6.57 46.79 9.97
8/19/2021 10:45:00 AM 12.65 54.77 0.033 6.5 44.12 9.97
8/19/2021 11:00:00 AM 12.69 54.842 0.033 6.61 34.55 9.97
8/19/2021 11:15:00 AM 12.72 54.896 0.033 6.61 38.99 9.97
8/19/2021 11:30:00 AM 12.76 54.968 0.033 6.6 36.55 9.96
8/19/2021 11:45:00 AM 12.78 55.004 0.033 6.62 30.76 9.96
8/19/2021 12:00:00 PM 12.79 55.022 0.033 6.62 42.31 9.96
8/19/2021 12:15:00 PM 12.82 55.076 0.034 6.58 34.97 9.96
8/19/2021 12:30:00 PM 12.87 55.166 0.034 6.58 38.33 9.95
8/19/2021 12:45:00 PM 12.88 55.184 0.034 6.59 35.31 9.95
8/19/2021 1:00:00 PM 12.95 55.31 0.034 6.55 28.64 9.95
8/19/2021 1:15:00 PM 13.02 55.436 0.034 6.58 25.27 9.94
8/19/2021 1:30:00 PM 13.16 55.688 0.034 6.58 34.88 9.92
8/19/2021 1:45:00 PM 13.19 55.742 0.034 6.6 23.42 9.91
8/19/2021 2:00:00 PM 13.21 55.778 0.034 6.59 19.98 9.9
8/19/2021 2:15:00 PM 13.23 55.814 0.034 6.62 27.3 9.89
8/19/2021 2:30:00 PM 13.28 55.904 0.034 6.6 36.45 9.87
8/19/2021 2:45:00 PM 13.38 56.084 0.034 6.6 30.38 9.86
8/19/2021 3:00:00 PM 13.41 56.138 0.034 6.62 27.76 9.85
8/19/2021 3:15:00 PM 13.4 56.12 0.034 6.62 26.62 9.84
8/19/2021 3:30:00 PM 13.39 56.102 0.034 6.6 24.82 9.84
8/19/2021 3:45:00 PM 13.43 56.174 0.034 6.62 26.58 9.83
8/19/2021 4:00:00 PM 13.47 56.246 0.034 6.55 40.64 9.83
8/19/2021 4:15:00 PM 13.47 56.246 0.034 6.6 18.42 9.82
8/19/2021 4:30:00 PM 13.44 56.192 0.034 6.61 23.75 9.83
8/19/2021 4:45:00 PM 13.39 56.102 0.034 6.62 31.46 9.83
8/19/2021 5:00:00 PM 13.32 55.976 0.034 6.6 25.12 9.83
8/19/2021 5:15:00 PM 13.26 55.868 0.034 6.55 25.86 9.85
8/19/2021 5:30:00 PM 13.17 55.706 0.034 6.64 24.83 9.86
8/19/2021 5:45:00 PM 13.1 55.58 0.034 6.59 17.76 9.87
8/19/2021 6:00:00 PM 13.05 55.49 0.034 6.63 23.2 9.88
8/19/2021 6:15:00 PM 13 55.4 0.035 6.62 22.43 9.89
8/19/2021 6:30:00 PM 12.94 55.292 0.035 6.62 18.76 9.9
8/19/2021 6:45:00 PM 12.88 55.184 0.035 6.54 19.81 9.9
8/19/2021 7:00:00 PM 12.83 55.094 0.035 6.62 20.66 9.91
8/19/2021 7:15:00 PM 12.78 55.004 0.035 6.59 20.38 9.91
8/19/2021 7:30:00 PM 12.73 54.914 0.035 6.61 20.75 9.92
8/19/2021 7:45:00 PM 12.68 54.824 0.035 6.54 20.49 9.92
8/19/2021 8:00:00 PM 12.64 54.752 0.035 6.59 17.24 9.93
8/19/2021 8:15:00 PM 12.6 54.68 0.035 6.53 21.43 9.93
8/19/2021 8:30:00 PM 12.56 54.608 0.035 6.6 19.73 9.94
8/19/2021 8:45:00 PM 12.52 54.536 0.035 6.57 20.62 9.95
8/19/2021 9:00:00 PM 12.49 54.482 0.035 6.57 20.14 9.96
8/19/2021 9:15:00 PM 12.45 54.41 0.035 6.55 19.26 9.96
8/19/2021 9:30:00 PM 12.42 54.356 0.035 6.5 19.81 9.97
8/19/2021 9:45:00 PM 12.39 54.302 0.035 6.55 19.51 9.97
8/19/2021 10:00:00 PM 12.36 54.248 0.035 6.55 19.28 9.99
8/19/2021 10:15:00 PM 12.34 54.212 0.035 6.54 19 9.99
8/19/2021 10:30:00 PM 12.32 54.176 0.036 6.56 18.93 10
8/19/2021 10:45:00 PM 12.29 54.122 0.036 6.54 19.76 10
8/19/2021 11:00:00 PM 12.28 54.104 0.036 6.54 19.73 10.01
8/19/2021 11:15:00 PM 12.26 54.068 0.036 6.57 19.69 10.01
8/19/2021 11:30:00 PM 12.24 54.032 0.036 6.56 18.65 10.01
8/19/2021 11:45:00 PM 12.22 53.996 0.036 6.56 17.86 10.02
8/20/2021 12:00:00 AM 12.2 53.96 0.036 6.55 17.01 10.02
8/20/2021 12:15:00 AM 12.19 53.942 0.036 6.58 18.64 10.02
8/20/2021 12:30:00 AM 12.17 53.906 0.036 6.55 19.18 10.02
8/20/2021 12:45:00 AM 12.16 53.888 0.036 6.54 18.47 10.03
8/20/2021 1:00:00 AM 12.14 53.852 0.036 6.58 18.72 10.02
8/20/2021 1:15:00 AM 12.13 53.834 0.036 6.56 18.35 10.03
8/20/2021 1:30:00 AM 12.12 53.816 0.036 6.59 17.56 10.03
8/20/2021 1:45:00 AM 12.11 53.798 0.036 6.6 19.08 10.03
8/20/2021 2:00:00 AM 12.1 53.78 0.036 6.58 18.09 10.04
8/20/2021 2:15:00 AM 12.09 53.762 0.036 6.59 19.82 10.03
8/20/2021 2:30:00 AM 12.08 53.744 0.036 6.59 20 10.04
8/20/2021 2:45:00 AM 12.07 53.726 0.036 6.55 19.79 10.04
8/20/2021 3:00:00 AM 12.06 53.708 0.036 6.58 24.41 10.05
8/20/2021 3:15:00 AM 12.05 53.69 0.036 6.6 20.11 10.04
8/20/2021 3:30:00 AM 12.04 53.672 0.036 6.61 18.19 10.04
8/20/2021 3:45:00 AM 12.03 53.654 0.036 6.61 20.72 10.05
8/20/2021 4:00:00 AM 12.02 53.636 0.036 6.61 21.62 10.05
8/20/2021 4:15:00 AM 12.01 53.618 0.036 6.61 23.58 10.05
8/20/2021 4:30:00 AM 12.01 53.618 0.036 6.62 35.32 10.05
8/20/2021 4:45:00 AM 12 53.6 0.036 6.62 18.72 10.06
8/20/2021 5:00:00 AM 11.99 53.582 0.036 6.6 23.12 10.06
8/20/2021 5:15:00 AM 11.98 53.564 0.036 6.58 22.61 10.06
8/20/2021 5:30:00 AM 11.97 53.546 0.036 6.62 23.71 10.07
8/20/2021 5:45:00 AM 11.96 53.528 0.036 6.59 25.25 10.06
8/20/2021 6:00:00 AM 11.95 53.51 0.036 6.61 22.93 10.07
8/20/2021 6:15:00 AM 11.94 53.492 0.036 6.65 23.9 10.07
8/20/2021 6:30:00 AM 11.93 53.474 0.036 6.56 27.16 10.07
8/20/2021 6:45:00 AM 11.92 53.456 0.036 6.64 22.37 10.08
8/20/2021 7:00:00 AM 11.91 53.438 0.036 6.7 21.68 10.08
8/20/2021 7:15:00 AM 11.9 53.42 0.036 6.59 24.59 10.09
8/20/2021 7:30:00 AM 11.89 53.402 0.037 6.67 25.55 10.09
8/20/2021 7:45:00 AM 11.88 53.384 0.037 6.62 28.66 10.1
8/20/2021 8:00:00 AM 11.88 53.384 0.036 6.65 18.52 10.1
8/20/2021 8:15:00 AM 11.87 53.366 0.037 6.59 20.15 10.11
8/20/2021 8:30:00 AM 11.87 53.366 0.036 6.64 16.9 10.12
8/20/2021 8:45:00 AM 11.88 53.384 0.036 6.64 17.36 10.12
8/20/2021 9:00:00 AM 11.88 53.384 0.037 6.61 14.18 10.12
8/20/2021 9:15:00 AM 11.9 53.42 0.037 6.66 15.53 10.13
8/20/2021 9:30:00 AM 11.92 53.456 0.037 6.68 14.12 10.13
8/20/2021 9:45:00 AM 11.95 53.51 0.037 6.63 13.4 10.13
8/20/2021 10:00:00 AM 11.99 53.582 0.037 6.67 12.11 10.13
8/20/2021 10:15:00 AM 12.04 53.672 0.037 6.68 12.3 10.12
8/20/2021 10:30:00 AM 12.09 53.762 0.037 6.63 12.62 10.11
8/20/2021 10:45:00 AM 12.11 53.798 0.037 6.69 12.17 10.11
8/20/2021 11:00:00 AM 12.13 53.834 0.037 6.68 11.38 10.11
8/20/2021 11:15:00 AM 12.16 53.888 0.037 6.7 12.19 10.1
8/20/2021 11:30:00 AM 12.21 53.978 0.037 6.71 12.78 10.1
8/20/2021 11:45:00 AM 12.3 54.14 0.037 6.64 11.07 10.09
8/20/2021 12:00:00 PM 12.44 54.392 0.037 6.69 11.2 10.07
8/20/2021 12:15:00 PM 12.57 54.626 0.037 6.71 12.78 10.05
8/20/2021 12:30:00 PM 12.59 54.662 0.037 6.73 12.91 10.03
8/20/2021 12:45:00 PM 12.6 54.68 0.037 6.73 13.23 10.03
8/20/2021 1:00:00 PM 12.74 54.932 0.037 6.7 11.11 10
8/20/2021 1:15:00 PM 12.87 55.166 0.037 6.74 13.59 9.98
8/20/2021 1:30:00 PM 13.02 55.436 0.037 6.74 15.22 9.96
8/20/2021 1:45:00 PM 13.09 55.562 0.037 6.75 12.03 9.94
8/20/2021 2:00:00 PM 13.1 55.58 0.037 6.75 11.94 9.92
8/20/2021 2:15:00 PM 13.17 55.706 0.037 6.75 11.07 9.91
8/20/2021 2:30:00 PM 13.18 55.724 0.037 6.76 12.95 9.89
8/20/2021 2:45:00 PM 13.23 55.814 0.037 6.7 11.49 9.89
8/20/2021 3:00:00 PM 13.33 55.994 0.037 6.76 11.71 9.86
8/20/2021 3:15:00 PM 13.32 55.976 0.037 6.75 11.71 9.85
8/20/2021 3:30:00 PM 13.28 55.904 0.037 6.68 11.79 9.85
8/20/2021 3:45:00 PM 13.25 55.85 0.037 6.75 11.47 9.84
8/20/2021 4:00:00 PM 13.22 55.796 0.037 6.75 11.44 9.85
8/20/2021 4:15:00 PM 13.16 55.688 0.037 6.75 10.82 9.85
8/20/2021 4:30:00 PM 13.11 55.598 0.037 6.74 10.85 9.86
8/20/2021 4:45:00 PM 13.09 55.562 0.037 6.74 10.27 9.86
8/20/2021 5:00:00 PM 13.07 55.526 0.037 6.67 10.24 9.87
8/20/2021 5:15:00 PM 13.08 55.544 0.037 6.7 10.2 9.87
8/20/2021 5:30:00 PM 13.08 55.544 0.037 6.69 10.89 9.87
8/20/2021 5:45:00 PM 13.08 55.544 0.037 6.73 15.16 9.87
8/20/2021 6:00:00 PM 13.06 55.508 0.037 6.68 13.89 9.87
8/20/2021 6:15:00 PM 13.05 55.49 0.037 6.74 14.07 9.86
8/20/2021 6:30:00 PM 13.03 55.454 0.037 6.73 15.94 9.87
8/20/2021 6:45:00 PM 13 55.4 0.037 6.68 15.62 9.87
8/20/2021 7:00:00 PM 12.97 55.346 0.037 6.73 14.19 9.87
8/20/2021 7:15:00 PM 12.92 55.256 0.037 6.74 14.28 9.88
8/20/2021 7:30:00 PM 12.88 55.184 0.037 6.71 13.12 9.88
8/20/2021 7:45:00 PM 12.84 55.112 0.038 6.72 15.93 9.88
8/20/2021 8:00:00 PM 12.79 55.022 0.038 6.69 15.98 9.88
8/20/2021 8:15:00 PM 12.74 54.932 0.038 6.71 14.49 9.88
8/20/2021 8:30:00 PM 12.69 54.842 0.038 6.71 15.19 9.89
8/20/2021 8:45:00 PM 12.63 54.734 0.038 6.7 15.03 9.9
8/20/2021 9:00:00 PM 12.59 54.662 0.038 6.7 15.04 9.91
8/20/2021 9:15:00 PM 12.55 54.59 0.038 6.62 16.41 9.92
8/20/2021 9:30:00 PM 12.5 54.5 0.038 6.67 14.6 9.94
8/20/2021 9:45:00 PM 12.47 54.446 0.038 6.68 11.42 9.94
8/20/2021 10:00:00 PM 12.43 54.374 0.038 6.67 11.4 9.95
8/20/2021 10:15:00 PM 12.39 54.302 0.038 6.67 11.23 9.96
8/20/2021 10:30:00 PM 12.36 54.248 0.038 6.67 11.76 9.97
8/20/2021 10:45:00 PM 12.33 54.194 0.038 6.66 12.71 9.97
8/20/2021 11:00:00 PM 12.3 54.14 0.038 6.63 11.17 9.98
8/20/2021 11:15:00 PM 12.28 54.104 0.038 6.67 12.82 9.98
8/20/2021 11:30:00 PM 12.26 54.068 0.038 6.65 13.28 10
8/20/2021 11:45:00 PM 12.24 54.032 0.038 6.64 10.43 10
8/21/2021 12:00:00 AM 12.23 54.014 0.038 6.64 10.55 10
8/21/2021 12:15:00 AM 12.21 53.978 0.038 6.68 14.46 10
8/21/2021 12:30:00 AM 12.19 53.942 0.038 6.66 12.43 10
8/21/2021 12:45:00 AM 12.16 53.888 0.038 6.68 10.78 10.01
8/21/2021 1:00:00 AM 12.14 53.852 0.038 6.67 10.72 10.01
8/21/2021 1:15:00 AM 12.13 53.834 0.038 6.68 10.66 10.02
8/21/2021 1:30:00 AM 12.11 53.798 0.038 6.69 10.74 10.02
8/21/2021 1:45:00 AM 12.1 53.78 0.038 6.69 9.9 10.02
8/21/2021 2:00:00 AM 12.09 53.762 0.038 6.68 10.56 10.02
8/21/2021 2:15:00 AM 12.08 53.744 0.038 6.62 9.93 10.03
8/21/2021 2:30:00 AM 12.06 53.708 0.038 6.66 10.39 10.03
8/21/2021 2:45:00 AM 12.05 53.69 0.038 6.67 9.9 10.03
8/21/2021 3:00:00 AM 12.04 53.672 0.038 6.65 9.85 10.03
8/21/2021 3:15:00 AM 12.03 53.654 0.038 6.68 10.66 10.03
8/21/2021 3:30:00 AM 12.02 53.636 0.039 6.67 14.49 10.03
8/21/2021 3:45:00 AM 12.02 53.636 0.039 6.62 14.87 10.04
8/21/2021 4:00:00 AM 12.01 53.618 0.038 6.63 10.91 10.04
8/21/2021 4:15:00 AM 12 53.6 0.039 6.68 10.61 10.04
8/21/2021 4:30:00 AM 12 53.6 0.039 6.67 11.02 10.04
8/21/2021 4:45:00 AM 11.99 53.582 0.039 6.66 11.3 10.04
8/21/2021 5:00:00 AM 11.98 53.564 0.039 6.67 13.21 10.05
8/21/2021 5:15:00 AM 11.98 53.564 0.039 6.65 11.31 10.05
8/21/2021 5:30:00 AM 11.97 53.546 0.039 6.67 9.59 10.05
8/21/2021 5:45:00 AM 11.97 53.546 0.039 6.65 9.66 10.05
8/21/2021 6:00:00 AM 11.97 53.546 0.039 6.68 10.03 10.05
8/21/2021 6:15:00 AM 11.97 53.546 0.039 6.62 10.06 10.05
8/21/2021 6:30:00 AM 11.96 53.528 0.039 6.64 9.87 10.05
8/21/2021 6:45:00 AM 11.95 53.51 0.039 6.68 8.99 10.06
8/21/2021 7:00:00 AM 11.95 53.51 0.039 6.68 10.04 10.06
8/21/2021 7:15:00 AM 11.95 53.51 0.039 6.61 9.57 10.06
8/21/2021 7:30:00 AM 11.96 53.528 0.039 6.64 9.72 10.07
8/21/2021 7:45:00 AM 11.96 53.528 0.039 6.67 9.04 10.07
8/21/2021 8:00:00 AM 11.97 53.546 0.039 6.69 9.33 10.08
8/21/2021 8:15:00 AM 11.98 53.564 0.039 6.69 10.4 10.08
8/21/2021 8:30:00 AM 12 53.6 0.039 6.69 8.87 10.08
8/21/2021 8:45:00 AM 12.03 53.654 0.039 6.69 8.86 10.08
8/21/2021 9:00:00 AM 12.06 53.708 0.039 6.7 8.71 10.08
8/21/2021 9:15:00 AM 12.1 53.78 0.039 6.7 9.64 10.07
8/21/2021 9:30:00 AM 12.13 53.834 0.039 6.71 8.59 10.07
8/21/2021 9:45:00 AM 12.17 53.906 0.039 6.71 9.23 10.07
8/21/2021 10:00:00 AM 12.21 53.978 0.039 6.65 9.11 10.07
8/21/2021 10:15:00 AM 12.27 54.086 0.039 6.67 8.64 10.06
8/21/2021 10:30:00 AM 12.35 54.23 0.039 6.74 8.45 10.06
8/21/2021 10:45:00 AM 12.43 54.374 0.039 6.7 8.35 10.04
8/21/2021 11:00:00 AM 12.49 54.482 0.039 6.74 8.17 10.03
8/21/2021 11:15:00 AM 12.55 54.59 0.039 6.78 8.56 10.01
8/21/2021 11:30:00 AM 12.57 54.626 0.039 6.69 8.6 10
8/21/2021 11:45:00 AM 12.58 54.644 0.039 6.72 8.97 9.99
8/21/2021 12:00:00 PM 12.69 54.842 0.039 6.78 8.58 9.97
8/21/2021 12:15:00 PM 12.8 55.04 0.039 6.79 8.87 9.95
8/21/2021 12:30:00 PM 12.85 55.13 0.039 6.77 8.61 9.94
8/21/2021 12:45:00 PM 12.88 55.184 0.039 6.79 8.71 9.94
8/21/2021 1:00:00 PM 12.89 55.202 0.039 6.79 8.7 9.93
8/21/2021 1:15:00 PM 12.91 55.238 0.039 6.79 9.13 9.92
8/21/2021 1:30:00 PM 13.03 55.454 0.039 6.8 8.09 9.91
8/21/2021 1:45:00 PM 13.08 55.544 0.039 6.74 9.17 9.89
8/21/2021 2:00:00 PM 13.16 55.688 0.038 6.76 9.02 9.87
8/21/2021 2:15:00 PM 13.32 55.976 0.038 6.8 8.95 9.85
8/21/2021 2:30:00 PM 13.43 56.174 0.038 6.8 8.51 9.83
8/21/2021 2:45:00 PM 13.5 56.3 0.039 6.8 8.99 9.81
8/21/2021 3:00:00 PM 13.55 56.39 0.039 6.76 9.07 9.8
8/21/2021 3:15:00 PM 13.48 56.264 0.039 6.76 8.94 9.81
8/21/2021 3:30:00 PM 13.5 56.3 0.039 6.81 8.4 9.8
8/21/2021 3:45:00 PM 13.52 56.336 0.039 6.8 9.04 9.8
8/21/2021 4:00:00 PM 13.5 56.3 0.039 6.8 8.21 9.79
8/21/2021 4:15:00 PM 13.45 56.21 0.039 6.75 8.24 9.79
8/21/2021 4:30:00 PM 13.45 56.21 0.039 6.81 8.37 9.79
8/21/2021 4:45:00 PM 13.47 56.246 0.039 6.77 8.29 9.79
8/21/2021 5:00:00 PM 13.47 56.246 0.039 6.75 9.54 9.78
8/21/2021 5:15:00 PM 13.42 56.156 0.039 6.79 9.52 9.77
8/21/2021 5:30:00 PM 13.38 56.084 0.039 6.79 7.7 9.78
8/21/2021 5:45:00 PM 13.35 56.03 0.039 6.74 9.35 9.78
8/21/2021 6:00:00 PM 13.33 55.994 0.039 6.78 7.85 9.78
8/21/2021 6:15:00 PM 13.32 55.976 0.039 6.77 8.16 9.78
8/21/2021 6:30:00 PM 13.3 55.94 0.039 6.78 8.77 9.78
8/21/2021 6:45:00 PM 13.28 55.904 0.039 6.74 8.31 9.78
8/21/2021 7:00:00 PM 13.26 55.868 0.039 6.77 8.28 9.78
8/21/2021 7:15:00 PM 13.24 55.832 0.039 6.76 8.67 9.78
8/21/2021 7:30:00 PM 13.22 55.796 0.039 6.71 8.17 9.78
8/21/2021 7:45:00 PM 13.2 55.76 0.039 6.74 9.35 9.79
8/21/2021 8:00:00 PM 13.18 55.724 0.039 6.74 7.92 9.78
8/21/2021 8:15:00 PM 13.15 55.67 0.039 6.73 8.22 9.79
8/21/2021 8:30:00 PM 13.12 55.616 0.039 6.72 8.04 9.79
8/21/2021 8:45:00 PM 13.08 55.544 0.039 6.72 8.09 9.79
8/21/2021 9:00:00 PM 13.05 55.49 0.039 6.72 8.1 9.8
8/21/2021 9:15:00 PM 13.01 55.418 0.039 6.65 9.95 9.81
8/21/2021 9:30:00 PM 12.97 55.346 0.039 6.69 8.11 9.82
8/21/2021 9:45:00 PM 12.93 55.274 0.039 6.68 8.31 9.82
8/21/2021 10:00:00 PM 12.89 55.202 0.039 6.68 8.25 9.83
8/21/2021 10:15:00 PM 12.85 55.13 0.04 6.7 8.04 9.84
8/21/2021 10:30:00 PM 12.82 55.076 0.04 6.73 8.36 9.84
8/21/2021 10:45:00 PM 12.78 55.004 0.04 6.72 8.37 9.85
8/21/2021 11:00:00 PM 12.73 54.914 0.04 6.7 7.63 9.86
8/21/2021 11:15:00 PM 12.7 54.86 0.04 6.73 7.42 9.87
8/21/2021 11:30:00 PM 12.66 54.788 0.04 6.72 7.6 9.88
8/21/2021 11:45:00 PM 12.62 54.716 0.04 6.71 8.52 9.89
8/22/2021 12:00:00 AM 12.59 54.662 0.04 6.72 7.5 9.9
8/22/2021 12:15:00 AM 12.56 54.608 0.04 6.71 7.97 9.91
8/22/2021 12:30:00 AM 12.52 54.536 0.04 6.71 7.76 9.92
8/22/2021 12:45:00 AM 12.49 54.482 0.04 6.72 7.41 9.93
8/22/2021 1:00:00 AM 12.46 54.428 0.04 6.72 7.32 9.94
8/22/2021 1:15:00 AM 12.44 54.392 0.04 6.72 7.53 9.94
8/22/2021 1:30:00 AM 12.42 54.356 0.04 6.68 7.15 9.95
8/22/2021 1:45:00 AM 12.4 54.32 0.04 6.72 7.57 9.95
8/22/2021 2:00:00 AM 12.38 54.284 0.04 6.72 8.28 9.95
8/22/2021 2:15:00 AM 12.37 54.266 0.04 6.67 7.72 9.96
8/22/2021 2:30:00 AM 12.35 54.23 0.04 6.73 8.25 9.97
8/22/2021 2:45:00 AM 12.34 54.212 0.04 6.69 7.77 9.97
8/22/2021 3:00:00 AM 12.32 54.176 0.04 6.74 8.51 9.97
8/22/2021 3:15:00 AM 12.31 54.158 0.04 6.7 7.8 9.98
8/22/2021 3:30:00 AM 12.29 54.122 0.04 6.75 8.25 9.98
8/22/2021 3:45:00 AM 12.27 54.086 0.04 6.74 7.55 9.99
8/22/2021 4:00:00 AM 12.25 54.05 0.04 6.69 6.88 9.99
8/22/2021 4:15:00 AM 12.24 54.032 0.04 6.75 7.13 9.99
8/22/2021 4:30:00 AM 12.22 53.996 0.04 6.75 7.29 10
8/22/2021 4:45:00 AM 12.2 53.96 0.04 6.69 6.87 10
8/22/2021 5:00:00 AM 12.18 53.924 0.04 6.7 6.95 10
8/22/2021 5:15:00 AM 12.17 53.906 0.04 6.7 6.52 10.01
8/22/2021 5:30:00 AM 12.15 53.87 0.04 6.73 6.52 10.01
8/22/2021 5:45:00 AM 12.14 53.852 0.04 6.76 6.9 10.01
8/22/2021 6:00:00 AM 12.13 53.834 0.04 6.73 6.83 10.02
8/22/2021 6:15:00 AM 12.12 53.816 0.04 6.69 6.66 10.02
8/22/2021 6:30:00 AM 12.1 53.78 0.04 6.76 6.71 10.02
8/22/2021 6:45:00 AM 12.1 53.78 0.04 6.76 6.84 10.02
8/22/2021 7:00:00 AM 12.08 53.744 0.04 6.76 8.01 10.03
8/22/2021 7:15:00 AM 12.08 53.744 0.04 6.75 7.81 10.03
8/22/2021 7:30:00 AM 12.07 53.726 0.04 6.74 5.91 10.04
8/22/2021 7:45:00 AM 12.07 53.726 0.04 6.7 6.3 10.04
8/22/2021 8:00:00 AM 12.08 53.744 0.04 6.76 5.9 10.05
8/22/2021 8:15:00 AM 12.09 53.762 0.04 6.76 5.97 10.06
8/22/2021 8:30:00 AM 12.11 53.798 0.04 6.75 6.77 10.06
8/22/2021 8:45:00 AM 12.13 53.834 0.04 6.74 6.75 10.06
8/22/2021 9:00:00 AM 12.15 53.87 0.04 6.78 6.53 10.06
8/22/2021 9:15:00 AM 12.19 53.942 0.04 6.78 6.62 10.07
8/22/2021 9:30:00 AM 12.23 54.014 0.04 6.79 6.07 10.07
8/22/2021 9:45:00 AM 12.29 54.122 0.04 6.79 5.97 10.06
8/22/2021 10:00:00 AM 12.34 54.212 0.04 6.74 6.35 10.06
8/22/2021 10:15:00 AM 12.4 54.32 0.04 6.79 6.06 10.05
8/22/2021 10:30:00 AM 12.44 54.392 0.04 6.73 5.8 10.04
8/22/2021 10:45:00 AM 12.5 54.5 0.04 6.78 5.74 10.03
8/22/2021 11:00:00 AM 12.56 54.608 0.04 6.79 6.57 10.02
8/22/2021 11:15:00 AM 12.67 54.806 0.04 6.8 6.48 10
8/22/2021 11:30:00 AM 12.75 54.95 0.04 6.79 5.8 9.98
8/22/2021 11:45:00 AM 12.9 55.22 0.04 6.83 5.67 9.96
8/22/2021 12:00:00 PM 13.03 55.454 0.04 6.84 5.66 9.95
8/22/2021 12:15:00 PM 13.21 55.778 0.04 6.85 5.52 9.91
8/22/2021 12:30:00 PM 13.34 56.012 0.04 6.8 5.63 9.88
8/22/2021 12:45:00 PM 13.39 56.102 0.04 6.86 5.3 9.86
8/22/2021 1:00:00 PM 13.52 56.336 0.04 6.8 6.02 9.84
8/22/2021 1:15:00 PM 13.6 56.48 0.04 6.86 5.74 9.82
8/22/2021 1:30:00 PM 13.63 56.534 0.04 6.87 5.75 9.81
8/22/2021 1:45:00 PM 13.67 56.606 0.04 6.86 5.61 9.79
8/22/2021 2:00:00 PM 13.72 56.696 0.04 6.82 5.91 9.78
8/22/2021 2:15:00 PM 13.74 56.732 0.04 6.87 5.48 9.76
8/22/2021 2:30:00 PM 13.71 56.678 0.04 6.87 5.63 9.76
8/22/2021 2:45:00 PM 13.67 56.606 0.04 6.86 6.86 9.76
8/22/2021 3:00:00 PM 13.65 56.57 0.04 6.82 5.8 9.76
8/22/2021 3:15:00 PM 13.64 56.552 0.04 6.85 5.91 9.76
8/22/2021 3:30:00 PM 13.63 56.534 0.04 6.84 5.78 9.76
8/22/2021 3:45:00 PM 13.61 56.498 0.04 6.76 5.59 9.75
8/22/2021 4:00:00 PM 13.63 56.534 0.04 6.84 5.67 9.75
8/22/2021 4:15:00 PM 13.64 56.552 0.04 6.76 5.94 9.74
8/22/2021 4:30:00 PM 13.64 56.552 0.04 6.78 7.46 9.73
8/22/2021 4:45:00 PM 13.62 56.516 0.04 6.78 6.11 9.73
8/22/2021 5:00:00 PM 13.59 56.462 0.04 6.83 6.39 9.73
8/22/2021 5:15:00 PM 13.58 56.444 0.04 6.77 6.31 9.73
8/22/2021 5:30:00 PM 13.58 56.444 0.04 6.82 6.22 9.73
8/22/2021 5:45:00 PM 13.6 56.48 0.04 6.79 6.16 9.72
8/22/2021 6:00:00 PM 13.61 56.498 0.04 6.82 6.39 9.72
8/22/2021 6:15:00 PM 13.62 56.516 0.04 6.81 6.55 9.72
8/22/2021 6:30:00 PM 13.6 56.48 0.04 6.82 6.57 9.73
8/22/2021 6:45:00 PM 13.58 56.444 0.04 6.74 7.07 9.72
8/22/2021 7:00:00 PM 13.55 56.39 0.041 6.8 6.02 9.71
8/22/2021 7:15:00 PM 13.52 56.336 0.041 6.74 8.3 9.72
8/22/2021 7:30:00 PM 13.48 56.264 0.041 6.77 6.18 9.72
8/22/2021 7:45:00 PM 13.44 56.192 0.041 6.8 5.63 9.72
8/22/2021 8:00:00 PM 13.39 56.102 0.041 6.79 5.18 9.73
8/22/2021 8:15:00 PM 13.35 56.03 0.041 6.77 5.4 9.73
8/22/2021 8:30:00 PM 13.32 55.976 0.041 6.78 5.79 9.73
8/22/2021 8:45:00 PM 13.28 55.904 0.041 6.76 5.97 9.74
8/22/2021 9:00:00 PM 13.24 55.832 0.041 6.77 6.35 9.75
8/22/2021 9:15:00 PM 13.21 55.778 0.041 6.68 5.91 9.76
8/22/2021 9:30:00 PM 13.17 55.706 0.041 6.73 9.8 9.77
8/22/2021 9:45:00 PM 13.14 55.652 0.041 6.75 5.58 9.77
8/22/2021 10:00:00 PM 13.11 55.598 0.041 6.74 5.43 9.78
8/22/2021 10:15:00 PM 13.08 55.544 0.041 6.68 5.37 9.78
8/22/2021 10:30:00 PM 13.05 55.49 0.041 6.67 5.39 9.79
8/22/2021 10:45:00 PM 13.02 55.436 0.041 6.72 5.32 9.8
8/22/2021 11:00:00 PM 13 55.4 0.041 6.72 5.14 9.8
8/22/2021 11:15:00 PM 12.98 55.364 0.041 6.73 5.52 9.81
8/22/2021 11:30:00 PM 12.95 55.31 0.041 6.73 5.6 9.81
8/22/2021 11:45:00 PM 12.93 55.274 0.041 6.73 5.15 9.82
8/23/2021 12:00:00 AM 12.9 55.22 0.041 6.73 5.57 9.82
8/23/2021 12:15:00 AM 12.88 55.184 0.041 6.73 5.56 9.82
8/23/2021 12:30:00 AM 12.86 55.148 0.041 6.72 5.88 9.83
8/23/2021 12:45:00 AM 12.84 55.112 0.041 6.73 5.3 9.83
8/23/2021 1:00:00 AM 12.83 55.094 0.041 6.73 5.36 9.83
8/23/2021 1:15:00 AM 12.81 55.058 0.042 6.69 5.4 9.83
8/23/2021 1:30:00 AM 12.8 55.04 0.042 6.74 6.03 9.83
8/23/2021 1:45:00 AM 12.79 55.022 0.042 6.74 5.41 9.84
8/23/2021 2:00:00 AM 12.77 54.986 0.042 6.76 5.52 9.84
8/23/2021 2:15:00 AM 12.76 54.968 0.042 6.68 5.83 9.84
8/23/2021 2:30:00 AM 12.74 54.932 0.042 6.77 5.42 9.85
8/23/2021 2:45:00 AM 12.73 54.914 0.042 6.77 5.5 9.85
8/23/2021 3:00:00 AM 12.71 54.878 0.042 6.77 5.12 9.86
8/23/2021 3:15:00 AM 12.7 54.86 0.042 6.77 5.36 9.86
8/23/2021 3:30:00 AM 12.68 54.824 0.042 6.77 5.22 9.87
8/23/2021 3:45:00 AM 12.67 54.806 0.042 6.78 5.14 9.87
8/23/2021 4:00:00 AM 12.67 54.806 0.041 6.78 5.44 9.87
8/23/2021 4:15:00 AM 12.65 54.77 0.041 6.78 5.97 9.88
8/23/2021 4:30:00 AM 12.64 54.752 0.041 6.78 6.07 9.88
8/23/2021 4:45:00 AM 12.62 54.716 0.041 6.78 5.86 9.89
8/23/2021 5:00:00 AM 12.62 54.716 0.041 6.79 6.09 9.89
8/23/2021 5:15:00 AM 12.6 54.68 0.041 6.79 6.09 9.89
8/23/2021 5:30:00 AM 12.6 54.68 0.041 6.72 5.28 9.89
8/23/2021 5:45:00 AM 12.59 54.662 0.041 6.78 5.19 9.9
8/23/2021 6:00:00 AM 12.59 54.662 0.041 6.8 6.82 9.9
8/23/2021 6:15:00 AM 12.59 54.662 0.041 6.77 6.3 9.9
8/23/2021 6:30:00 AM 12.59 54.662 0.041 6.78 1118.35 9.9
8/23/2021 6:45:00 AM 12.58 54.644 0.041 6.77 5.79 9.91
8/23/2021 7:00:00 AM 12.57 54.626 0.041 6.8 5.46 9.91
8/23/2021 7:15:00 AM 12.56 54.608 0.041 6.76 4.9 9.91
8/23/2021 7:30:00 AM 12.55 54.59 0.041 6.81 5.1 9.92
8/23/2021 7:45:00 AM 12.55 54.59 0.041 6.8 4.81 9.93
8/23/2021 8:00:00 AM 12.55 54.59 0.041 6.79 4.93 9.93
8/23/2021 8:15:00 AM 12.55 54.59 0.041 6.79 4.94 9.94
8/23/2021 8:30:00 AM 12.56 54.608 0.041 6.8 4.55 9.94
8/23/2021 8:45:00 AM 12.58 54.644 0.041 6.81 5.56 9.94
8/23/2021 9:00:00 AM 12.62 54.716 0.041 6.74 7.5 9.94
8/23/2021 9:15:00 AM 12.66 54.788 0.041 6.81 5.09 9.94
8/23/2021 9:30:00 AM 12.69 54.842 0.041 6.84 4.6 9.93
8/23/2021 9:45:00 AM 12.78 55.004 0.041 6.78 4.54 9.93
8/23/2021 10:00:00 AM 12.88 55.184 0.041 6.84 4.41 9.93
8/23/2021 10:15:00 AM 12.95 55.31 0.041 6.82 4.35 9.92
8/23/2021 10:30:00 AM 13 55.4 0.041 6.82 4.22 9.91
8/23/2021 10:45:00 AM 13.1 55.58 0.041 6.86 4.47 9.89
8/23/2021 11:00:00 AM 13.22 55.796 0.041 6.88 5.18 9.87
8/23/2021 11:15:00 AM 13.33 55.994 0.041 6.85 5.34 9.85
8/23/2021 11:30:00 AM 13.47 56.246 0.041 6.9 4.74 9.84
8/23/2021 11:45:00 AM 13.54 56.372 0.041 6.83 4.46 9.82
8/23/2021 12:00:00 PM 13.67 56.606 0.041 6.91 4.96 9.8
8/23/2021 12:15:00 PM 13.76 56.768 0.041 6.85 5.4 9.77
8/23/2021 12:30:00 PM 13.94 57.092 0.041 6.91 5.01 9.75
8/23/2021 12:45:00 PM 14.09 57.362 0.041 6.84 4.92 9.72
8/23/2021 1:00:00 PM 14.24 57.632 0.041 6.88 4.39 9.7
8/23/2021 1:15:00 PM 14.36 57.848 0.041 6.86 4.37 9.68
8/23/2021 1:30:00 PM 14.55 58.19 0.041 6.92 4.32 9.65
8/23/2021 1:45:00 PM 14.73 58.514 0.041 6.89 4.53 9.6
8/23/2021 2:00:00 PM 14.84 58.712 0.041 6.94 4.64 9.58
8/23/2021 2:15:00 PM 15.04 59.072 0.041 6.91 4.67 9.56
8/23/2021 2:30:00 PM 15.15 59.27 0.041 6.94 4.9 9.53
8/23/2021 2:45:00 PM 15.21 59.378 0.041 6.94 4.98 9.5
8/23/2021 3:00:00 PM 15.38 59.684 0.041 6.93 4.74 9.46
8/23/2021 3:15:00 PM 15.48 59.864 0.041 6.94 4.67 9.44
8/23/2021 3:30:00 PM 15.58 60.044 0.041 6.93 4.49 9.43
8/23/2021 3:45:00 PM 15.68 60.224 0.041 6.94 4.64 9.4
8/23/2021 4:00:00 PM 15.68 60.224 0.041 6.85 4.44 9.39
8/23/2021 4:15:00 PM 15.75 60.35 0.041 6.94 4.21 9.37
8/23/2021 4:30:00 PM 15.76 60.368 0.041 6.93 4.6 9.37
8/23/2021 4:45:00 PM 15.76 60.368 0.041 6.93 4.6 9.36
8/23/2021 5:00:00 PM 15.75 60.35 0.041 6.93 6.09 9.35
8/23/2021 5:15:00 PM 15.7 60.26 0.041 6.86 5.09 9.35
8/23/2021 5:30:00 PM 15.58 60.044 0.041 6.93 4.85 9.36
8/23/2021 5:45:00 PM 15.5 59.9 0.041 6.94 4.71 9.36
8/23/2021 6:00:00 PM 15.44 59.792 0.041 6.93 4.86 9.36
8/23/2021 6:15:00 PM 15.4 59.72 0.041 6.83 4.57 9.37
8/23/2021 6:30:00 PM 15.35 59.63 0.041 6.87 4.69 9.37
8/23/2021 6:45:00 PM 15.31 59.558 0.041 6.92 4.45 9.37
8/23/2021 7:00:00 PM 15.24 59.432 0.041 6.9 4.43 9.37
8/23/2021 7:15:00 PM 15.17 59.306 0.041 6.9 4.38 9.38
8/23/2021 7:30:00 PM 15.09 59.162 0.041 6.85 4.27 9.4
8/23/2021 7:45:00 PM 15.02 59.036 0.041 6.81 4.39 9.4
8/23/2021 8:00:00 PM 14.95 58.91 0.041 6.87 4.22 9.41
8/23/2021 8:15:00 PM 14.88 58.784 0.041 6.86 4.16 9.42
8/23/2021 8:30:00 PM 14.81 58.658 0.041 6.76 4.67 9.43
8/23/2021 8:45:00 PM 14.73 58.514 0.041 6.84 4.36 9.44
8/23/2021 9:00:00 PM 14.65 58.37 0.041 6.83 4.46 9.45
8/23/2021 9:15:00 PM 14.58 58.244 0.041 6.72 4.6 9.46
8/23/2021 9:30:00 PM 14.51 58.118 0.041 6.82 4.43 9.49
8/23/2021 9:45:00 PM 14.43 57.974 0.041 6.81 5.06 9.51
8/23/2021 10:00:00 PM 14.35 57.83 0.041 6.82 4.86 9.53
8/23/2021 10:15:00 PM 14.26 57.668 0.041 6.72 4.77 9.54
8/23/2021 10:30:00 PM 14.18 57.524 0.042 6.8 4.51 9.57
8/23/2021 10:45:00 PM 14.1 57.38 0.042 6.79 4.97 9.57
8/23/2021 11:00:00 PM 14.03 57.254 0.042 6.8 5.27 9.59
8/23/2021 11:15:00 PM 13.95 57.11 0.042 6.8 4.83 9.6
8/23/2021 11:30:00 PM 13.88 56.984 0.042 6.8 4.71 9.62
8/23/2021 11:45:00 PM 13.81 56.858 0.042 6.8 4.92 9.64
8/24/2021 12:00:00 AM 13.75 56.75 0.042 6.8 5.69 9.67
8/24/2021 12:15:00 AM 13.67 56.606 0.042 6.78 5.38 9.68
8/24/2021 12:30:00 AM 13.61 56.498 0.042 6.75 5.57 9.7
8/24/2021 12:45:00 AM 13.55 56.39 0.042 6.81 5.68 9.71
8/24/2021 1:00:00 AM 13.5 56.3 0.042 6.71 5.29 9.72
8/24/2021 1:15:00 AM 13.44 56.192 0.042 6.8 5.49 9.72
8/24/2021 1:30:00 AM 13.39 56.102 0.042 6.72 4.39 9.74
8/24/2021 1:45:00 AM 13.35 56.03 0.042 6.75 4.47 9.75
8/24/2021 2:00:00 AM 13.32 55.976 0.042 6.72 4.6 9.76
8/24/2021 2:15:00 AM 13.28 55.904 0.042 6.8 4.42 9.77
8/24/2021 2:30:00 AM 13.24 55.832 0.042 6.8 4.64 9.78
8/24/2021 2:45:00 AM 13.2 55.76 0.042 6.8 4.17 9.79
8/24/2021 3:00:00 AM 13.16 55.688 0.042 6.8 4.35 9.8
8/24/2021 3:15:00 AM 13.12 55.616 0.042 6.81 5.26 9.81
8/24/2021 3:30:00 AM 13.09 55.562 0.042 6.8 4.36 9.82
8/24/2021 3:45:00 AM 13.05 55.49 0.042 6.81 5.95 9.83
8/24/2021 4:00:00 AM 13.02 55.436 0.042 6.8 5 9.84
8/24/2021 4:15:00 AM 12.99 55.382 0.042 6.81 4.96 9.85
8/24/2021 4:30:00 AM 12.96 55.328 0.042 6.75 4.94 9.86
8/24/2021 4:45:00 AM 12.93 55.274 0.042 6.78 6.79 9.86
8/24/2021 5:00:00 AM 12.91 55.238 0.042 6.83 5.12 9.87
8/24/2021 5:15:00 AM 12.88 55.184 0.042 6.82 5.11 9.87
8/24/2021 5:30:00 AM 12.86 55.148 0.042 6.83 4.78 9.88
8/24/2021 5:45:00 AM 12.83 55.094 0.042 6.82 4.9 9.88
8/24/2021 6:00:00 AM 12.81 55.058 0.042 6.83 4.4 9.88
8/24/2021 6:15:00 AM 12.79 55.022 0.042 6.82 4.26 9.89
8/24/2021 6:30:00 AM 12.77 54.986 0.042 6.82 4.66 9.89
8/24/2021 6:45:00 AM 12.75 54.95 0.042 6.82 4.34 9.9
8/24/2021 7:00:00 AM 12.73 54.914 0.042 6.8 4.53 9.91
8/24/2021 7:15:00 AM 12.72 54.896 0.042 6.84 4.08 9.91
8/24/2021 7:30:00 AM 12.71 54.878 0.042 6.84 5.26 9.92
8/24/2021 7:45:00 AM 12.71 54.878 0.042 6.76 5.12 9.93
8/24/2021 8:00:00 AM 12.71 54.878 0.042 6.84 5.08 9.94
8/24/2021 8:15:00 AM 12.72 54.896 0.042 6.78 5 9.94
8/24/2021 8:30:00 AM 12.73 54.914 0.042 6.79 4.37 9.95
8/24/2021 8:45:00 AM 12.74 54.932 0.042 6.85 4.37 9.96
8/24/2021 9:00:00 AM 12.76 54.968 0.042 6.83 4.03 9.96
8/24/2021 9:15:00 AM 12.79 55.022 0.042 6.8 4.95 9.96
8/24/2021 9:30:00 AM 12.82 55.076 0.042 6.85 5.15 9.96
8/24/2021 9:45:00 AM 12.88 55.184 0.042 6.8 5.04 9.96
8/24/2021 10:00:00 AM 12.97 55.346 0.042 6.87 4.54 9.95
8/24/2021 10:15:00 AM 13.06 55.508 0.042 6.88 5.15 9.94
8/24/2021 10:30:00 AM 13.14 55.652 0.042 6.82 4.01 9.93
8/24/2021 10:45:00 AM 13.24 55.832 0.042 6.85 4.9 9.9
8/24/2021 11:00:00 AM 13.34 56.012 0.042 6.89 3.69 9.88
8/24/2021 11:15:00 AM 13.46 56.228 0.042 6.9 4.11 9.87
8/24/2021 11:30:00 AM 13.59 56.462 0.042 6.88 4.65 9.85
8/24/2021 11:45:00 AM 13.73 56.714 0.042 6.91 3.81 9.83
8/24/2021 12:00:00 PM 13.88 56.984 0.042 6.92 4.25 9.81
8/24/2021 12:15:00 PM 14.03 57.254 0.042 6.93 5.1 9.77
8/24/2021 12:30:00 PM 14.2 57.56 0.042 6.93 4.41 9.76
8/24/2021 12:45:00 PM 14.37 57.866 0.042 6.86 4.31 9.73
8/24/2021 1:00:00 PM 14.52 58.136 0.042 6.93 3.93 9.7
8/24/2021 1:15:00 PM 14.67 58.406 0.042 6.87 4.17 9.66
8/24/2021 1:30:00 PM 14.83 58.694 0.042 6.94 4.28 9.64
8/24/2021 1:45:00 PM 15 59 0.042 6.87 3.53 9.62
8/24/2021 2:00:00 PM 15.13 59.234 0.042 6.94 3.97 9.59
8/24/2021 2:15:00 PM 15.27 59.486 0.042 6.88 3.96 9.55
8/24/2021 2:30:00 PM 15.41 59.738 0.042 6.9 3.88 9.52
8/24/2021 2:45:00 PM 15.57 60.026 0.042 6.94 4.21 9.5
8/24/2021 3:00:00 PM 15.66 60.188 0.042 6.89 3.74 9.48
8/24/2021 3:15:00 PM 15.77 60.386 0.042 6.95 5.1 9.44
8/24/2021 3:30:00 PM 15.84 60.512 0.042 6.95 5.15 9.42
8/24/2021 3:45:00 PM 15.91 60.638 0.042 6.89 5.05 9.4
8/24/2021 4:00:00 PM 15.95 60.71 0.042 6.95 5.37 9.39
8/24/2021 4:15:00 PM 15.96 60.728 0.042 6.96 3.8 9.37
8/24/2021 4:30:00 PM 15.94 60.692 0.042 6.95 4.8 9.37
8/24/2021 4:45:00 PM 15.93 60.674 0.042 6.91 4.29 9.36
8/24/2021 5:00:00 PM 15.86 60.548 0.042 6.94 3.99 9.36
8/24/2021 5:15:00 PM 15.77 60.386 0.042 6.93 5.17 9.35
8/24/2021 5:30:00 PM 15.71 60.278 0.042 6.93 5.4 9.36
8/24/2021 5:45:00 PM 15.65 60.17 0.042 6.93 4.31 9.37
8/24/2021 6:00:00 PM 15.61 60.098 0.042 6.92 4.31 9.37
8/24/2021 6:15:00 PM 15.54 59.972 0.042 6.91 4.19 9.38
8/24/2021 6:30:00 PM 15.47 59.846 0.042 6.82 4.18 9.38
8/24/2021 6:45:00 PM 15.42 59.756 0.042 6.9 3.83 9.38
8/24/2021 7:00:00 PM 15.36 59.648 0.042 6.82 3.67 9.38
8/24/2021 7:15:00 PM 15.3 59.54 0.042 6.82 3.48 9.39
8/24/2021 7:30:00 PM 15.24 59.432 0.042 6.87 3.76 9.4
8/24/2021 7:45:00 PM 15.17 59.306 0.042 6.83 3.75 9.4
8/24/2021 8:00:00 PM 15.1 59.18 0.042 6.87 4.4 9.41
8/24/2021 8:15:00 PM 15.03 59.054 0.042 6.77 4.02 9.42
8/24/2021 8:30:00 PM 14.98 58.964 0.042 6.84 3.96 9.42
8/24/2021 8:45:00 PM 14.92 58.856 0.042 6.79 4.18 9.44
8/24/2021 9:00:00 PM 14.86 58.748 0.042 6.76 3.84 9.45
8/24/2021 9:15:00 PM 14.81 58.658 0.042 6.83 4.03 9.45
8/24/2021 9:30:00 PM 14.75 58.55 0.043 6.82 3.9 9.46
8/24/2021 9:45:00 PM 14.7 58.46 0.043 6.83 3.76 9.47
8/24/2021 10:00:00 PM 14.64 58.352 0.043 6.75 3.75 9.48
8/24/2021 10:15:00 PM 14.59 58.262 0.043 6.82 3.54 9.5
8/24/2021 10:30:00 PM 14.53 58.154 0.043 6.81 3.65 9.51
8/24/2021 10:45:00 PM 14.48 58.064 0.043 6.82 3.5 9.53
8/24/2021 11:00:00 PM 14.43 57.974 0.043 6.81 3.4 9.54
8/24/2021 11:15:00 PM 14.37 57.866 0.043 6.81 3.52 9.56
8/24/2021 11:30:00 PM 14.32 57.776 0.043 6.73 3.79 9.57
8/24/2021 11:45:00 PM 14.26 57.668 0.043 6.82 3.63 9.58
8/25/2021 12:00:00 AM 14.21 57.578 0.043 6.81 3.55 9.6
8/25/2021 12:15:00 AM 14.16 57.488 0.043 6.74 3.48 9.6
8/25/2021 12:30:00 AM 14.11 57.398 0.043 6.82 4.07 9.61
8/25/2021 12:45:00 AM 14.06 57.308 0.043 6.82 3.68 9.63
8/25/2021 1:00:00 AM 14.01 57.218 0.043 6.82 3.78 9.64
8/25/2021 1:15:00 AM 13.96 57.128 0.043 6.74 3.93 9.65
8/25/2021 1:30:00 AM 13.92 57.056 0.043 6.81 4.06 9.65
8/25/2021 1:45:00 AM 13.87 56.966 0.043 6.82 4.54 9.67
8/25/2021 2:00:00 AM 13.83 56.894 0.043 6.75 3.82 9.69
8/25/2021 2:15:00 AM 13.78 56.804 0.043 6.83 3.86 9.7
8/25/2021 2:30:00 AM 13.74 56.732 0.043 6.83 3.98 9.71
8/25/2021 2:45:00 AM 13.7 56.66 0.043 6.83 3.69 9.72
8/25/2021 3:00:00 AM 13.66 56.588 0.043 6.84 3.8 9.73
8/25/2021 3:15:00 AM 13.62 56.516 0.043 6.82 3.53 9.74
8/25/2021 3:30:00 AM 13.58 56.444 0.043 6.83 3.62 9.75
8/25/2021 3:45:00 AM 13.55 56.39 0.043 6.83 3.45 9.76
8/25/2021 4:00:00 AM 13.51 56.318 0.043 6.84 3.55 9.75
8/25/2021 4:15:00 AM 13.47 56.246 0.043 6.78 3.5 9.76
8/25/2021 4:30:00 AM 13.43 56.174 0.043 6.83 3.72 9.77
8/25/2021 4:45:00 AM 13.4 56.12 0.043 6.75 3.86 9.78
8/25/2021 5:00:00 AM 13.36 56.048 0.043 6.83 4.69 9.79
8/25/2021 5:15:00 AM 13.34 56.012 0.043 6.83 4.22 9.79
8/25/2021 5:30:00 AM 13.32 55.976 0.043 6.83 3.81 9.79
8/25/2021 5:45:00 AM 13.29 55.922 0.043 6.82 3.87 9.8
8/25/2021 6:00:00 AM 13.27 55.886 0.043 6.84 4.04 9.81
8/25/2021 6:15:00 AM 13.24 55.832 0.043 6.83 3.77 9.82
8/25/2021 6:30:00 AM 13.22 55.796 0.043 6.86 3.68 9.83
8/25/2021 6:45:00 AM 13.19 55.742 0.043 6.85 3.58 9.84
8/25/2021 7:00:00 AM 13.17 55.706 0.043 6.86 3.81 9.85
8/25/2021 7:15:00 AM 13.16 55.688 0.043 6.86 3.91 9.86
8/25/2021 7:30:00 AM 13.14 55.652 0.043 6.86 3.86 9.87
8/25/2021 7:45:00 AM 13.14 55.652 0.043 6.82 3.72 9.88
8/25/2021 8:00:00 AM 13.15 55.67 0.043 6.85 3.96 9.89
8/25/2021 8:15:00 AM 13.15 55.67 0.043 6.88 3.87 9.9
8/25/2021 8:30:00 AM 13.16 55.688 0.043 6.89 3.78 9.91
8/25/2021 8:45:00 AM 13.18 55.724 0.043 6.89 3.65 9.91
8/25/2021 9:00:00 AM 13.19 55.742 0.043 6.89 3.62 9.92
8/25/2021 9:15:00 AM 13.22 55.796 0.043 6.83 3.45 9.92
8/25/2021 9:30:00 AM 13.27 55.886 0.043 6.89 3.41 9.92
8/25/2021 9:45:00 AM 13.34 56.012 0.043 6.89 3.47 9.9
8/25/2021 10:00:00 AM 13.41 56.138 0.043 6.89 3.34 9.89
8/25/2021 10:15:00 AM 13.48 56.264 0.043 6.83 3.23 9.89
8/25/2021 10:30:00 AM 13.53 56.354 0.043 6.89 3.48 9.88
8/25/2021 10:45:00 AM 13.61 56.498 0.043 6.9 3.08 9.88
8/25/2021 11:00:00 AM 13.69 56.642 0.043 6.91 3.4 9.87
8/25/2021 11:15:00 AM 13.82 56.876 0.043 6.92 3.12 9.84
8/25/2021 11:30:00 AM 14 57.2 0.043 6.93 3.39 9.81
8/25/2021 11:45:00 AM 14.17 57.506 0.043 6.93 3.38 9.78
8/25/2021 12:00:00 PM 14.34 57.812 0.043 6.95 3.37 9.76
8/25/2021 12:15:00 PM 14.5 58.1 0.043 6.95 3.13 9.74
8/25/2021 12:30:00 PM 14.65 58.37 0.043 6.95 3.74 9.71
8/25/2021 12:45:00 PM 14.81 58.658 0.043 6.96 3.67 9.68
8/25/2021 1:00:00 PM 14.97 58.946 0.043 6.95 3.07 9.66
8/25/2021 1:15:00 PM 15.11 59.198 0.043 6.97 3.19 9.63
8/25/2021 1:30:00 PM 15.25 59.45 0.043 6.97 3.49 9.59
8/25/2021 1:45:00 PM 15.4 59.72 0.043 6.89 3.1 9.57
8/25/2021 2:00:00 PM 15.58 60.044 0.043 6.97 3.19 9.55
8/25/2021 2:15:00 PM 15.77 60.386 0.043 6.98 3.21 9.52
8/25/2021 2:30:00 PM 15.94 60.692 0.043 6.9 3.09 9.47
8/25/2021 2:45:00 PM 16.09 60.962 0.043 6.98 4.34 9.44
8/25/2021 3:00:00 PM 16.22 61.196 0.043 6.96 4.49 9.42
8/25/2021 3:15:00 PM 16.33 61.394 0.043 6.98 4.73 9.39
8/25/2021 3:30:00 PM 16.41 61.538 0.043 6.98 4.56 9.36
8/25/2021 3:45:00 PM 16.39 61.502 0.043 6.98 3.07 9.35
8/25/2021 4:00:00 PM 16.38 61.484 0.043 6.95 3.1 9.35
8/25/2021 4:15:00 PM 16.36 61.448 0.043 6.97 2.98 9.35
8/25/2021 4:30:00 PM 16.33 61.394 0.043 6.89 3.06 9.34
8/25/2021 4:45:00 PM 16.29 61.322 0.043 6.98 3.06 9.34
8/25/2021 5:00:00 PM 16.26 61.268 0.043 6.97 3.07 9.34
8/25/2021 5:15:00 PM 16.19 61.142 0.043 6.91 3.12 9.33
8/25/2021 5:30:00 PM 16.08 60.944 0.043 6.96 3.37 9.33
8/25/2021 5:45:00 PM 16 60.8 0.043 6.94 2.97 9.33
8/25/2021 6:00:00 PM 15.94 60.692 0.043 6.95 3.05 9.33
8/25/2021 6:15:00 PM 15.88 60.584 0.043 6.94 3.02 9.33
8/25/2021 6:30:00 PM 15.83 60.494 0.043 6.85 3.18 9.33
8/25/2021 6:45:00 PM 15.75 60.35 0.043 6.93 3.01 9.34
8/25/2021 7:00:00 PM 15.69 60.242 0.043 6.85 2.83 9.35
8/25/2021 7:15:00 PM 15.63 60.134 0.043 6.92 3.01 9.34
8/25/2021 7:30:00 PM 15.58 60.044 0.043 6.9 3.02 9.35
8/25/2021 7:45:00 PM 15.53 59.954 0.043 6.9 3.5 9.35
8/25/2021 8:00:00 PM 15.46 59.828 0.043 6.89 3.15 9.35
8/25/2021 8:15:00 PM 15.41 59.738 0.043 6.89 3.02 9.35
8/25/2021 8:30:00 PM 15.35 59.63 0.043 6.79 3.17 9.35
8/25/2021 8:45:00 PM 15.3 59.54 0.043 6.86 3.17 9.36
8/25/2021 9:00:00 PM 15.25 59.45 0.044 6.76 3.12 9.37
8/25/2021 9:15:00 PM 15.2 59.36 0.044 6.85 3.27 9.38
8/25/2021 9:30:00 PM 15.16 59.288 0.044 6.76 3.31 9.39
8/25/2021 9:45:00 PM 15.11 59.198 0.044 6.86 3.2 9.4
8/25/2021 10:00:00 PM 15.07 59.126 0.044 6.86 3.5 9.41
8/25/2021 10:15:00 PM 15.03 59.054 0.044 6.84 3.63 9.42
8/25/2021 10:30:00 PM 14.98 58.964 0.044 6.85 3.36 9.43
8/25/2021 10:45:00 PM 14.94 58.892 0.044 6.85 3.3 9.44
8/25/2021 11:00:00 PM 14.91 58.838 0.044 6.86 3.21 9.45
8/25/2021 11:15:00 PM 14.88 58.784 0.044 6.78 3.03 9.46
8/25/2021 11:30:00 PM 14.84 58.712 0.044 6.86 3.12 9.46
8/25/2021 11:45:00 PM 14.79 58.622 0.044 6.85 3.28 9.47
8/26/2021 12:00:00 AM 14.75 58.55 0.044 6.86 3.28 9.48
8/26/2021 12:15:00 AM 14.71 58.478 0.044 6.86 3.08 9.49
8/26/2021 12:30:00 AM 14.66 58.388 0.044 6.76 3.07 9.5
8/26/2021 12:45:00 AM 14.62 58.316 0.044 6.85 3.21 9.51
8/26/2021 1:00:00 AM 14.57 58.226 0.044 6.77 3.13 9.52
8/26/2021 1:15:00 AM 14.53 58.154 0.044 6.85 3.02 9.53
8/26/2021 1:30:00 AM 14.49 58.082 0.044 6.85 3.35 9.54
8/26/2021 1:45:00 AM 14.46 58.028 0.044 6.85 3.02 9.55
8/26/2021 2:00:00 AM 14.42 57.956 0.044 6.77 3.11 9.56
8/26/2021 2:15:00 AM 14.38 57.884 0.044 6.85 3.18 9.57
8/26/2021 2:30:00 AM 14.34 57.812 0.044 6.85 3.09 9.58
8/26/2021 2:45:00 AM 14.29 57.722 0.044 6.85 3.09 9.59
8/26/2021 3:00:00 AM 14.26 57.668 0.044 6.8 3.08 9.6
8/26/2021 3:15:00 AM 14.23 57.614 0.044 6.84 3.06 9.6
8/26/2021 3:30:00 AM 14.19 57.542 0.044 6.77 2.94 9.61
8/26/2021 3:45:00 AM 14.16 57.488 0.044 6.84 3.3 9.61
8/26/2021 4:00:00 AM 14.12 57.416 0.044 6.75 3.14 9.62
8/26/2021 4:15:00 AM 14.08 57.344 0.044 6.83 3.27 9.62
8/26/2021 4:30:00 AM 14.05 57.29 0.044 6.77 3.41 9.63
8/26/2021 4:45:00 AM 14.02 57.236 0.044 6.83 3.28 9.64
8/26/2021 5:00:00 AM 13.98 57.164 0.044 6.77 3.19 9.65
8/26/2021 5:15:00 AM 13.95 57.11 0.044 6.83 3.3 9.65
8/26/2021 5:30:00 AM 13.92 57.056 0.044 6.83 3.26 9.66
8/26/2021 5:45:00 AM 13.9 57.02 0.044 6.83 4.04 9.67
8/26/2021 6:00:00 AM 13.87 56.966 0.045 6.78 3.38 9.68
8/26/2021 6:15:00 AM 13.85 56.93 0.044 6.81 3.31 9.69
8/26/2021 6:30:00 AM 13.82 56.876 0.045 6.83 3.27 9.7
8/26/2021 6:45:00 AM 13.8 56.84 0.045 6.83 3.13 9.7
8/26/2021 7:00:00 AM 13.79 56.822 0.045 6.83 3.21 9.71
8/26/2021 7:15:00 AM 13.77 56.786 0.045 6.84 3.42 9.72
8/26/2021 7:30:00 AM 13.76 56.768 0.045 6.79 3.47 9.73
8/26/2021 7:45:00 AM 13.75 56.75 0.045 6.84 3.15 9.73
8/26/2021 8:00:00 AM 13.75 56.75 0.045 6.86 3.25 9.75
8/26/2021 8:15:00 AM 13.75 56.75 0.045 6.86 3.13 9.76
8/26/2021 8:30:00 AM 13.75 56.75 0.045 6.78 3.04 9.77
8/26/2021 8:45:00 AM 13.77 56.786 0.045 6.87 3.39 9.78
8/26/2021 9:00:00 AM 13.8 56.84 0.045 6.86 3.37 9.79
8/26/2021 9:15:00 AM 13.85 56.93 0.045 6.89 3.53 9.79
8/26/2021 9:30:00 AM 13.91 57.038 0.044 6.9 3.08 9.79
8/26/2021 9:45:00 AM 13.98 57.164 0.044 6.82 3.12 9.78
8/26/2021 10:00:00 AM 14.08 57.344 0.044 6.92 3.14 9.77
8/26/2021 10:15:00 AM 14.19 57.542 0.044 6.92 2.96 9.76
8/26/2021 10:30:00 AM 14.26 57.668 0.044 6.93 2.99 9.75
8/26/2021 10:45:00 AM 14.3 57.74 0.044 6.93 2.99 9.75
8/26/2021 11:00:00 AM 14.33 57.794 0.044 6.85 3.12 9.75
8/26/2021 11:15:00 AM 14.37 57.866 0.044 6.94 2.95 9.74
8/26/2021 11:30:00 AM 14.43 57.974 0.044 6.94 2.82 9.73
8/26/2021 11:45:00 AM 14.54 58.172 0.044 6.94 2.89 9.71
8/26/2021 12:00:00 PM 14.62 58.316 0.044 6.95 3.05 9.69
8/26/2021 12:15:00 PM 14.73 58.514 0.044 6.95 2.96 9.68
8/26/2021 12:30:00 PM 14.93 58.874 0.044 6.97 2.9 9.67
8/26/2021 12:45:00 PM 15.04 59.072 0.044 6.97 2.86 9.65
8/26/2021 1:00:00 PM 15.31 59.558 0.044 6.88 2.81 9.59
8/26/2021 1:15:00 PM 15.53 59.954 0.044 6.98 2.99 9.56
8/26/2021 1:30:00 PM 15.7 60.26 0.044 6.98 2.96 9.54
8/26/2021 1:45:00 PM 15.89 60.602 0.044 6.99 2.74 9.49
8/26/2021 2:00:00 PM 16.09 60.962 0.044 6.99 2.99 9.45
8/26/2021 2:15:00 PM 16.29 61.322 0.044 7 3.48 9.43
8/26/2021 2:30:00 PM 16.51 61.718 0.044 7 3.55 9.38
8/26/2021 2:45:00 PM 16.73 62.114 0.044 6.99 3.03 9.34
8/26/2021 3:00:00 PM 16.9 62.42 0.044 6.93 2.8 9.32
8/26/2021 3:15:00 PM 17.05 62.69 0.044 7.01 2.86 9.28
8/26/2021 3:30:00 PM 17.22 62.996 0.044 7.01 2.75 9.24
8/26/2021 3:45:00 PM 17.29 63.122 0.044 7.02 2.85 9.21
8/26/2021 4:00:00 PM 17.34 63.212 0.044 7.02 2.85 9.18
8/26/2021 4:15:00 PM 17.34 63.212 0.044 7.02 2.66 9.17
8/26/2021 4:30:00 PM 17.32 63.176 0.044 7.02 2.79 9.16
8/26/2021 4:45:00 PM 17.19 62.942 0.044 7.02 2.81 9.17
8/26/2021 5:00:00 PM 17.1 62.78 0.044 6.95 2.66 9.18
8/26/2021 5:15:00 PM 17.01 62.618 0.044 7.01 2.69 9.18
8/26/2021 5:30:00 PM 16.9 62.42 0.044 7 2.69 9.19
8/26/2021 5:45:00 PM 16.82 62.276 0.044 7 2.6 9.2
8/26/2021 6:00:00 PM 16.73 62.114 0.044 6.99 2.67 9.2
8/26/2021 6:15:00 PM 16.66 61.988 0.044 6.98 2.9 9.2
8/26/2021 6:30:00 PM 16.61 61.898 0.044 6.99 2.75 9.2
8/26/2021 6:45:00 PM 16.55 61.79 0.044 6.98 2.59 9.2
8/26/2021 7:00:00 PM 16.48 61.664 0.044 6.98 5.3 9.2
8/26/2021 7:15:00 PM 16.4 61.52 0.044 6.96 2.68 9.2
8/26/2021 7:30:00 PM 16.31 61.358 0.044 6.93 2.91 9.21
8/26/2021 7:45:00 PM 16.22 61.196 0.044 6.94 2.88 9.22
8/26/2021 8:00:00 PM 16.14 61.052 0.044 6.91 3.09 9.22
8/26/2021 8:15:00 PM 16.06 60.908 0.044 6.91 3.16 9.22
8/26/2021 8:30:00 PM 15.98 60.764 0.044 6.9 4.64 9.22
8/26/2021 8:45:00 PM 15.91 60.638 0.045 6.89 2.94 9.23
8/26/2021 9:00:00 PM 15.85 60.53 0.045 6.88 2.95 9.24
8/26/2021 9:15:00 PM 15.78 60.404 0.045 6.87 3.05 9.26
8/26/2021 9:30:00 PM 15.72 60.296 0.045 6.86 2.84 9.27
8/26/2021 9:45:00 PM 15.67 60.206 0.045 6.86 3.23 9.29
8/26/2021 10:00:00 PM 15.61 60.098 0.045 6.86 3.31 9.3
8/26/2021 10:15:00 PM 15.57 60.026 0.045 6.86 3.16 9.31
8/26/2021 10:30:00 PM 15.53 59.954 0.045 6.86 3.07 9.31
8/26/2021 10:45:00 PM 15.48 59.864 0.045 6.76 2.92 9.32
8/26/2021 11:00:00 PM 15.47 59.846 0.045 6.86 2.95 9.33
8/26/2021 11:15:00 PM 15.44 59.792 0.045 6.87 3.15 9.34
8/26/2021 11:30:00 PM 15.4 59.72 0.045 6.88 2.83 9.34
8/26/2021 11:45:00 PM 15.37 59.666 0.045 6.88 2.95 9.34
8/27/2021 12:00:00 AM 15.34 59.612 0.045 6.78 3.13 9.35
8/27/2021 12:15:00 AM 15.31 59.558 0.045 6.88 3.01 9.35
8/27/2021 12:30:00 AM 15.29 59.522 0.045 6.89 3.17 9.36
8/27/2021 12:45:00 AM 15.25 59.45 0.045 6.89 3.1 9.37
8/27/2021 1:00:00 AM 15.23 59.414 0.045 6.88 3.19 9.38
8/27/2021 1:15:00 AM 15.19 59.342 0.045 6.88 2.94 9.38
8/27/2021 1:30:00 AM 15.17 59.306 0.045 6.87 3.14 9.39
8/27/2021 1:45:00 AM 15.15 59.27 0.045 6.88 3.03 9.39
8/27/2021 2:00:00 AM 15.12 59.216 0.045 6.89 3.02 9.4
8/27/2021 2:15:00 AM 15.09 59.162 0.045 6.9 2.87 9.41
8/27/2021 2:30:00 AM 15.07 59.126 0.045 6.9 3.05 9.41
8/27/2021 2:45:00 AM 15.03 59.054 0.045 6.8 3.49 9.42
8/27/2021 3:00:00 AM 15 59 0.045 6.9 2.99 9.43
8/27/2021 3:15:00 AM 14.97 58.946 0.045 6.9 2.93 9.43
8/27/2021 3:30:00 AM 14.93 58.874 0.045 6.9 2.86 9.43
8/27/2021 3:45:00 AM 14.9 58.82 0.045 6.8 3.04 9.44
8/27/2021 4:00:00 AM 14.87 58.766 0.045 6.89 3.01 9.45
8/27/2021 4:15:00 AM 14.84 58.712 0.045 6.87 2.87 9.46
8/27/2021 4:30:00 AM 14.81 58.658 0.045 6.88 2.85 9.46
8/27/2021 4:45:00 AM 14.78 58.604 0.045 6.79 3.12 9.45
8/27/2021 5:00:00 AM 14.76 58.568 0.045 6.88 2.95 9.46
8/27/2021 5:15:00 AM 14.72 58.496 0.045 6.78 2.94 9.46
8/27/2021 5:30:00 AM 14.68 58.424 0.045 6.84 3.1 9.47
8/27/2021 5:45:00 AM 14.64 58.352 0.045 6.86 2.99 9.49
8/27/2021 6:00:00 AM 14.61 58.298 0.045 6.86 3.45 9.49
8/27/2021 6:15:00 AM 14.58 58.244 0.045 6.77 2.9 9.5
8/27/2021 6:30:00 AM 14.55 58.19 0.045 6.84 2.95 9.51
8/27/2021 6:45:00 AM 14.51 58.118 0.045 6.78 3.03 9.52
8/27/2021 7:00:00 AM 14.48 58.064 0.045 6.84 3.08 9.53
8/27/2021 7:15:00 AM 14.46 58.028 0.045 6.85 2.96 9.54
8/27/2021 7:30:00 AM 14.44 57.992 0.045 6.85 3.23 9.55
8/27/2021 7:45:00 AM 14.43 57.974 0.045 6.86 3.99 9.56
8/27/2021 8:00:00 AM 14.43 57.974 0.045 6.86 4.57 9.57
8/27/2021 8:15:00 AM 14.44 57.992 0.045 6.8 4.3 9.59
8/27/2021 8:30:00 AM 14.45 58.01 0.045 6.88 5.7 9.61
8/27/2021 8:45:00 AM 14.46 58.028 0.045 6.9 2.86 9.62
8/27/2021 9:00:00 AM 14.49 58.082 0.045 6.91 2.93 9.63
8/27/2021 9:15:00 AM 14.51 58.118 0.045 6.91 3.96 9.63
8/27/2021 9:30:00 AM 14.55 58.19 0.045 6.87 4.19 9.63
8/27/2021 9:45:00 AM 14.6 58.28 0.045 6.93 3.84 9.64
8/27/2021 10:00:00 AM 14.63 58.334 0.045 6.93 2.71 9.64
8/27/2021 10:15:00 AM 14.68 58.424 0.045 6.94 2.98 9.64
8/27/2021 10:30:00 AM 14.72 58.496 0.045 6.93 4.04 9.63
8/27/2021 10:45:00 AM 14.78 58.604 0.045 6.94 3.43 9.63
8/27/2021 11:00:00 AM 14.83 58.694 0.045 6.94 3.74 9.63
8/27/2021 11:15:00 AM 14.9 58.82 0.045 6.95 4.15 9.63
8/27/2021 11:30:00 AM 14.97 58.946 0.045 6.95 4.59 9.63
8/27/2021 11:45:00 AM 15.09 59.162 0.045 6.97 4.14 9.62
8/27/2021 12:00:00 PM 15.24 59.432 0.045 6.97 4.98 9.59
8/27/2021 12:15:00 PM 15.34 59.612 0.045 6.98 4.06 9.57
8/27/2021 12:30:00 PM 15.54 59.972 0.045 6.99 4.78 9.55
8/27/2021 12:45:00 PM 15.77 60.386 0.045 7 4.05 9.52
8/27/2021 1:00:00 PM 15.95 60.71 0.045 7.01 3.87 9.48
8/27/2021 1:15:00 PM 16.16 61.088 0.045 6.92 3.74 9.45
8/27/2021 1:30:00 PM 16.33 61.394 0.045 7.02 4.66 9.42
8/27/2021 1:45:00 PM 16.46 61.628 0.045 6.94 4.09 9.39
8/27/2021 2:00:00 PM 16.69 62.042 0.045 7.03 4.33 9.35
8/27/2021 2:15:00 PM 16.84 62.312 0.045 7.04 3.15 9.32
8/27/2021 2:30:00 PM 16.95 62.51 0.045 7.03 3.98 9.31
8/27/2021 2:45:00 PM 17.12 62.816 0.045 7.04 4.02 9.27
8/27/2021 3:00:00 PM 17.28 63.104 0.045 7 3.8 9.23
8/27/2021 3:15:00 PM 17.43 63.374 0.045 6.97 3.78 9.21
8/27/2021 3:30:00 PM 17.57 63.626 0.045 7.04 3.82 9.18
8/27/2021 3:45:00 PM 17.61 63.698 0.045 7.03 4.14 9.17
8/27/2021 4:00:00 PM 17.66 63.788 0.045 7.04 4.08 9.15
8/27/2021 4:15:00 PM 17.75 63.95 0.045 7.03 3.62 9.11
8/27/2021 4:30:00 PM 17.68 63.824 0.045 7.05 3.79 9.11
8/27/2021 4:45:00 PM 17.61 63.698 0.045 7.02 2.86 9.07
8/27/2021 5:00:00 PM 17.53 63.554 0.045 7.02 3.25 9.06
8/27/2021 5:15:00 PM 17.47 63.446 0.045 7.03 3.41 9.06
8/27/2021 5:30:00 PM 17.39 63.302 0.045 7.03 3.3 9.07
8/27/2021 5:45:00 PM 17.25 63.05 0.045 7.02 3.21 9.08
8/27/2021 6:00:00 PM 17.12 62.816 0.045 6.91 3.89 9.09
8/27/2021 6:15:00 PM 17.02 62.636 0.045 7.01 4.12 9.09
8/27/2021 6:30:00 PM 16.97 62.546 0.045 7 3.6 9.11
8/27/2021 6:45:00 PM 16.92 62.456 0.045 6.9 3.66 9.13
8/27/2021 7:00:00 PM 16.85 62.33 0.045 7 2.61 9.13
8/27/2021 7:15:00 PM 16.77 62.186 0.045 6.99 2.65 9.12
8/27/2021 7:30:00 PM 16.69 62.042 0.045 6.99 2.65 9.11
8/27/2021 7:45:00 PM 16.63 61.934 0.045 6.86 2.54 9.11
8/27/2021 8:00:00 PM 16.56 61.808 0.045 6.97 2.8 9.12
8/27/2021 8:15:00 PM 16.49 61.682 0.045 6.96 2.59 9.13
8/27/2021 8:30:00 PM 16.41 61.538 0.045 6.94 2.64 9.15
8/27/2021 8:45:00 PM 16.34 61.412 0.045 6.94 2.67 9.16
8/27/2021 9:00:00 PM 16.27 61.286 0.046 6.93 2.68 9.17
8/27/2021 9:15:00 PM 16.21 61.178 0.046 6.92 2.76 9.18
8/27/2021 9:30:00 PM 16.17 61.106 0.046 6.92 2.93 9.18
8/27/2021 9:45:00 PM 16.13 61.034 0.046 6.92 3.77 9.19
8/27/2021 10:00:00 PM 16.09 60.962 0.046 6.92 3.32 9.2
8/27/2021 10:15:00 PM 16.05 60.89 0.046 6.91 3.02 9.2
8/27/2021 10:30:00 PM 16 60.8 0.046 6.89 2.97 9.2
8/27/2021 10:45:00 PM 15.96 60.728 0.046 6.9 2.95 9.21
8/27/2021 11:00:00 PM 15.92 60.656 0.046 6.79 2.99 9.22
8/27/2021 11:15:00 PM 15.89 60.602 0.046 6.9 2.96 9.23
8/27/2021 11:30:00 PM 15.86 60.548 0.046 6.89 2.89 9.24
8/27/2021 11:45:00 PM 15.83 60.494 0.046 6.9 2.89 9.24
8/28/2021 12:00:00 AM 15.8 60.44 0.046 6.89 2.88 9.26
8/28/2021 12:15:00 AM 15.77 60.386 0.046 6.89 2.97 9.26
8/28/2021 12:30:00 AM 15.74 60.332 0.046 6.89 2.99 9.26
8/28/2021 12:45:00 AM 15.71 60.278 0.046 6.84 3.1 9.27
8/28/2021 1:00:00 AM 15.68 60.224 0.046 6.88 3 9.28
8/28/2021 1:15:00 AM 15.65 60.17 0.046 6.87 2.9 9.28
8/28/2021 1:30:00 AM 15.61 60.098 0.046 6.78 2.96 9.29
8/28/2021 1:45:00 AM 15.58 60.044 0.046 6.87 2.78 9.29
8/28/2021 2:00:00 AM 15.56 60.008 0.046 6.86 3.07 9.29
8/28/2021 2:15:00 AM 15.53 59.954 0.046 6.86 3.04 9.3
8/28/2021 2:30:00 AM 15.5 59.9 0.046 6.86 2.94 9.3
8/28/2021 2:45:00 AM 15.47 59.846 0.047 6.86 2.88 9.31
8/28/2021 3:00:00 AM 15.45 59.81 0.047 6.86 2.97 9.31
8/28/2021 3:15:00 AM 15.42 59.756 0.047 6.85 2.88 9.31
8/28/2021 3:30:00 AM 15.4 59.72 0.047 6.75 3.06 9.32
8/28/2021 3:45:00 AM 15.37 59.666 0.047 6.85 3.01 9.31
8/28/2021 4:00:00 AM 15.34 59.612 0.047 6.75 3.2 9.33
8/28/2021 4:15:00 AM 15.31 59.558 0.047 6.85 2.9 9.33
8/28/2021 4:30:00 AM 15.29 59.522 0.047 6.83 3.06 9.34
8/28/2021 4:45:00 AM 15.27 59.486 0.047 6.84 2.83 9.34
8/28/2021 5:00:00 AM 15.25 59.45 0.047 6.84 2.96 9.34
8/28/2021 5:15:00 AM 15.22 59.396 0.047 6.84 2.82 9.35
8/28/2021 5:30:00 AM 15.2 59.36 0.047 6.84 3.03 9.36
8/28/2021 5:45:00 AM 15.18 59.324 0.047 6.75 2.72 9.37
8/28/2021 6:00:00 AM 15.16 59.288 0.047 6.84 2.68 9.37
8/28/2021 6:15:00 AM 15.14 59.252 0.047 6.85 2.66 9.37
8/28/2021 6:30:00 AM 15.12 59.216 0.047 6.85 2.88 9.38
8/28/2021 6:45:00 AM 15.1 59.18 0.047 6.73 2.81 9.39
8/28/2021 7:00:00 AM 15.09 59.162 0.047 6.84 2.91 9.4
8/28/2021 7:15:00 AM 15.07 59.126 0.047 6.85 2.94 9.41
8/28/2021 7:30:00 AM 15.05 59.09 0.047 6.8 2.87 9.42
8/28/2021 7:45:00 AM 15.05 59.09 0.047 6.85 4.07 9.43
8/28/2021 8:00:00 AM 15.05 59.09 0.047 6.85 2.77 9.45
8/28/2021 8:15:00 AM 15.05 59.09 0.047 6.86 5.23 9.46
8/28/2021 8:30:00 AM 15.05 59.09 0.047 6.86 2.96 9.47
8/28/2021 8:45:00 AM 15.06 59.108 0.047 6.87 2.68 9.49
8/28/2021 9:00:00 AM 15.07 59.126 0.047 6.86 3.68 9.5
8/28/2021 9:15:00 AM 15.09 59.162 0.047 6.84 2.64 9.51
8/28/2021 9:30:00 AM 15.13 59.234 0.047 6.91 2.63 9.52
8/28/2021 9:45:00 AM 15.17 59.306 0.047 6.92 4.75 9.54
8/28/2021 10:00:00 AM 15.25 59.45 0.047 6.94 4.33 9.55
8/28/2021 10:15:00 AM 15.34 59.612 0.047 6.9 4.42 9.54
8/28/2021 10:30:00 AM 15.39 59.702 0.047 6.98 2.77 9.54
8/28/2021 10:45:00 AM 15.48 59.864 0.047 6.89 3.44 9.54
8/28/2021 11:00:00 AM 15.66 60.188 0.047 7 4.65 9.52
8/28/2021 11:15:00 AM 15.83 60.494 0.047 7.01 22.2 9.49
8/28/2021 11:30:00 AM 16.04 60.872 0.047 7.02 3 9.46
8/28/2021 11:45:00 AM 16.23 61.214 0.047 6.92 3.39 9.45
8/28/2021 12:00:00 PM 16.44 61.592 0.047 6.97 3.96 9.42
8/28/2021 12:15:00 PM 16.56 61.808 0.047 7.03 2.65 9.39
8/28/2021 12:30:00 PM 16.73 62.114 0.047 7.01 2.86 9.36
8/28/2021 12:45:00 PM 16.79 62.222 0.047 6.96 2.89 9.34
8/28/2021 1:00:00 PM 16.93 62.474 0.046 7.04 2.89 9.33
8/28/2021 1:15:00 PM 17.06 62.708 0.046 7 4.45 9.32
8/28/2021 1:30:00 PM 17.29 63.122 0.046 7.05 2.66 9.28
8/28/2021 1:45:00 PM 17.44 63.392 0.046 7.04 3.74 9.25
8/28/2021 2:00:00 PM 17.68 63.824 0.046 7.05 4.03 9.22
8/28/2021 2:15:00 PM 17.72 63.896 0.046 7.05 3.9 9.16
8/28/2021 2:30:00 PM 17.74 63.932 0.046 7.05 3.07 9.12
8/28/2021 2:45:00 PM 17.84 64.112 0.046 7.04 4.83 9.1
8/28/2021 3:00:00 PM 17.87 64.166 0.046 7.06 5.39 9.1
8/28/2021 3:15:00 PM 17.73 63.914 0.046 7.05 2.24 9.08
8/28/2021 3:30:00 PM 17.57 63.626 0.046 7.04 2.41 9.06
8/28/2021 3:45:00 PM 17.47 63.446 0.046 7.04 2.53 9.07
8/28/2021 4:00:00 PM 17.42 63.356 0.046 7.02 2.85 9.06
8/28/2021 4:15:00 PM 17.31 63.158 0.046 7.02 2.8 9.08
8/28/2021 4:30:00 PM 17.2 62.96 0.046 7.02 2.55 9.11
8/28/2021 4:45:00 PM 17.11 62.798 0.046 6.89 2.34 9.12
8/28/2021 5:00:00 PM 17.03 62.654 0.046 6.94 9.29 9.14
8/28/2021 5:15:00 PM 16.98 62.564 0.046 7.01 7.38 9.14
8/28/2021 5:30:00 PM 16.94 62.492 0.046 7.02 6.68 9.16
8/28/2021 5:45:00 PM 16.91 62.438 0.046 7.01 5.3 9.16
8/28/2021 6:00:00 PM 16.87 62.366 0.046 7.01 4.99 9.19
8/28/2021 6:15:00 PM 16.83 62.294 0.046 7.01 2.53 9.18
8/28/2021 6:30:00 PM 16.81 62.258 0.046 7.01 2.27 9.19
8/28/2021 6:45:00 PM 16.8 62.24 0.046 7 3.59 9.18
8/28/2021 7:00:00 PM 16.76 62.168 0.046 6.87 4.56 9.18
8/28/2021 7:15:00 PM 16.72 62.096 0.046 6.99 3.17 9.16
8/28/2021 7:30:00 PM 16.69 62.042 0.046 6.99 2.97 9.15
8/28/2021 7:45:00 PM 16.63 61.934 0.046 6.97 2.21 9.15
8/28/2021 8:00:00 PM 16.59 61.862 0.046 6.97 2.23 9.13
8/28/2021 8:15:00 PM 16.56 61.808 0.046 6.96 2.32 9.13
8/28/2021 8:30:00 PM 16.5 61.7 0.046 6.87 2.37 9.13
8/28/2021 8:45:00 PM 16.45 61.61 0.046 6.95 2.39 9.14
8/28/2021 9:00:00 PM 16.4 61.52 0.046 6.94 2.58 9.14
8/28/2021 9:15:00 PM 16.34 61.412 0.047 6.92 2.71 9.14
8/28/2021 9:30:00 PM 16.29 61.322 0.047 6.92 3.05 9.15
8/28/2021 9:45:00 PM 16.25 61.25 0.047 6.92 3.53 9.15
8/28/2021 10:00:00 PM 16.19 61.142 0.047 6.92 2.68 9.17
8/28/2021 10:15:00 PM 16.14 61.052 0.047 6.85 3.02 9.16
8/28/2021 10:30:00 PM 16.1 60.98 0.047 6.92 3.17 9.17
8/28/2021 10:45:00 PM 16.06 60.908 0.047 6.84 2.87 9.18
8/28/2021 11:00:00 PM 16.03 60.854 0.047 6.92 2.63 9.19
8/28/2021 11:15:00 PM 15.99 60.782 0.047 6.92 2.62 9.2
8/28/2021 11:30:00 PM 15.94 60.692 0.047 6.91 2.85 9.21
8/28/2021 11:45:00 PM 15.9 60.62 0.047 6.88 2.57 9.23
8/29/2021 12:00:00 AM 15.87 60.566 0.047 6.9 2.65 9.22
8/29/2021 12:15:00 AM 15.83 60.494 0.047 6.9 2.77 9.23
8/29/2021 12:30:00 AM 15.79 60.422 0.047 6.77 2.88 9.24
8/29/2021 12:45:00 AM 15.77 60.386 0.047 6.91 2.45 9.25
8/29/2021 1:00:00 AM 15.74 60.332 0.047 6.9 2.56 9.26
8/29/2021 1:15:00 AM 15.72 60.296 0.047 6.9 2.5 9.26
8/29/2021 1:30:00 AM 15.69 60.242 0.047 6.78 2.43 9.27
8/29/2021 1:45:00 AM 15.66 60.188 0.047 6.9 2.39 9.28
8/29/2021 2:00:00 AM 15.65 60.17 0.047 6.9 3.92 9.28
8/29/2021 2:15:00 AM 15.63 60.134 0.047 6.9 2.63 9.28
8/29/2021 2:30:00 AM 15.61 60.098 0.047 6.9 2.44 9.28
8/29/2021 2:45:00 AM 15.6 60.08 0.047 6.87 2.48 9.27
8/29/2021 3:00:00 AM 15.58 60.044 0.047 6.91 2.52 9.29
8/29/2021 3:15:00 AM 15.56 60.008 0.047 6.9 2.59 9.29
8/29/2021 3:30:00 AM 15.55 59.99 0.047 6.9 2.58 9.29
8/29/2021 3:45:00 AM 15.53 59.954 0.047 6.83 2.62 9.28
8/29/2021 4:00:00 AM 15.51 59.918 0.047 6.85 2.65 9.3
8/29/2021 4:15:00 AM 15.49 59.882 0.047 6.87 2.56 9.31
8/29/2021 4:30:00 AM 15.48 59.864 0.047 6.8 2.63 9.29
8/29/2021 4:45:00 AM 15.46 59.828 0.047 6.82 2.52 9.3
8/29/2021 5:00:00 AM 15.44 59.792 0.047 6.89 2.57 9.3
8/29/2021 5:15:00 AM 15.43 59.774 0.047 6.89 2.43 9.3
8/29/2021 5:30:00 AM 15.41 59.738 0.047 6.76 2.47 9.31
8/29/2021 5:45:00 AM 15.41 59.738 0.047 6.88 2.6 9.3
8/29/2021 6:00:00 AM 15.39 59.702 0.047 6.87 2.51 9.3
8/29/2021 6:15:00 AM 15.37 59.666 0.047 6.89 2.33 9.31
8/29/2021 6:30:00 AM 15.37 59.666 0.047 6.9 2.34 9.31
8/29/2021 6:45:00 AM 15.36 59.648 0.047 6.9 2.49 9.33
8/29/2021 7:00:00 AM 15.34 59.612 0.047 6.78 6.31 9.32
8/29/2021 7:15:00 AM 15.33 59.594 0.047 6.91 5.03 9.34
8/29/2021 7:30:00 AM 15.32 59.576 0.047 6.9 5.47 9.34
8/29/2021 7:45:00 AM 15.31 59.558 0.047 6.9 5.7 9.35
8/29/2021 8:00:00 AM 15.31 59.558 0.047 6.79 4.35 9.35
8/29/2021 8:15:00 AM 15.31 59.558 0.047 6.91 4.64 9.36
8/29/2021 8:30:00 AM 15.31 59.558 0.047 6.78 2.49 9.38
8/29/2021 8:45:00 AM 15.33 59.594 0.047 6.92 2.37 9.39
8/29/2021 9:00:00 AM 15.36 59.648 0.047 6.82 7.62 9.41
8/29/2021 9:15:00 AM 15.36 59.648 0.047 6.95 9.49 9.43
8/29/2021 9:30:00 AM 15.39 59.702 0.047 6.83 5.01 9.43
8/29/2021 9:45:00 AM 15.42 59.756 0.047 6.97 3.62 9.45
8/29/2021 10:00:00 AM 15.45 59.81 0.047 6.97 4.82 9.46
8/29/2021 10:15:00 AM 15.48 59.864 0.047 6.9 4.2 9.46
8/29/2021 10:30:00 AM 15.51 59.918 0.047 6.98 3.36 9.46
8/29/2021 10:45:00 AM 15.54 59.972 0.047 6.99 3.85 9.47
8/29/2021 11:00:00 AM 15.56 60.008 0.047 6.99 4.79 9.48
8/29/2021 11:15:00 AM 15.59 60.062 0.047 6.89 3.59 9.47
8/29/2021 11:30:00 AM 15.61 60.098 0.047 7 5.06 9.48
8/29/2021 11:45:00 AM 15.64 60.152 0.047 6.88 5.24 9.47
8/29/2021 12:00:00 PM 15.68 60.224 0.047 7.01 5.31 9.46
8/29/2021 12:15:00 PM 15.74 60.332 0.047 7.02 5.07 9.47
8/29/2021 12:30:00 PM 15.77 60.386 0.047 6.89 4.33 9.46
8/29/2021 12:45:00 PM 15.81 60.458 0.047 7.02 4.66 9.46
8/29/2021 1:00:00 PM 15.88 60.584 0.047 7.02 2.58 9.46
8/29/2021 1:15:00 PM 15.92 60.656 0.047 7.02 2.18 9.45
8/29/2021 1:30:00 PM 16.08 60.944 0.047 7.03 2.79 9.44
8/29/2021 1:45:00 PM 16.17 61.106 0.047 7.03 3.24 9.43
8/29/2021 2:00:00 PM 16.22 61.196 0.047 7.04 2.65 9.42
8/29/2021 2:15:00 PM 16.25 61.25 0.047 6.9 2.68 9.39
8/29/2021 2:30:00 PM 16.32 61.376 0.047 7.03 2.56 9.37
8/29/2021 2:45:00 PM 16.39 61.502 0.047 7.02 2.4 9.35
8/29/2021 3:00:00 PM 16.39 61.502 0.047 7.03 2.45 9.33
8/29/2021 3:15:00 PM 16.38 61.484 0.047 7.01 2.27 9.32
8/29/2021 3:30:00 PM 16.38 61.484 0.047 7.02 2.36 9.34
8/29/2021 3:45:00 PM 16.37 61.466 0.047 7.01 2.64 9.35
8/29/2021 4:00:00 PM 16.35 61.43 0.047 7.01 2.2 9.35
8/29/2021 4:15:00 PM 16.34 61.412 0.047 7.01 2.04 9.35
8/29/2021 4:30:00 PM 16.38 61.484 0.047 7.03 3.19 9.35
8/29/2021 4:45:00 PM 16.42 61.556 0.047 6.9 3.72 9.35
8/29/2021 5:00:00 PM 16.44 61.592 0.047 7.03 5.52 9.33
8/29/2021 5:15:00 PM 16.47 61.646 0.047 7.03 3.95 9.32
8/29/2021 5:30:00 PM 16.46 61.628 0.047 7.03 4.9 9.3
8/29/2021 5:45:00 PM 16.46 61.628 0.047 7.02 4.19 9.28
8/29/2021 6:00:00 PM 16.45 61.61 0.047 6.89 3.59 9.26
8/29/2021 6:15:00 PM 16.45 61.61 0.047 6.93 2.15 9.22
8/29/2021 6:30:00 PM 16.42 61.556 0.047 7.01 2.2 9.21
8/29/2021 6:45:00 PM 16.38 61.484 0.047 7 2.07 9.21
8/29/2021 7:00:00 PM 16.34 61.412 0.047 6.99 2.27 9.2
8/29/2021 7:15:00 PM 16.29 61.322 0.047 6.99 2.06 9.19
8/29/2021 7:30:00 PM 16.25 61.25 0.047 6.98 2.05 9.18
8/29/2021 7:45:00 PM 16.22 61.196 0.047 6.98 2.2 9.16
8/29/2021 8:00:00 PM 16.18 61.124 0.047 6.83 2.21 9.16
8/29/2021 8:15:00 PM 16.14 61.052 0.047 6.96 2.24 9.16
8/29/2021 8:30:00 PM 16.1 60.98 0.047 6.95 2.34 9.15
8/29/2021 8:45:00 PM 16.06 60.908 0.047 6.93 2.34 9.15
8/29/2021 9:00:00 PM 16.02 60.836 0.047 6.83 2.22 9.14
8/29/2021 9:15:00 PM 15.99 60.782 0.047 6.92 2.34 9.14
8/29/2021 9:30:00 PM 15.95 60.71 0.048 6.91 2.5 9.15
8/29/2021 9:45:00 PM 15.93 60.674 0.048 6.9 2.51 9.15
8/29/2021 10:00:00 PM 15.91 60.638 0.048 6.89 2.43 9.15
8/29/2021 10:15:00 PM 15.87 60.566 0.048 6.9 2.53 9.17
8/29/2021 10:30:00 PM 15.84 60.512 0.048 6.77 2.7 9.18
8/29/2021 10:45:00 PM 15.82 60.476 0.048 6.83 2.48 9.18
8/29/2021 11:00:00 PM 15.8 60.44 0.048 6.9 2.22 9.19
8/29/2021 11:15:00 PM 15.79 60.422 0.048 6.89 2.49 9.19
8/29/2021 11:30:00 PM 15.76 60.368 0.048 6.91 4.15 9.19
8/29/2021 11:45:00 PM 15.74 60.332 0.048 6.8 2.57 9.2
8/30/2021 12:00:00 AM 15.71 60.278 0.048 6.93 3.16 9.2
8/30/2021 12:15:00 AM 15.7 60.26 0.048 6.91 3 9.2
8/30/2021 12:30:00 AM 15.68 60.224 0.048 6.92 2.45 9.21
8/30/2021 12:45:00 AM 15.66 60.188 0.048 6.92 2.26 9.21
8/30/2021 1:00:00 AM 15.63 60.134 0.048 6.92 2.51 9.21
8/30/2021 1:15:00 AM 15.61 60.098 0.048 6.93 3.01 9.2
8/30/2021 1:30:00 AM 15.57 60.026 0.048 6.9 2.63 9.23
8/30/2021 1:45:00 AM 15.54 59.972 0.048 6.94 2.39 9.24
8/30/2021 2:00:00 AM 15.51 59.918 0.048 6.94 2.36 9.24
8/30/2021 2:15:00 AM 15.48 59.864 0.048 6.79 2.62 9.24
8/30/2021 2:30:00 AM 15.45 59.81 0.048 6.93 2.8 9.24
8/30/2021 2:45:00 AM 15.42 59.756 0.048 6.93 2.28 9.26
8/30/2021 3:00:00 AM 15.4 59.72 0.048 6.89 2.39 9.25
8/30/2021 3:15:00 AM 15.38 59.684 0.048 6.93 2.51 9.26
8/30/2021 3:30:00 AM 15.37 59.666 0.048 6.93 2.72 9.25
8/30/2021 3:45:00 AM 15.36 59.648 0.048 6.93 2.58 9.25
8/30/2021 4:00:00 AM 15.34 59.612 0.048 6.94 2.5 9.26
8/30/2021 4:15:00 AM 15.33 59.594 0.048 6.94 2.45 9.26
8/30/2021 4:30:00 AM 15.31 59.558 0.048 6.94 2.55 9.26
8/30/2021 4:45:00 AM 15.3 59.54 0.048 6.94 2.39 9.26
8/30/2021 5:00:00 AM 15.28 59.504 0.048 6.94 2.38 9.26
8/30/2021 5:15:00 AM 15.26 59.468 0.048 6.91 2.41 9.27
8/30/2021 5:30:00 AM 15.23 59.414 0.048 6.83 2.62 9.27
8/30/2021 5:45:00 AM 15.21 59.378 0.048 6.94 2.46 9.29
8/30/2021 6:00:00 AM 15.2 59.36 0.048 6.94 2.5 9.28
8/30/2021 6:15:00 AM 15.19 59.342 0.048 6.93 2.93 9.28
8/30/2021 6:30:00 AM 15.18 59.324 0.048 6.85 2.72 9.29
8/30/2021 6:45:00 AM 15.16 59.288 0.048 6.94 2.67 9.29
8/30/2021 7:00:00 AM 15.16 59.288 0.048 6.81 2.52 9.29
8/30/2021 7:15:00 AM 15.16 59.288 0.048 6.94 3.03 9.31
8/30/2021 7:30:00 AM 15.17 59.306 0.048 6.95 2.71 9.33
8/30/2021 7:45:00 AM 15.17 59.306 0.048 6.95 4.19 9.34
8/30/2021 8:00:00 AM 15.18 59.324 0.048 6.95 4.17 9.36
8/30/2021 8:15:00 AM 15.2 59.36 0.048 6.96 2.64 9.37
8/30/2021 8:30:00 AM 15.21 59.378 0.048 6.97 2.31 9.4
8/30/2021 8:45:00 AM 15.24 59.432 0.048 6.98 2.24 9.42
8/30/2021 9:00:00 AM 15.26 59.468 0.048 6.99 2.39 9.41
8/30/2021 9:15:00 AM 15.29 59.522 0.048 6.99 2.2 9.41
8/30/2021 9:30:00 AM 15.35 59.63 0.048 6.99 2.26 9.43
8/30/2021 9:45:00 AM 15.41 59.738 0.048 7.01 2.23 9.45
8/30/2021 10:00:00 AM 15.44 59.792 0.048 7.02 2.4 9.45
8/30/2021 10:15:00 AM 15.45 59.81 0.048 7.02 2.36 9.43
8/30/2021 10:30:00 AM 15.47 59.846 0.048 7.01 2.38 9.42
8/30/2021 10:45:00 AM 15.5 59.9 0.048 7.02 2.21 9.42
8/30/2021 11:00:00 AM 15.52 59.936 0.048 7.02 2.23 9.44
8/30/2021 11:15:00 AM 15.52 59.936 0.048 7.01 2.33 9.43
8/30/2021 11:30:00 AM 15.51 59.918 0.048 7.01 2.23 9.42
8/30/2021 11:45:00 AM 15.52 59.936 0.048 6.91 2.2 9.42
8/30/2021 12:00:00 PM 15.57 60.026 0.048 7.01 2.18 9.43
8/30/2021 12:15:00 PM 15.66 60.188 0.048 7.02 2.26 9.45
8/30/2021 12:30:00 PM 15.73 60.314 0.048 7.03 2.28 9.46
8/30/2021 12:45:00 PM 15.84 60.512 0.048 6.94 2.3 9.47
8/30/2021 1:00:00 PM 16.01 60.818 0.047 7.05 2.69 9.44
8/30/2021 1:15:00 PM 16.13 61.034 0.047 7.07 2.44 9.43
8/30/2021 1:30:00 PM 16.21 61.178 0.047 7.07 2.34 9.4
8/30/2021 1:45:00 PM 16.38 61.484 0.047 7.07 2.27 9.38
8/30/2021 2:00:00 PM 16.67 62.006 0.047 7.07 2.33 9.36
8/30/2021 2:15:00 PM 16.77 62.186 0.047 7.08 4.71 9.32
8/30/2021 2:30:00 PM 16.93 62.474 0.047 7.08 4.76 9.31
8/30/2021 2:45:00 PM 17.09 62.762 0.047 7.06 2.72 9.28
8/30/2021 3:00:00 PM 17.15 62.87 0.047 7.09 3.58 9.25
8/30/2021 3:15:00 PM 17.3 63.14 0.047 7.09 3.36 9.2
8/30/2021 3:30:00 PM 17.45 63.41 0.047 7.09 2.17 9.17
8/30/2021 3:45:00 PM 17.58 63.644 0.047 7.1 2.08 9.15
8/30/2021 4:00:00 PM 17.58 63.644 0.047 7.08 1.98 9.1
8/30/2021 4:15:00 PM 17.58 63.644 0.047 7.09 2.15 9.07
8/30/2021 4:30:00 PM 17.55 63.59 0.047 6.95 2.87 9.03
8/30/2021 4:45:00 PM 17.49 63.482 0.047 7.08 2.77 9.05
8/30/2021 5:00:00 PM 17.41 63.338 0.047 7.01 5 9.06
8/30/2021 5:15:00 PM 17.36 63.248 0.047 7.08 2.09 9.07
8/30/2021 5:30:00 PM 17.36 63.248 0.047 7.08 2.19 9.07
8/30/2021 5:45:00 PM 17.29 63.122 0.047 6.95 2.24 9.06
8/30/2021 6:00:00 PM 17.25 63.05 0.047 7.07 2.09 9.05
8/30/2021 6:15:00 PM 17.2 62.96 0.047 7.06 2.03 9.04
8/30/2021 6:30:00 PM 17.17 62.906 0.047 6.99 2.24 9.03
8/30/2021 6:45:00 PM 17.1 62.78 0.047 7.05 2.13 9.02
8/30/2021 7:00:00 PM 17.05 62.69 0.048 7.03 2.06 9.01
8/30/2021 7:15:00 PM 16.97 62.546 0.048 7.04 2.03 9.01
8/30/2021 7:30:00 PM 16.9 62.42 0.048 6.89 2.34 9
8/30/2021 7:45:00 PM 16.84 62.312 0.048 7.02 2.23 8.99
8/30/2021 8:00:00 PM 16.76 62.168 0.048 7 2.12 8.99
8/30/2021 8:15:00 PM 16.7 62.06 0.048 6.86 2.47 8.97
8/30/2021 8:30:00 PM 16.64 61.952 0.048 6.99 2.28 8.97
8/30/2021 8:45:00 PM 16.59 61.862 0.048 6.84 2.05 8.97
8/30/2021 9:00:00 PM 16.54 61.772 0.048 6.97 2.64 8.98
8/30/2021 9:15:00 PM 16.48 61.664 0.048 6.97 2.42 8.98
8/30/2021 9:30:00 PM 16.43 61.574 0.048 6.95 2.3 8.99
8/30/2021 9:45:00 PM 16.36 61.448 0.048 6.95 2.96 9.02
8/30/2021 10:00:00 PM 16.32 61.376 0.048 6.94 2.59 9
8/30/2021 10:15:00 PM 16.26 61.268 0.048 6.94 2.56 9.02
8/30/2021 10:30:00 PM 16.2 61.16 0.048 6.93 2.5 9.04
8/30/2021 10:45:00 PM 16.15 61.07 0.048 6.94 2.26 9.03
8/30/2021 11:00:00 PM 16.1 60.98 0.048 6.92 2.64 9.05
8/30/2021 11:15:00 PM 16.06 60.908 0.048 6.94 2.99 9.05
8/30/2021 11:30:00 PM 16.01 60.818 0.048 6.93 2.42 9.05
8/30/2021 11:45:00 PM 15.96 60.728 0.048 6.93 2.36 9.07
8/31/2021 12:00:00 AM 15.92 60.656 0.048 6.92 2.35 9.07
8/31/2021 12:15:00 AM 15.87 60.566 0.048 6.85 2.77 9.09
8/31/2021 12:30:00 AM 15.83 60.494 0.048 6.94 2.61 9.1
8/31/2021 12:45:00 AM 15.8 60.44 0.048 6.93 2.39 9.11
8/31/2021 1:00:00 AM 15.77 60.386 0.048 6.82 2.46 9.1
8/31/2021 1:15:00 AM 15.72 60.296 0.048 6.93 2.36 9.12
8/31/2021 1:30:00 AM 15.69 60.242 0.048 6.94 2.41 9.13
8/31/2021 1:45:00 AM 15.64 60.152 0.048 6.83 2.29 9.15
8/31/2021 2:00:00 AM 15.61 60.098 0.048 6.95 2.44 9.14
8/31/2021 2:15:00 AM 15.56 60.008 0.048 6.94 2.41 9.17
8/31/2021 2:30:00 AM 15.52 59.936 0.048 6.96 2.6 9.16
8/31/2021 2:45:00 AM 15.49 59.882 0.048 6.97 2.32 9.17
8/31/2021 3:00:00 AM 15.45 59.81 0.048 6.96 2.42 9.17
8/31/2021 3:15:00 AM 15.4 59.72 0.048 6.94 2.59 9.19
8/31/2021 3:30:00 AM 15.36 59.648 0.048 6.97 2.21 9.19
8/31/2021 3:45:00 AM 15.32 59.576 0.048 6.96 2.68 9.21
8/31/2021 4:00:00 AM 15.27 59.486 0.048 6.96 2.33 9.22
8/31/2021 4:15:00 AM 15.24 59.432 0.048 6.97 2.61 9.23
8/31/2021 4:30:00 AM 15.21 59.378 0.048 6.97 2.29 9.23
8/31/2021 4:45:00 AM 15.18 59.324 0.048 6.97 2.37 9.23
8/31/2021 5:00:00 AM 15.14 59.252 0.048 6.97 2.31 9.25
8/31/2021 5:15:00 AM 15.12 59.216 0.049 6.96 2.32 9.25
8/31/2021 5:30:00 AM 15.09 59.162 0.048 6.96 2.39 9.26
8/31/2021 5:45:00 AM 15.07 59.126 0.048 6.86 2.36 9.27
8/31/2021 6:00:00 AM 15.04 59.072 0.049 6.98 2.4 9.28
8/31/2021 6:15:00 AM 15 59 0.049 6.97 2.58 9.29
8/31/2021 6:30:00 AM 14.98 58.964 0.049 6.89 2.54 9.29
8/31/2021 6:45:00 AM 14.94 58.892 0.049 6.98 2.58 9.3
8/31/2021 7:00:00 AM 14.92 58.856 0.049 6.98 3.79 9.3
8/31/2021 7:15:00 AM 14.89 58.802 0.048 6.97 3.59 9.3
8/31/2021 7:30:00 AM 14.86 58.748 0.048 6.98 2.56 9.35
8/31/2021 7:45:00 AM 14.84 58.712 0.049 6.98 2.22 9.36
8/31/2021 8:00:00 AM 14.82 58.676 0.048 6.94 6.12 9.39
8/31/2021 8:15:00 AM 14.82 58.676 0.048 7 3.1 9.41
8/31/2021 8:30:00 AM 14.81 58.658 0.048 7 2.47 9.44
8/31/2021 8:45:00 AM 14.82 58.676 0.048 7.01 2.4 9.47
8/31/2021 9:00:00 AM 14.84 58.712 0.048 7.02 2.16 9.49
8/31/2021 9:15:00 AM 14.86 58.748 0.048 6.89 2.39 9.5
8/31/2021 9:30:00 AM 14.89 58.802 0.048 7.03 2.3 9.54
8/31/2021 9:45:00 AM 14.92 58.856 0.048 7.03 2.13 9.55
8/31/2021 10:00:00 AM 14.98 58.964 0.048 6.9 2.15 9.58
8/31/2021 10:15:00 AM 15.03 59.054 0.048 7.03 2.66 9.57
8/31/2021 10:30:00 AM 15.1 59.18 0.048 7.04 2.32 9.6
8/31/2021 10:45:00 AM 15.17 59.306 0.048 7.06 4.27 9.46
8/31/2021 11:00:00 AM 15.24 59.432 0.048 7.06 2.88 9.57
8/31/2021 11:15:00 AM 15.33 59.594 0.048 7.07 3.71 9.56
8/31/2021 11:30:00 AM 15.41 59.738 0.048 7 3.45 9.53
8/31/2021 11:45:00 AM 15.47 59.846 0.048 7.08 3.35 9.51
8/31/2021 12:00:00 PM 15.57 60.026 0.048 7 2.21 9.54
8/31/2021 12:15:00 PM 15.69 60.242 0.048 6.97 3.24 9.48
8/31/2021 12:30:00 PM 15.83 60.494 0.048 7.08 2.05 9.5
8/31/2021 12:45:00 PM 16 60.8 0.048 7.08 1.85 9.46
8/31/2021 1:00:00 PM 16.22 61.196 0.048 7.09 1.89 9.42
8/31/2021 1:15:00 PM 16.53 61.754 0.048 7.11 2.19 9.41
8/31/2021 1:30:00 PM 16.77 62.186 0.048 7.08 1.92 9.36
8/31/2021 1:45:00 PM 16.91 62.438 0.048 6.98 6.69 9.3
8/31/2021 2:00:00 PM 17.08 62.744 0.048 7.12 3.76 9.29
8/31/2021 2:15:00 PM 17.27 63.086 0.048 7.12 5.69 9.22
8/31/2021 2:30:00 PM 17.44 63.392 0.048 7.13 5.06 9.19
8/31/2021 2:45:00 PM 17.57 63.626 0.048 7.13 3.11 9.21
8/31/2021 3:00:00 PM 17.7 63.86 0.048 7.11 7.28 9.16
8/31/2021 3:15:00 PM 17.82 64.076 0.048 7.13 3.59 9.16
8/31/2021 3:30:00 PM 17.79 64.022 0.048 7.13 3.47 9.09
8/31/2021 3:45:00 PM 17.93 64.274 0.048 7 4.3 9.08
8/31/2021 4:00:00 PM 18.04 64.472 0.048 7.13 3.54 9.09
8/31/2021 4:15:00 PM 18.11 64.598 0.048 7.13 3.71 9.07
8/31/2021 4:30:00 PM 18.13 64.634 0.048 7.14 1.89 9.08
8/31/2021 4:45:00 PM 18.08 64.544 0.048 7.13 2.2 9.03
8/31/2021 5:00:00 PM 18.05 64.49 0.048 7.11 3.67 9.01
8/31/2021 5:15:00 PM 17.97 64.346 0.048 7.14 5.38 9.01
8/31/2021 5:30:00 PM 17.94 64.292 0.048 7.12 4.31 9
8/31/2021 5:45:00 PM 17.84 64.112 0.048 7.02 4.76 9.01
8/31/2021 6:00:00 PM 17.74 63.932 0.048 7.11 5.68 8.99
8/31/2021 6:15:00 PM 17.64 63.752 0.048 6.99 2.29 9.01
8/31/2021 6:30:00 PM 17.57 63.626 0.048 7.02 1.89 8.99
8/31/2021 6:45:00 PM 17.52 63.536 0.048 7 1.91 8.97
8/31/2021 7:00:00 PM 17.45 63.41 0.048 7.07 1.96 8.96
8/31/2021 7:15:00 PM 17.32 63.176 0.048 7.05 1.94 8.94
8/31/2021 7:30:00 PM 17.24 63.032 0.048 7.04 2.18 8.93
8/31/2021 7:45:00 PM 17.13 62.834 0.048 7.04 1.99 8.92
8/31/2021 8:00:00 PM 17.06 62.708 0.048 7.03 2.04 8.9
8/31/2021 8:15:00 PM 16.98 62.564 0.048 7 2.17 8.91
8/31/2021 8:30:00 PM 16.92 62.456 0.048 7.02 2.17 8.88
8/31/2021 8:45:00 PM 16.85 62.33 0.048 7.01 2.23 8.89
8/31/2021 9:00:00 PM 16.78 62.204 0.048 7.01 2.17 8.89
8/31/2021 9:15:00 PM 16.7 62.06 0.049 7 2.23 8.89
8/31/2021 9:30:00 PM 16.63 61.934 0.049 7 1.91 8.9
8/31/2021 9:45:00 PM 16.55 61.79 0.049 6.97 2.3 8.92
8/31/2021 10:00:00 PM 16.5 61.7 0.049 6.99 2.12 8.92
8/31/2021 10:15:00 PM 16.43 61.574 0.049 6.98 2.28 8.94
8/31/2021 10:30:00 PM 16.35 61.43 0.049 6.84 2.15 8.96
8/31/2021 10:45:00 PM 16.3 61.34 0.049 6.89 2.07 8.96
8/31/2021 11:00:00 PM 16.25 61.25 0.049 6.97 2.53 8.98
8/31/2021 11:15:00 PM 16.19 61.142 0.049 6.96 2.22 8.98
8/31/2021 11:30:00 PM 16.13 61.034 0.049 6.96 2.43 8.99
8/31/2021 11:45:00 PM 16.07 60.926 0.049 6.83 2.27 9.02
9/1/2021 12:00:00 AM 16.03 60.854 0.049 6.96 2.15 9
9/1/2021 12:15:00 AM 15.99 60.782 0.049 6.96 2.31 9
9/1/2021 12:30:00 AM 15.93 60.674 0.049 6.97 2.28 9.03
9/1/2021 12:45:00 AM 15.88 60.584 0.049 6.95 2.13 9.04
9/1/2021 1:00:00 AM 15.84 60.512 0.049 6.96 2.15 9.04
9/1/2021 1:15:00 AM 15.79 60.422 0.049 6.96 2.06 9.06
9/1/2021 1:30:00 AM 15.73 60.314 0.049 6.97 2.14 9.07
9/1/2021 1:45:00 AM 15.71 60.278 0.049 6.96 2.3 9.07
9/1/2021 2:00:00 AM 15.66 60.188 0.049 6.97 2.21 9.1
9/1/2021 2:15:00 AM 15.62 60.116 0.049 6.97 2 9.1
9/1/2021 2:30:00 AM 15.59 60.062 0.049 6.98 2.39 9.1
9/1/2021 2:45:00 AM 15.56 60.008 0.049 6.86 2.09 9.1
9/1/2021 3:00:00 AM 15.52 59.936 0.049 6.98 2.21 9.12
9/1/2021 3:15:00 AM 15.5 59.9 0.049 6.98 2.18 9.12
9/1/2021 3:30:00 AM 15.47 59.846 0.049 6.98 2.94 9.13
9/1/2021 3:45:00 AM 15.44 59.792 0.049 6.98 9.62 9.13
9/1/2021 4:00:00 AM 15.43 59.774 0.049 6.83 2.06 9.11
9/1/2021 4:15:00 AM 15.4 59.72 0.049 6.97 2.24 9.13
9/1/2021 4:30:00 AM 15.37 59.666 0.049 6.98 2.34 9.14
9/1/2021 4:45:00 AM 15.35 59.63 0.049 6.85 2.31 9.15
9/1/2021 5:00:00 AM 15.33 59.594 0.049 6.98 2.16 9.15
9/1/2021 5:15:00 AM 15.32 59.576 0.049 6.98 2.18 9.15
9/1/2021 5:30:00 AM 15.3 59.54 0.049 6.86 2.31 9.16
9/1/2021 5:45:00 AM 15.28 59.504 0.049 6.97 2.38 9.16
9/1/2021 6:00:00 AM 15.26 59.468 0.049 6.97 2.44 9.16
9/1/2021 6:15:00 AM 15.24 59.432 0.049 6.96 2.51 9.15
9/1/2021 6:30:00 AM 15.23 59.414 0.049 6.97 2.66 9.17
9/1/2021 6:45:00 AM 15.2 59.36 0.049 6.97 2.59 9.19
9/1/2021 7:00:00 AM 15.18 59.324 0.049 6.97 2.57 9.18
9/1/2021 7:15:00 AM 15.16 59.288 0.049 6.83 2.72 9.18
9/1/2021 7:30:00 AM 15.14 59.252 0.049 6.97 3.84 9.18
9/1/2021 7:45:00 AM 15.11 59.198 0.049 6.97 3.05 9.2
9/1/2021 8:00:00 AM 15.09 59.162 0.049 6.98 2.69 9.22
9/1/2021 8:15:00 AM 15.07 59.126 0.049 6.99 2.31 9.25
9/1/2021 8:30:00 AM 15.05 59.09 0.049 6.99 2.05 9.28
9/1/2021 8:45:00 AM 15.04 59.072 0.049 6.99 2.21 9.29
9/1/2021 9:00:00 AM 15.03 59.054 0.049 6.95 2.39 9.32
9/1/2021 9:15:00 AM 15.02 59.036 0.049 6.97 2.41 9.35
9/1/2021 9:30:00 AM 15.03 59.054 0.049 7.01 2.34 9.37
9/1/2021 9:45:00 AM 15.04 59.072 0.049 6.89 2.25 9.39
9/1/2021 10:00:00 AM 15.06 59.108 0.048 7.02 2.27 9.41
9/1/2021 10:15:00 AM 15.08 59.144 0.048 7.03 2.15 9.43
9/1/2021 10:30:00 AM 15.1 59.18 0.048 7.04 2.16 9.45
9/1/2021 10:45:00 AM 15.12 59.216 0.048 7.04 2.38 9.47
9/1/2021 11:00:00 AM 15.15 59.27 0.048 6.92 2.3 9.48
9/1/2021 11:15:00 AM 15.17 59.306 0.048 7.07 2.31 9.49
9/1/2021 11:30:00 AM 15.19 59.342 0.048 7.07 2.16 9.5
9/1/2021 11:45:00 AM 15.2 59.36 0.049 7.08 2.65 9.5
9/1/2021 12:00:00 PM 15.23 59.414 0.049 7.08 2.93 9.48
9/1/2021 12:15:00 PM 15.22 59.396 0.049 7.08 2.39 9.48
9/1/2021 12:30:00 PM 15.22 59.396 0.049 6.94 2.37 9.46
9/1/2021 12:45:00 PM 15.21 59.378 0.049 7.07 4.13 9.44
9/1/2021 1:00:00 PM 15.22 59.396 0.049 7.06 4.08 9.45
9/1/2021 1:15:00 PM 15.21 59.378 0.049 7.07 2.68 9.45
9/1/2021 1:30:00 PM 15.19 59.342 0.049 7.08 2.34 9.45
9/1/2021 1:45:00 PM 15.19 59.342 0.049 7.08 2.41 9.45
9/1/2021 2:00:00 PM 15.18 59.324 0.049 6.95 3.39 9.44
9/1/2021 2:15:00 PM 15.17 59.306 0.049 7.08 3.27 9.44
9/1/2021 2:30:00 PM 15.16 59.288 0.049 7.06 4.63 9.43
9/1/2021 2:45:00 PM 15.16 59.288 0.049 6.97 2.42 9.43
9/1/2021 3:00:00 PM 15.15 59.27 0.048 6.99 3.17 9.43
9/1/2021 3:15:00 PM 15.14 59.252 0.049 7.07 3.72 9.42
9/1/2021 3:30:00 PM 15.13 59.234 0.049 7.07 3.55 9.41
9/1/2021 3:45:00 PM 15.12 59.216 0.049 7.06 3.52 9.41
9/1/2021 4:00:00 PM 15.1 59.18 0.049 7.07 2.27 9.4
9/1/2021 4:15:00 PM 15.09 59.162 0.049 6.93 6.53 9.41
9/1/2021 4:30:00 PM 15.07 59.126 0.049 7.06 4.18 9.39
9/1/2021 4:45:00 PM 15.06 59.108 0.049 7.05 5.43 9.4
9/1/2021 5:00:00 PM 15.04 59.072 0.049 7.06 4.01 9.4
9/1/2021 5:15:00 PM 15.02 59.036 0.171 7.05 5.48 9.39
9/1/2021 5:30:00 PM 15 59 0.065 7.01 5.46 9.38
9/1/2021 5:45:00 PM 14.98 58.964 1.714 6.92 2.58 9.33
9/1/2021 6:00:00 PM 14.96 58.928 0.049 7.03 2.62 9.39
9/1/2021 6:15:00 PM 14.94 58.892 0.05 7.05 2.52 9.39
9/1/2021 6:30:00 PM 14.92 58.856 0.05 7.04 2.67 9.39
9/1/2021 6:45:00 PM 14.9 58.82 1.082 6.97 2.73 9.34
9/1/2021 7:00:00 PM 14.88 58.784 1.063 6.86 2.65 9.34
9/1/2021 7:15:00 PM 14.86 58.748 1.052 6.97 2.74 9.34
9/1/2021 7:30:00 PM 14.84 58.712 0.949 6.98 2.52 9.34
9/1/2021 7:45:00 PM 14.81 58.658 0.35 6.95 2.59 9.33
9/1/2021 8:00:00 PM 14.78 58.604 0.696 7 3.01 9.34
9/1/2021 8:15:00 PM 14.74 58.532 0.688 6.99 2.9 9.33
9/1/2021 8:30:00 PM 14.71 58.478 1.237 6.98 2.78 9.31
9/1/2021 8:45:00 PM 14.66 58.388 0.823 6.9 2.82 9.32
9/1/2021 9:00:00 PM 14.62 58.316 1.401 6.96 3.04 9.3
9/1/2021 9:15:00 PM 14.57 58.226 0.05 6.99 3.51 9.35
9/1/2021 9:30:00 PM 14.51 58.118 0.046 6.92 2.78 9.37
9/1/2021 9:45:00 PM 14.46 58.028 0.96 6.92 3.88 9.35
9/1/2021 10:00:00 PM 14.4 57.92 1.384 6.99 3.03 9.32
9/1/2021 10:15:00 PM 14.34 57.812 1.979 6.92 3 9.35
9/1/2021 10:30:00 PM 14.28 57.704 0.05 7.03 2.7 9.42
9/1/2021 10:45:00 PM 14.22 57.596 0.109 7 2.59 9.41
9/1/2021 11:00:00 PM 14.16 57.488 0.056 7 2.71 9.44
9/1/2021 11:15:00 PM 14.1 57.38 1.519 6.93 2.78 9.4
9/1/2021 11:30:00 PM 14.04 57.272 0.542 6.92 2.76 9.45
9/1/2021 11:45:00 PM 13.98 57.164 0.353 6.85 2.45 9.45
9/2/2021 12:00:00 AM 13.93 57.074 1.689 6.86 2.51 9.47
9/2/2021 12:15:00 AM 13.87 56.966 1.37 6.91 3.04 9.45
9/2/2021 12:30:00 AM 13.82 56.876 1.433 6.82 2.58 9.46
9/2/2021 12:45:00 AM 13.76 56.768 1.487 6.9 2.55 9.48
9/2/2021 1:00:00 AM 13.73 56.714 1.326 6.92 4.57 9.47
9/2/2021 1:15:00 AM 13.67 56.606 0.052 6.92 2.89 9.55
9/2/2021 1:30:00 AM 13.62 56.516 0.051 6.85 2.64 9.56
9/2/2021 1:45:00 AM 13.58 56.444 1.297 6.91 2.53 9.52
9/2/2021 2:00:00 AM 13.54 56.372 1.262 6.92 2.44 9.55
9/2/2021 2:15:00 AM 13.5 56.3 1.233 6.93 2.35 9.56
9/2/2021 2:30:00 AM 13.46 56.228 0.986 6.94 2.45 9.58
9/2/2021 2:45:00 AM 13.43 56.174 0.826 6.94 2.32 9.58
9/2/2021 3:00:00 AM 13.4 56.12 0.865 6.95 2.36 9.58
9/2/2021 3:15:00 AM 13.35 56.03 0.858 6.95 2.26 9.59
9/2/2021 3:30:00 AM 13.31 55.958 0.601 6.97 2.58 9.62
9/2/2021 3:45:00 AM 13.28 55.904 0.711 6.97 2.52 9.63
9/2/2021 4:00:00 AM 13.23 55.814 0.839 6.85 2.29 9.63
9/2/2021 4:15:00 AM 13.19 55.742 0.136 6.96 2.57 9.66
9/2/2021 4:30:00 AM 13.15 55.67 0.627 6.91 2.49 9.66
9/2/2021 4:45:00 AM 13.11 55.598 0.592 6.98 2.31 9.68
9/2/2021 5:00:00 AM 13.07 55.526 0.694 6.96 2.33 9.69
9/2/2021 5:15:00 AM 13.04 55.472 0.821 6.95 2.4 9.69
9/2/2021 5:30:00 AM 12.99 55.382 0.98 6.93 2.22 9.71
9/2/2021 5:45:00 AM 12.95 55.31 0.05 7.02 2.23 9.74
9/2/2021 6:00:00 AM 12.92 55.256 0.05 6.89 2.48 9.75
9/2/2021 6:15:00 AM 12.87 55.166 0.05 7.01 2.3 9.76
9/2/2021 6:30:00 AM 12.83 55.094 0.05 6.9 2.46 9.76
9/2/2021 6:45:00 AM 12.79 55.022 0.05 7.02 2.39 9.76
9/2/2021 7:00:00 AM 12.75 54.95 0.05 7.01 2.29 9.78
9/2/2021 7:15:00 AM 12.71 54.878 0.05 6.9 2.29 9.81
9/2/2021 7:30:00 AM 12.68 54.824 0.05 7.02 2.08 9.82
9/2/2021 7:45:00 AM 12.66 54.788 0.05 7.02 2.22 9.84
9/2/2021 8:00:00 AM 12.64 54.752 0.05 6.9 2.32 9.89
9/2/2021 8:15:00 AM 12.61 54.698 0.05 7.03 2.48 9.93
9/2/2021 8:30:00 AM 12.59 54.662 0.064 7.04 2.41 9.97
9/2/2021 8:45:00 AM 12.57 54.626 0.064 7.05 2.79 9.99
9/2/2021 9:00:00 AM 12.56 54.608 0.056 7.06 2.27 10.04
9/2/2021 9:15:00 AM 12.54 54.572 0.054 7.02 2.36 10.05
9/2/2021 9:30:00 AM 12.53 54.554 0.05 7.07 2.3 10.05
9/2/2021 9:45:00 AM 12.56 54.608 0.05 7.07 2.08 10.06
9/2/2021 10:00:00 AM 12.6 54.68 0.06 7.07 2.14 10.04
9/2/2021 10:15:00 AM 12.67 54.806 0.058 6.94